<?xml version="1.0" encoding="UTF-8" standalone="no" ?>
<gpx xmlns="http://www.topografix.com/GPX/1/1" xmlns:xsi="http://www.w3.org/2001/XMLSchema-instance" xsi:schemaLocation="http://www.topografix.com/GPX/1/1 http://www.topografix.com/GPX/1/1/gpx.xsd" version="1.1" creator="VisuGPX - https://www.visugpx.com">
  <metadata>
    <name>Mageriaz 1</name>
    <desc><![CDATA[sortie raquette ski ]]></desc>
  </metadata>
  <trk>
    <name><![CDATA[Margeriaz raquette ski pleine lune]]></name>
    <trkseg>
      <trkpt lat="45.64249" lon="6.06061">
        <ele>1440</ele>
        <time>2014-02-11T20:01:40.1Z</time>
      </trkpt>
      <trkpt lat="45.64251" lon="6.06059">
        <ele>1442</ele>
        <time>2014-02-11T20:01:42.1Z</time>
      </trkpt>
      <trkpt lat="45.64251" lon="6.06059">
        <ele>1443</ele>
        <time>2014-02-11T20:01:44.1Z</time>
      </trkpt>
      <trkpt lat="45.64252" lon="6.06061">
        <ele>1446</ele>
        <time>2014-02-11T20:01:47.1Z</time>
      </trkpt>
      <trkpt lat="45.64253" lon="6.06064">
        <ele>1451</ele>
        <time>2014-02-11T20:01:50.1Z</time>
      </trkpt>
      <trkpt lat="45.64254" lon="6.06066">
        <ele>1450</ele>
        <time>2014-02-11T20:01:52.1Z</time>
      </trkpt>
      <trkpt lat="45.64255" lon="6.0607">
        <ele>1449</ele>
        <time>2014-02-11T20:01:55.1Z</time>
      </trkpt>
      <trkpt lat="45.64256" lon="6.06072">
        <ele>1448</ele>
        <time>2014-02-11T20:01:57.1Z</time>
      </trkpt>
      <trkpt lat="45.64256" lon="6.06075">
        <ele>1448</ele>
        <time>2014-02-11T20:01:59.1Z</time>
      </trkpt>
      <trkpt lat="45.64257" lon="6.06079">
        <ele>1448</ele>
        <time>2014-02-11T20:02:02.1Z</time>
      </trkpt>
      <trkpt lat="45.64257" lon="6.06083">
        <ele>1447</ele>
        <time>2014-02-11T20:02:05.1Z</time>
      </trkpt>
      <trkpt lat="45.64255" lon="6.06086">
        <ele>1447</ele>
        <time>2014-02-11T20:02:07.1Z</time>
      </trkpt>
      <trkpt lat="45.64252" lon="6.06087">
        <ele>1447</ele>
        <time>2014-02-11T20:02:10.1Z</time>
      </trkpt>
      <trkpt lat="45.6425" lon="6.06088">
        <ele>1447</ele>
        <time>2014-02-11T20:02:13.1Z</time>
      </trkpt>
      <trkpt lat="45.64249" lon="6.06087">
        <ele>1448</ele>
        <time>2014-02-11T20:02:16.1Z</time>
      </trkpt>
      <trkpt lat="45.64248" lon="6.06087">
        <ele>1448</ele>
        <time>2014-02-11T20:02:18.1Z</time>
      </trkpt>
      <trkpt lat="45.64247" lon="6.06087">
        <ele>1449</ele>
        <time>2014-02-11T20:02:20.1Z</time>
      </trkpt>
      <trkpt lat="45.64246" lon="6.06088">
        <ele>1449</ele>
        <time>2014-02-11T20:02:23.1Z</time>
      </trkpt>
      <trkpt lat="45.64245" lon="6.06088">
        <ele>1449</ele>
        <time>2014-02-11T20:02:25.1Z</time>
      </trkpt>
      <trkpt lat="45.64244" lon="6.06088">
        <ele>1449</ele>
        <time>2014-02-11T20:02:28.1Z</time>
      </trkpt>
      <trkpt lat="45.64244" lon="6.06088">
        <ele>1449</ele>
        <time>2014-02-11T20:02:33.1Z</time>
      </trkpt>
      <trkpt lat="45.64244" lon="6.06088">
        <ele>1449</ele>
        <time>2014-02-11T20:02:35.1Z</time>
      </trkpt>
      <trkpt lat="45.64242" lon="6.06087">
        <ele>1449</ele>
        <time>2014-02-11T20:02:38.1Z</time>
      </trkpt>
      <trkpt lat="45.6424" lon="6.06087">
        <ele>1449</ele>
        <time>2014-02-11T20:02:41.1Z</time>
      </trkpt>
      <trkpt lat="45.64236" lon="6.06088">
        <ele>1449</ele>
        <time>2014-02-11T20:02:44.1Z</time>
      </trkpt>
      <trkpt lat="45.64235" lon="6.06088">
        <ele>1449</ele>
        <time>2014-02-11T20:02:46.1Z</time>
      </trkpt>
      <trkpt lat="45.64233" lon="6.06088">
        <ele>1449</ele>
        <time>2014-02-11T20:02:48.1Z</time>
      </trkpt>
      <trkpt lat="45.6423" lon="6.06088">
        <ele>1449</ele>
        <time>2014-02-11T20:02:51.1Z</time>
      </trkpt>
      <trkpt lat="45.64227" lon="6.06087">
        <ele>1449</ele>
        <time>2014-02-11T20:02:54.1Z</time>
      </trkpt>
      <trkpt lat="45.64225" lon="6.06087">
        <ele>1449</ele>
        <time>2014-02-11T20:02:56.1Z</time>
      </trkpt>
      <trkpt lat="45.64223" lon="6.06086">
        <ele>1450</ele>
        <time>2014-02-11T20:02:58.1Z</time>
      </trkpt>
      <trkpt lat="45.6422" lon="6.06086">
        <ele>1450</ele>
        <time>2014-02-11T20:03:01.1Z</time>
      </trkpt>
      <trkpt lat="45.64218" lon="6.06085">
        <ele>1450</ele>
        <time>2014-02-11T20:03:03.1Z</time>
      </trkpt>
      <trkpt lat="45.64215" lon="6.06085">
        <ele>1450</ele>
        <time>2014-02-11T20:03:06.1Z</time>
      </trkpt>
      <trkpt lat="45.64214" lon="6.06085">
        <ele>1451</ele>
        <time>2014-02-11T20:03:08.1Z</time>
      </trkpt>
      <trkpt lat="45.64211" lon="6.06084">
        <ele>1451</ele>
        <time>2014-02-11T20:03:11.1Z</time>
      </trkpt>
      <trkpt lat="45.64209" lon="6.06084">
        <ele>1451</ele>
        <time>2014-02-11T20:03:13.1Z</time>
      </trkpt>
      <trkpt lat="45.64207" lon="6.06083">
        <ele>1451</ele>
        <time>2014-02-11T20:03:15.1Z</time>
      </trkpt>
      <trkpt lat="45.64205" lon="6.06082">
        <ele>1451</ele>
        <time>2014-02-11T20:03:17.1Z</time>
      </trkpt>
      <trkpt lat="45.64202" lon="6.0608">
        <ele>1452</ele>
        <time>2014-02-11T20:03:20.1Z</time>
      </trkpt>
      <trkpt lat="45.642" lon="6.06079">
        <ele>1452</ele>
        <time>2014-02-11T20:03:22.1Z</time>
      </trkpt>
      <trkpt lat="45.64198" lon="6.06078">
        <ele>1452</ele>
        <time>2014-02-11T20:03:25.1Z</time>
      </trkpt>
      <trkpt lat="45.64196" lon="6.06076">
        <ele>1452</ele>
        <time>2014-02-11T20:03:28.1Z</time>
      </trkpt>
      <trkpt lat="45.64194" lon="6.06075">
        <ele>1452</ele>
        <time>2014-02-11T20:03:30.1Z</time>
      </trkpt>
      <trkpt lat="45.64192" lon="6.06074">
        <ele>1452</ele>
        <time>2014-02-11T20:03:33.1Z</time>
      </trkpt>
      <trkpt lat="45.6419" lon="6.06071">
        <ele>1452</ele>
        <time>2014-02-11T20:03:36.1Z</time>
      </trkpt>
      <trkpt lat="45.64188" lon="6.0607">
        <ele>1453</ele>
        <time>2014-02-11T20:03:38.1Z</time>
      </trkpt>
      <trkpt lat="45.64186" lon="6.06068">
        <ele>1453</ele>
        <time>2014-02-11T20:03:41.1Z</time>
      </trkpt>
      <trkpt lat="45.64184" lon="6.06067">
        <ele>1453</ele>
        <time>2014-02-11T20:03:43.1Z</time>
      </trkpt>
      <trkpt lat="45.64182" lon="6.06065">
        <ele>1453</ele>
        <time>2014-02-11T20:03:46.1Z</time>
      </trkpt>
      <trkpt lat="45.6418" lon="6.06063">
        <ele>1454</ele>
        <time>2014-02-11T20:03:49.1Z</time>
      </trkpt>
      <trkpt lat="45.64178" lon="6.06062">
        <ele>1454</ele>
        <time>2014-02-11T20:03:51.1Z</time>
      </trkpt>
      <trkpt lat="45.64177" lon="6.0606">
        <ele>1455</ele>
        <time>2014-02-11T20:03:54.1Z</time>
      </trkpt>
      <trkpt lat="45.64175" lon="6.06058">
        <ele>1455</ele>
        <time>2014-02-11T20:03:57.1Z</time>
      </trkpt>
      <trkpt lat="45.64173" lon="6.06055">
        <ele>1455</ele>
        <time>2014-02-11T20:04:00.1Z</time>
      </trkpt>
      <trkpt lat="45.64171" lon="6.06054">
        <ele>1455</ele>
        <time>2014-02-11T20:04:02.1Z</time>
      </trkpt>
      <trkpt lat="45.64169" lon="6.06051">
        <ele>1456</ele>
        <time>2014-02-11T20:04:05.1Z</time>
      </trkpt>
      <trkpt lat="45.64167" lon="6.06049">
        <ele>1456</ele>
        <time>2014-02-11T20:04:08.1Z</time>
      </trkpt>
      <trkpt lat="45.64166" lon="6.06047">
        <ele>1457</ele>
        <time>2014-02-11T20:04:10.1Z</time>
      </trkpt>
      <trkpt lat="45.64164" lon="6.06044">
        <ele>1457</ele>
        <time>2014-02-11T20:04:13.1Z</time>
      </trkpt>
      <trkpt lat="45.64163" lon="6.06043">
        <ele>1457</ele>
        <time>2014-02-11T20:04:15.1Z</time>
      </trkpt>
      <trkpt lat="45.64161" lon="6.0604">
        <ele>1458</ele>
        <time>2014-02-11T20:04:18.1Z</time>
      </trkpt>
      <trkpt lat="45.64159" lon="6.06038">
        <ele>1458</ele>
        <time>2014-02-11T20:04:21.1Z</time>
      </trkpt>
      <trkpt lat="45.64158" lon="6.06036">
        <ele>1458</ele>
        <time>2014-02-11T20:04:23.1Z</time>
      </trkpt>
      <trkpt lat="45.64156" lon="6.06033">
        <ele>1459</ele>
        <time>2014-02-11T20:04:26.1Z</time>
      </trkpt>
      <trkpt lat="45.64155" lon="6.06032">
        <ele>1459</ele>
        <time>2014-02-11T20:04:28.1Z</time>
      </trkpt>
      <trkpt lat="45.64154" lon="6.0603">
        <ele>1460</ele>
        <time>2014-02-11T20:04:31.1Z</time>
      </trkpt>
      <trkpt lat="45.64152" lon="6.06028">
        <ele>1460</ele>
        <time>2014-02-11T20:04:34.1Z</time>
      </trkpt>
      <trkpt lat="45.64151" lon="6.06026">
        <ele>1460</ele>
        <time>2014-02-11T20:04:36.1Z</time>
      </trkpt>
      <trkpt lat="45.64148" lon="6.06025">
        <ele>1461</ele>
        <time>2014-02-11T20:04:39.1Z</time>
      </trkpt>
      <trkpt lat="45.64147" lon="6.06022">
        <ele>1461</ele>
        <time>2014-02-11T20:04:42.1Z</time>
      </trkpt>
      <trkpt lat="45.64145" lon="6.0602">
        <ele>1462</ele>
        <time>2014-02-11T20:04:45.1Z</time>
      </trkpt>
      <trkpt lat="45.64143" lon="6.06019">
        <ele>1462</ele>
        <time>2014-02-11T20:04:47.1Z</time>
      </trkpt>
      <trkpt lat="45.64142" lon="6.06016">
        <ele>1463</ele>
        <time>2014-02-11T20:04:50.1Z</time>
      </trkpt>
      <trkpt lat="45.64139" lon="6.06014">
        <ele>1463</ele>
        <time>2014-02-11T20:04:53.1Z</time>
      </trkpt>
      <trkpt lat="45.64138" lon="6.06013">
        <ele>1464</ele>
        <time>2014-02-11T20:04:55.1Z</time>
      </trkpt>
      <trkpt lat="45.64135" lon="6.0601">
        <ele>1464</ele>
        <time>2014-02-11T20:04:58.1Z</time>
      </trkpt>
      <trkpt lat="45.64133" lon="6.06009">
        <ele>1464</ele>
        <time>2014-02-11T20:05:01.1Z</time>
      </trkpt>
      <trkpt lat="45.64131" lon="6.06007">
        <ele>1464</ele>
        <time>2014-02-11T20:05:03.1Z</time>
      </trkpt>
      <trkpt lat="45.64129" lon="6.06004">
        <ele>1465</ele>
        <time>2014-02-11T20:05:06.1Z</time>
      </trkpt>
      <trkpt lat="45.64127" lon="6.06003">
        <ele>1465</ele>
        <time>2014-02-11T20:05:08.1Z</time>
      </trkpt>
      <trkpt lat="45.64125" lon="6.06001">
        <ele>1466</ele>
        <time>2014-02-11T20:05:11.1Z</time>
      </trkpt>
      <trkpt lat="45.64123" lon="6.05998">
        <ele>1466</ele>
        <time>2014-02-11T20:05:14.1Z</time>
      </trkpt>
      <trkpt lat="45.64122" lon="6.05997">
        <ele>1467</ele>
        <time>2014-02-11T20:05:16.1Z</time>
      </trkpt>
      <trkpt lat="45.6412" lon="6.05995">
        <ele>1467</ele>
        <time>2014-02-11T20:05:19.1Z</time>
      </trkpt>
      <trkpt lat="45.64118" lon="6.05994">
        <ele>1467</ele>
        <time>2014-02-11T20:05:21.1Z</time>
      </trkpt>
      <trkpt lat="45.64116" lon="6.05991">
        <ele>1467</ele>
        <time>2014-02-11T20:05:24.1Z</time>
      </trkpt>
      <trkpt lat="45.64115" lon="6.05989">
        <ele>1468</ele>
        <time>2014-02-11T20:05:26.1Z</time>
      </trkpt>
      <trkpt lat="45.64113" lon="6.05987">
        <ele>1469</ele>
        <time>2014-02-11T20:05:29.1Z</time>
      </trkpt>
      <trkpt lat="45.64112" lon="6.05984">
        <ele>1469</ele>
        <time>2014-02-11T20:05:32.1Z</time>
      </trkpt>
      <trkpt lat="45.6411" lon="6.0598">
        <ele>1469</ele>
        <time>2014-02-11T20:05:35.1Z</time>
      </trkpt>
      <trkpt lat="45.64108" lon="6.05978">
        <ele>1470</ele>
        <time>2014-02-11T20:05:38.1Z</time>
      </trkpt>
      <trkpt lat="45.64107" lon="6.05976">
        <ele>1470</ele>
        <time>2014-02-11T20:05:40.1Z</time>
      </trkpt>
      <trkpt lat="45.64104" lon="6.05973">
        <ele>1471</ele>
        <time>2014-02-11T20:05:43.1Z</time>
      </trkpt>
      <trkpt lat="45.64103" lon="6.05971">
        <ele>1471</ele>
        <time>2014-02-11T20:05:46.1Z</time>
      </trkpt>
      <trkpt lat="45.64101" lon="6.0597">
        <ele>1472</ele>
        <time>2014-02-11T20:05:48.1Z</time>
      </trkpt>
      <trkpt lat="45.64099" lon="6.05968">
        <ele>1472</ele>
        <time>2014-02-11T20:05:51.1Z</time>
      </trkpt>
      <trkpt lat="45.64096" lon="6.05966">
        <ele>1472</ele>
        <time>2014-02-11T20:05:54.1Z</time>
      </trkpt>
      <trkpt lat="45.64095" lon="6.05964">
        <ele>1473</ele>
        <time>2014-02-11T20:05:56.1Z</time>
      </trkpt>
      <trkpt lat="45.64091" lon="6.05963">
        <ele>1473</ele>
        <time>2014-02-11T20:05:59.1Z</time>
      </trkpt>
      <trkpt lat="45.64088" lon="6.05962">
        <ele>1473</ele>
        <time>2014-02-11T20:06:02.1Z</time>
      </trkpt>
      <trkpt lat="45.64087" lon="6.05962">
        <ele>1474</ele>
        <time>2014-02-11T20:06:04.1Z</time>
      </trkpt>
      <trkpt lat="45.64084" lon="6.0596">
        <ele>1474</ele>
        <time>2014-02-11T20:06:07.1Z</time>
      </trkpt>
      <trkpt lat="45.64082" lon="6.05959">
        <ele>1474</ele>
        <time>2014-02-11T20:06:09.1Z</time>
      </trkpt>
      <trkpt lat="45.6408" lon="6.05958">
        <ele>1475</ele>
        <time>2014-02-11T20:06:12.1Z</time>
      </trkpt>
      <trkpt lat="45.64078" lon="6.05957">
        <ele>1475</ele>
        <time>2014-02-11T20:06:14.1Z</time>
      </trkpt>
      <trkpt lat="45.64075" lon="6.05956">
        <ele>1476</ele>
        <time>2014-02-11T20:06:17.1Z</time>
      </trkpt>
      <trkpt lat="45.64074" lon="6.05955">
        <ele>1476</ele>
        <time>2014-02-11T20:06:19.1Z</time>
      </trkpt>
      <trkpt lat="45.64071" lon="6.05953">
        <ele>1476</ele>
        <time>2014-02-11T20:06:22.1Z</time>
      </trkpt>
      <trkpt lat="45.64069" lon="6.05952">
        <ele>1477</ele>
        <time>2014-02-11T20:06:25.1Z</time>
      </trkpt>
      <trkpt lat="45.64067" lon="6.0595">
        <ele>1477</ele>
        <time>2014-02-11T20:06:27.1Z</time>
      </trkpt>
      <trkpt lat="45.64065" lon="6.05949">
        <ele>1477</ele>
        <time>2014-02-11T20:06:30.1Z</time>
      </trkpt>
      <trkpt lat="45.64063" lon="6.05948">
        <ele>1478</ele>
        <time>2014-02-11T20:06:32.1Z</time>
      </trkpt>
      <trkpt lat="45.64061" lon="6.05947">
        <ele>1478</ele>
        <time>2014-02-11T20:06:35.1Z</time>
      </trkpt>
      <trkpt lat="45.64058" lon="6.05945">
        <ele>1479</ele>
        <time>2014-02-11T20:06:38.1Z</time>
      </trkpt>
      <trkpt lat="45.64055" lon="6.05944">
        <ele>1479</ele>
        <time>2014-02-11T20:06:41.1Z</time>
      </trkpt>
      <trkpt lat="45.64053" lon="6.05943">
        <ele>1479</ele>
        <time>2014-02-11T20:06:43.1Z</time>
      </trkpt>
      <trkpt lat="45.64051" lon="6.05942">
        <ele>1480</ele>
        <time>2014-02-11T20:06:46.1Z</time>
      </trkpt>
      <trkpt lat="45.64048" lon="6.05941">
        <ele>1480</ele>
        <time>2014-02-11T20:06:49.1Z</time>
      </trkpt>
      <trkpt lat="45.64045" lon="6.05939">
        <ele>1481</ele>
        <time>2014-02-11T20:06:52.1Z</time>
      </trkpt>
      <trkpt lat="45.64043" lon="6.05938">
        <ele>1481</ele>
        <time>2014-02-11T20:06:54.1Z</time>
      </trkpt>
      <trkpt lat="45.64041" lon="6.05937">
        <ele>1482</ele>
        <time>2014-02-11T20:06:57.1Z</time>
      </trkpt>
      <trkpt lat="45.64039" lon="6.05935">
        <ele>1482</ele>
        <time>2014-02-11T20:06:59.1Z</time>
      </trkpt>
      <trkpt lat="45.64037" lon="6.05933">
        <ele>1483</ele>
        <time>2014-02-11T20:07:02.1Z</time>
      </trkpt>
      <trkpt lat="45.64035" lon="6.05932">
        <ele>1483</ele>
        <time>2014-02-11T20:07:05.1Z</time>
      </trkpt>
      <trkpt lat="45.64034" lon="6.05931">
        <ele>1484</ele>
        <time>2014-02-11T20:07:08.1Z</time>
      </trkpt>
      <trkpt lat="45.64032" lon="6.0593">
        <ele>1485</ele>
        <time>2014-02-11T20:07:11.1Z</time>
      </trkpt>
      <trkpt lat="45.6403" lon="6.0593">
        <ele>1485</ele>
        <time>2014-02-11T20:07:13.1Z</time>
      </trkpt>
      <trkpt lat="45.64029" lon="6.05929">
        <ele>1486</ele>
        <time>2014-02-11T20:07:15.1Z</time>
      </trkpt>
      <trkpt lat="45.64027" lon="6.05928">
        <ele>1486</ele>
        <time>2014-02-11T20:07:18.1Z</time>
      </trkpt>
      <trkpt lat="45.64026" lon="6.05927">
        <ele>1487</ele>
        <time>2014-02-11T20:07:20.1Z</time>
      </trkpt>
      <trkpt lat="45.64024" lon="6.05925">
        <ele>1487</ele>
        <time>2014-02-11T20:07:23.1Z</time>
      </trkpt>
      <trkpt lat="45.64023" lon="6.05923">
        <ele>1488</ele>
        <time>2014-02-11T20:07:25.1Z</time>
      </trkpt>
      <trkpt lat="45.64021" lon="6.05921">
        <ele>1488</ele>
        <time>2014-02-11T20:07:28.1Z</time>
      </trkpt>
      <trkpt lat="45.6402" lon="6.05918">
        <ele>1489</ele>
        <time>2014-02-11T20:07:31.1Z</time>
      </trkpt>
      <trkpt lat="45.64018" lon="6.05914">
        <ele>1490</ele>
        <time>2014-02-11T20:07:34.1Z</time>
      </trkpt>
      <trkpt lat="45.64017" lon="6.05912">
        <ele>1490</ele>
        <time>2014-02-11T20:07:36.1Z</time>
      </trkpt>
      <trkpt lat="45.64015" lon="6.0591">
        <ele>1490</ele>
        <time>2014-02-11T20:07:39.1Z</time>
      </trkpt>
      <trkpt lat="45.64014" lon="6.05907">
        <ele>1490</ele>
        <time>2014-02-11T20:07:42.1Z</time>
      </trkpt>
      <trkpt lat="45.64012" lon="6.05904">
        <ele>1490</ele>
        <time>2014-02-11T20:07:45.1Z</time>
      </trkpt>
      <trkpt lat="45.64009" lon="6.05902">
        <ele>1491</ele>
        <time>2014-02-11T20:07:48.1Z</time>
      </trkpt>
      <trkpt lat="45.64007" lon="6.05899">
        <ele>1491</ele>
        <time>2014-02-11T20:07:51.1Z</time>
      </trkpt>
      <trkpt lat="45.64006" lon="6.05897">
        <ele>1492</ele>
        <time>2014-02-11T20:07:53.1Z</time>
      </trkpt>
      <trkpt lat="45.64005" lon="6.05896">
        <ele>1492</ele>
        <time>2014-02-11T20:07:55.1Z</time>
      </trkpt>
      <trkpt lat="45.64003" lon="6.05893">
        <ele>1492</ele>
        <time>2014-02-11T20:07:58.1Z</time>
      </trkpt>
      <trkpt lat="45.64001" lon="6.0589">
        <ele>1493</ele>
        <time>2014-02-11T20:08:01.1Z</time>
      </trkpt>
      <trkpt lat="45.63999" lon="6.05888">
        <ele>1493</ele>
        <time>2014-02-11T20:08:04.1Z</time>
      </trkpt>
      <trkpt lat="45.63998" lon="6.05886">
        <ele>1493</ele>
        <time>2014-02-11T20:08:06.1Z</time>
      </trkpt>
      <trkpt lat="45.63997" lon="6.05884">
        <ele>1494</ele>
        <time>2014-02-11T20:08:08.1Z</time>
      </trkpt>
      <trkpt lat="45.63995" lon="6.0588">
        <ele>1494</ele>
        <time>2014-02-11T20:08:11.1Z</time>
      </trkpt>
      <trkpt lat="45.63994" lon="6.05877">
        <ele>1494</ele>
        <time>2014-02-11T20:08:14.1Z</time>
      </trkpt>
      <trkpt lat="45.63992" lon="6.05875">
        <ele>1495</ele>
        <time>2014-02-11T20:08:16.1Z</time>
      </trkpt>
      <trkpt lat="45.6399" lon="6.05873">
        <ele>1495</ele>
        <time>2014-02-11T20:08:19.1Z</time>
      </trkpt>
      <trkpt lat="45.63989" lon="6.05872">
        <ele>1496</ele>
        <time>2014-02-11T20:08:21.1Z</time>
      </trkpt>
      <trkpt lat="45.63987" lon="6.0587">
        <ele>1496</ele>
        <time>2014-02-11T20:08:24.1Z</time>
      </trkpt>
      <trkpt lat="45.63986" lon="6.05868">
        <ele>1496</ele>
        <time>2014-02-11T20:08:26.1Z</time>
      </trkpt>
      <trkpt lat="45.63984" lon="6.05865">
        <ele>1497</ele>
        <time>2014-02-11T20:08:29.1Z</time>
      </trkpt>
      <trkpt lat="45.63983" lon="6.05864">
        <ele>1497</ele>
        <time>2014-02-11T20:08:31.1Z</time>
      </trkpt>
      <trkpt lat="45.63982" lon="6.05863">
        <ele>1497</ele>
        <time>2014-02-11T20:08:33.1Z</time>
      </trkpt>
      <trkpt lat="45.63979" lon="6.05861">
        <ele>1497</ele>
        <time>2014-02-11T20:08:36.1Z</time>
      </trkpt>
      <trkpt lat="45.63978" lon="6.05858">
        <ele>1498</ele>
        <time>2014-02-11T20:08:39.1Z</time>
      </trkpt>
      <trkpt lat="45.63977" lon="6.05855">
        <ele>1498</ele>
        <time>2014-02-11T20:08:42.1Z</time>
      </trkpt>
      <trkpt lat="45.63976" lon="6.05854">
        <ele>1499</ele>
        <time>2014-02-11T20:08:44.1Z</time>
      </trkpt>
      <trkpt lat="45.63974" lon="6.05852">
        <ele>1499</ele>
        <time>2014-02-11T20:08:46.1Z</time>
      </trkpt>
      <trkpt lat="45.63973" lon="6.05849">
        <ele>1499</ele>
        <time>2014-02-11T20:08:49.1Z</time>
      </trkpt>
      <trkpt lat="45.63971" lon="6.05848">
        <ele>1500</ele>
        <time>2014-02-11T20:08:52.1Z</time>
      </trkpt>
      <trkpt lat="45.6397" lon="6.05846">
        <ele>1500</ele>
        <time>2014-02-11T20:08:54.1Z</time>
      </trkpt>
      <trkpt lat="45.63969" lon="6.05844">
        <ele>1501</ele>
        <time>2014-02-11T20:08:57.1Z</time>
      </trkpt>
      <trkpt lat="45.63968" lon="6.05841">
        <ele>1502</ele>
        <time>2014-02-11T20:08:59.1Z</time>
      </trkpt>
      <trkpt lat="45.63966" lon="6.05839">
        <ele>1502</ele>
        <time>2014-02-11T20:09:02.1Z</time>
      </trkpt>
      <trkpt lat="45.63964" lon="6.05838">
        <ele>1503</ele>
        <time>2014-02-11T20:09:05.1Z</time>
      </trkpt>
      <trkpt lat="45.63963" lon="6.05836">
        <ele>1503</ele>
        <time>2014-02-11T20:09:07.1Z</time>
      </trkpt>
      <trkpt lat="45.63961" lon="6.05834">
        <ele>1504</ele>
        <time>2014-02-11T20:09:10.1Z</time>
      </trkpt>
      <trkpt lat="45.6396" lon="6.05832">
        <ele>1504</ele>
        <time>2014-02-11T20:09:12.1Z</time>
      </trkpt>
      <trkpt lat="45.63958" lon="6.0583">
        <ele>1505</ele>
        <time>2014-02-11T20:09:15.1Z</time>
      </trkpt>
      <trkpt lat="45.63957" lon="6.05829">
        <ele>1506</ele>
        <time>2014-02-11T20:09:17.1Z</time>
      </trkpt>
      <trkpt lat="45.63956" lon="6.05826">
        <ele>1506</ele>
        <time>2014-02-11T20:09:20.1Z</time>
      </trkpt>
      <trkpt lat="45.63955" lon="6.05824">
        <ele>1506</ele>
        <time>2014-02-11T20:09:22.1Z</time>
      </trkpt>
      <trkpt lat="45.63953" lon="6.05821">
        <ele>1507</ele>
        <time>2014-02-11T20:09:25.1Z</time>
      </trkpt>
      <trkpt lat="45.63953" lon="6.05819">
        <ele>1508</ele>
        <time>2014-02-11T20:09:28.1Z</time>
      </trkpt>
      <trkpt lat="45.63951" lon="6.05817">
        <ele>1508</ele>
        <time>2014-02-11T20:09:31.1Z</time>
      </trkpt>
      <trkpt lat="45.63948" lon="6.05814">
        <ele>1509</ele>
        <time>2014-02-11T20:09:34.1Z</time>
      </trkpt>
      <trkpt lat="45.63946" lon="6.05811">
        <ele>1510</ele>
        <time>2014-02-11T20:09:37.1Z</time>
      </trkpt>
      <trkpt lat="45.63944" lon="6.05808">
        <ele>1510</ele>
        <time>2014-02-11T20:09:40.1Z</time>
      </trkpt>
      <trkpt lat="45.63943" lon="6.05806">
        <ele>1510</ele>
        <time>2014-02-11T20:09:42.1Z</time>
      </trkpt>
      <trkpt lat="45.63942" lon="6.05803">
        <ele>1510</ele>
        <time>2014-02-11T20:09:45.1Z</time>
      </trkpt>
      <trkpt lat="45.63942" lon="6.05802">
        <ele>1511</ele>
        <time>2014-02-11T20:09:47.1Z</time>
      </trkpt>
      <trkpt lat="45.63941" lon="6.058">
        <ele>1511</ele>
        <time>2014-02-11T20:09:50.1Z</time>
      </trkpt>
      <trkpt lat="45.63939" lon="6.05798">
        <ele>1512</ele>
        <time>2014-02-11T20:09:53.1Z</time>
      </trkpt>
      <trkpt lat="45.63938" lon="6.05796">
        <ele>1512</ele>
        <time>2014-02-11T20:09:55.1Z</time>
      </trkpt>
      <trkpt lat="45.63937" lon="6.05793">
        <ele>1513</ele>
        <time>2014-02-11T20:09:58.1Z</time>
      </trkpt>
      <trkpt lat="45.63937" lon="6.05792">
        <ele>1513</ele>
        <time>2014-02-11T20:10:00.1Z</time>
      </trkpt>
      <trkpt lat="45.63937" lon="6.0579">
        <ele>1514</ele>
        <time>2014-02-11T20:10:03.1Z</time>
      </trkpt>
      <trkpt lat="45.63937" lon="6.0579">
        <ele>1514</ele>
        <time>2014-02-11T20:10:05.1Z</time>
      </trkpt>
      <trkpt lat="45.63937" lon="6.05789">
        <ele>1514</ele>
        <time>2014-02-11T20:10:08.1Z</time>
      </trkpt>
      <trkpt lat="45.63937" lon="6.05789">
        <ele>1514</ele>
        <time>2014-02-11T20:10:10.1Z</time>
      </trkpt>
      <trkpt lat="45.63938" lon="6.05789">
        <ele>1514</ele>
        <time>2014-02-11T20:10:13.1Z</time>
      </trkpt>
      <trkpt lat="45.63938" lon="6.05789">
        <ele>1513</ele>
        <time>2014-02-11T20:10:15.1Z</time>
      </trkpt>
      <trkpt lat="45.63939" lon="6.05788">
        <ele>1512</ele>
        <time>2014-02-11T20:10:17.1Z</time>
      </trkpt>
      <trkpt lat="45.6394" lon="6.05787">
        <ele>1512</ele>
        <time>2014-02-11T20:10:20.1Z</time>
      </trkpt>
      <trkpt lat="45.63941" lon="6.05786">
        <ele>1513</ele>
        <time>2014-02-11T20:10:22.1Z</time>
      </trkpt>
      <trkpt lat="45.63942" lon="6.05786">
        <ele>1514</ele>
        <time>2014-02-11T20:10:25.1Z</time>
      </trkpt>
      <trkpt lat="45.63942" lon="6.05785">
        <ele>1514</ele>
        <time>2014-02-11T20:10:28.1Z</time>
      </trkpt>
      <trkpt lat="45.63942" lon="6.05786">
        <ele>1514</ele>
        <time>2014-02-11T20:10:30.1Z</time>
      </trkpt>
      <trkpt lat="45.63944" lon="6.05786">
        <ele>1514</ele>
        <time>2014-02-11T20:10:32.1Z</time>
      </trkpt>
      <trkpt lat="45.63944" lon="6.05787">
        <ele>1514</ele>
        <time>2014-02-11T20:10:37.1Z</time>
      </trkpt>
      <trkpt lat="45.63945" lon="6.05787">
        <ele>1514</ele>
        <time>2014-02-11T20:10:39.1Z</time>
      </trkpt>
      <trkpt lat="45.63945" lon="6.05787">
        <ele>1514</ele>
        <time>2014-02-11T20:10:42.1Z</time>
      </trkpt>
      <trkpt lat="45.63943" lon="6.05786">
        <ele>1514</ele>
        <time>2014-02-11T20:10:44.1Z</time>
      </trkpt>
      <trkpt lat="45.63942" lon="6.05783">
        <ele>1514</ele>
        <time>2014-02-11T20:10:47.1Z</time>
      </trkpt>
      <trkpt lat="45.63941" lon="6.05782">
        <ele>1514</ele>
        <time>2014-02-11T20:10:49.1Z</time>
      </trkpt>
      <trkpt lat="45.6394" lon="6.05779">
        <ele>1514</ele>
        <time>2014-02-11T20:10:52.1Z</time>
      </trkpt>
      <trkpt lat="45.63939" lon="6.05778">
        <ele>1514</ele>
        <time>2014-02-11T20:10:54.1Z</time>
      </trkpt>
      <trkpt lat="45.63937" lon="6.05776">
        <ele>1515</ele>
        <time>2014-02-11T20:10:57.1Z</time>
      </trkpt>
      <trkpt lat="45.63936" lon="6.05774">
        <ele>1515</ele>
        <time>2014-02-11T20:11:00.1Z</time>
      </trkpt>
      <trkpt lat="45.63935" lon="6.05772">
        <ele>1516</ele>
        <time>2014-02-11T20:11:02.1Z</time>
      </trkpt>
      <trkpt lat="45.63934" lon="6.05769">
        <ele>1516</ele>
        <time>2014-02-11T20:11:05.1Z</time>
      </trkpt>
      <trkpt lat="45.63933" lon="6.05766">
        <ele>1517</ele>
        <time>2014-02-11T20:11:07.1Z</time>
      </trkpt>
      <trkpt lat="45.63932" lon="6.05762">
        <ele>1517</ele>
        <time>2014-02-11T20:11:10.1Z</time>
      </trkpt>
      <trkpt lat="45.63931" lon="6.0576">
        <ele>1518</ele>
        <time>2014-02-11T20:11:12.1Z</time>
      </trkpt>
      <trkpt lat="45.63929" lon="6.05757">
        <ele>1518</ele>
        <time>2014-02-11T20:11:15.1Z</time>
      </trkpt>
      <trkpt lat="45.63928" lon="6.05753">
        <ele>1519</ele>
        <time>2014-02-11T20:11:18.1Z</time>
      </trkpt>
      <trkpt lat="45.63927" lon="6.05751">
        <ele>1519</ele>
        <time>2014-02-11T20:11:21.1Z</time>
      </trkpt>
      <trkpt lat="45.63926" lon="6.05748">
        <ele>1520</ele>
        <time>2014-02-11T20:11:24.1Z</time>
      </trkpt>
      <trkpt lat="45.63926" lon="6.05746">
        <ele>1520</ele>
        <time>2014-02-11T20:11:26.1Z</time>
      </trkpt>
      <trkpt lat="45.63925" lon="6.05743">
        <ele>1520</ele>
        <time>2014-02-11T20:11:28.1Z</time>
      </trkpt>
      <trkpt lat="45.63924" lon="6.0574">
        <ele>1521</ele>
        <time>2014-02-11T20:11:31.1Z</time>
      </trkpt>
      <trkpt lat="45.63923" lon="6.05738">
        <ele>1521</ele>
        <time>2014-02-11T20:11:33.1Z</time>
      </trkpt>
      <trkpt lat="45.63922" lon="6.05734">
        <ele>1522</ele>
        <time>2014-02-11T20:11:36.1Z</time>
      </trkpt>
      <trkpt lat="45.63921" lon="6.05732">
        <ele>1522</ele>
        <time>2014-02-11T20:11:38.1Z</time>
      </trkpt>
      <trkpt lat="45.6392" lon="6.05727">
        <ele>1522</ele>
        <time>2014-02-11T20:11:41.1Z</time>
      </trkpt>
      <trkpt lat="45.63919" lon="6.05725">
        <ele>1523</ele>
        <time>2014-02-11T20:11:43.1Z</time>
      </trkpt>
      <trkpt lat="45.63918" lon="6.05723">
        <ele>1523</ele>
        <time>2014-02-11T20:11:46.1Z</time>
      </trkpt>
      <trkpt lat="45.63917" lon="6.05721">
        <ele>1524</ele>
        <time>2014-02-11T20:11:48.1Z</time>
      </trkpt>
      <trkpt lat="45.63916" lon="6.05719">
        <ele>1524</ele>
        <time>2014-02-11T20:11:50.1Z</time>
      </trkpt>
      <trkpt lat="45.63914" lon="6.05718">
        <ele>1524</ele>
        <time>2014-02-11T20:11:52.1Z</time>
      </trkpt>
      <trkpt lat="45.63913" lon="6.05715">
        <ele>1524</ele>
        <time>2014-02-11T20:11:55.1Z</time>
      </trkpt>
      <trkpt lat="45.63912" lon="6.05714">
        <ele>1524</ele>
        <time>2014-02-11T20:11:57.1Z</time>
      </trkpt>
      <trkpt lat="45.63911" lon="6.05711">
        <ele>1525</ele>
        <time>2014-02-11T20:11:59.1Z</time>
      </trkpt>
      <trkpt lat="45.6391" lon="6.05708">
        <ele>1525</ele>
        <time>2014-02-11T20:12:02.1Z</time>
      </trkpt>
      <trkpt lat="45.63908" lon="6.05706">
        <ele>1525</ele>
        <time>2014-02-11T20:12:04.1Z</time>
      </trkpt>
      <trkpt lat="45.63906" lon="6.05704">
        <ele>1526</ele>
        <time>2014-02-11T20:12:07.1Z</time>
      </trkpt>
      <trkpt lat="45.63905" lon="6.05703">
        <ele>1526</ele>
        <time>2014-02-11T20:12:09.1Z</time>
      </trkpt>
      <trkpt lat="45.63903" lon="6.05701">
        <ele>1527</ele>
        <time>2014-02-11T20:12:12.1Z</time>
      </trkpt>
      <trkpt lat="45.63902" lon="6.057">
        <ele>1527</ele>
        <time>2014-02-11T20:12:14.1Z</time>
      </trkpt>
      <trkpt lat="45.639" lon="6.05698">
        <ele>1528</ele>
        <time>2014-02-11T20:12:17.1Z</time>
      </trkpt>
      <trkpt lat="45.63899" lon="6.05696">
        <ele>1528</ele>
        <time>2014-02-11T20:12:20.1Z</time>
      </trkpt>
      <trkpt lat="45.63897" lon="6.05695">
        <ele>1529</ele>
        <time>2014-02-11T20:12:23.1Z</time>
      </trkpt>
      <trkpt lat="45.63896" lon="6.05693">
        <ele>1529</ele>
        <time>2014-02-11T20:12:26.1Z</time>
      </trkpt>
      <trkpt lat="45.63895" lon="6.05692">
        <ele>1530</ele>
        <time>2014-02-11T20:12:28.1Z</time>
      </trkpt>
      <trkpt lat="45.63893" lon="6.05691">
        <ele>1530</ele>
        <time>2014-02-11T20:12:31.1Z</time>
      </trkpt>
      <trkpt lat="45.63892" lon="6.0569">
        <ele>1531</ele>
        <time>2014-02-11T20:12:33.1Z</time>
      </trkpt>
      <trkpt lat="45.63891" lon="6.05689">
        <ele>1531</ele>
        <time>2014-02-11T20:12:35.1Z</time>
      </trkpt>
      <trkpt lat="45.63889" lon="6.05688">
        <ele>1532</ele>
        <time>2014-02-11T20:12:38.1Z</time>
      </trkpt>
      <trkpt lat="45.63887" lon="6.05686">
        <ele>1532</ele>
        <time>2014-02-11T20:12:41.1Z</time>
      </trkpt>
      <trkpt lat="45.63887" lon="6.05684">
        <ele>1533</ele>
        <time>2014-02-11T20:12:43.1Z</time>
      </trkpt>
      <trkpt lat="45.63885" lon="6.0568">
        <ele>1533</ele>
        <time>2014-02-11T20:12:46.1Z</time>
      </trkpt>
      <trkpt lat="45.63884" lon="6.05678">
        <ele>1534</ele>
        <time>2014-02-11T20:12:49.1Z</time>
      </trkpt>
      <trkpt lat="45.63884" lon="6.05676">
        <ele>1534</ele>
        <time>2014-02-11T20:12:51.1Z</time>
      </trkpt>
      <trkpt lat="45.63882" lon="6.05674">
        <ele>1535</ele>
        <time>2014-02-11T20:12:54.1Z</time>
      </trkpt>
      <trkpt lat="45.63881" lon="6.05671">
        <ele>1535</ele>
        <time>2014-02-11T20:12:56.1Z</time>
      </trkpt>
      <trkpt lat="45.63879" lon="6.05669">
        <ele>1536</ele>
        <time>2014-02-11T20:12:59.1Z</time>
      </trkpt>
      <trkpt lat="45.63877" lon="6.05668">
        <ele>1536</ele>
        <time>2014-02-11T20:13:02.1Z</time>
      </trkpt>
      <trkpt lat="45.63876" lon="6.05666">
        <ele>1536</ele>
        <time>2014-02-11T20:13:04.1Z</time>
      </trkpt>
      <trkpt lat="45.63875" lon="6.05664">
        <ele>1537</ele>
        <time>2014-02-11T20:13:07.1Z</time>
      </trkpt>
      <trkpt lat="45.63873" lon="6.05663">
        <ele>1537</ele>
        <time>2014-02-11T20:13:09.1Z</time>
      </trkpt>
      <trkpt lat="45.63871" lon="6.05661">
        <ele>1538</ele>
        <time>2014-02-11T20:13:12.1Z</time>
      </trkpt>
      <trkpt lat="45.63868" lon="6.0566">
        <ele>1538</ele>
        <time>2014-02-11T20:13:15.1Z</time>
      </trkpt>
      <trkpt lat="45.63866" lon="6.05659">
        <ele>1539</ele>
        <time>2014-02-11T20:13:18.1Z</time>
      </trkpt>
      <trkpt lat="45.63863" lon="6.05657">
        <ele>1539</ele>
        <time>2014-02-11T20:13:21.1Z</time>
      </trkpt>
      <trkpt lat="45.63862" lon="6.05656">
        <ele>1540</ele>
        <time>2014-02-11T20:13:23.1Z</time>
      </trkpt>
      <trkpt lat="45.6386" lon="6.05655">
        <ele>1540</ele>
        <time>2014-02-11T20:13:25.1Z</time>
      </trkpt>
      <trkpt lat="45.63858" lon="6.05654">
        <ele>1541</ele>
        <time>2014-02-11T20:13:28.1Z</time>
      </trkpt>
      <trkpt lat="45.63856" lon="6.05653">
        <ele>1541</ele>
        <time>2014-02-11T20:13:30.1Z</time>
      </trkpt>
      <trkpt lat="45.63853" lon="6.05651">
        <ele>1541</ele>
        <time>2014-02-11T20:13:33.1Z</time>
      </trkpt>
      <trkpt lat="45.63852" lon="6.05649">
        <ele>1541</ele>
        <time>2014-02-11T20:13:35.1Z</time>
      </trkpt>
      <trkpt lat="45.63849" lon="6.05649">
        <ele>1542</ele>
        <time>2014-02-11T20:13:38.1Z</time>
      </trkpt>
      <trkpt lat="45.63846" lon="6.05648">
        <ele>1542</ele>
        <time>2014-02-11T20:13:41.1Z</time>
      </trkpt>
      <trkpt lat="45.63843" lon="6.05647">
        <ele>1542</ele>
        <time>2014-02-11T20:13:44.1Z</time>
      </trkpt>
      <trkpt lat="45.63841" lon="6.05645">
        <ele>1543</ele>
        <time>2014-02-11T20:13:47.1Z</time>
      </trkpt>
      <trkpt lat="45.63839" lon="6.05642">
        <ele>1543</ele>
        <time>2014-02-11T20:13:50.1Z</time>
      </trkpt>
      <trkpt lat="45.63838" lon="6.05641">
        <ele>1543</ele>
        <time>2014-02-11T20:13:52.1Z</time>
      </trkpt>
      <trkpt lat="45.63836" lon="6.05639">
        <ele>1544</ele>
        <time>2014-02-11T20:13:55.1Z</time>
      </trkpt>
      <trkpt lat="45.63834" lon="6.05637">
        <ele>1545</ele>
        <time>2014-02-11T20:13:58.1Z</time>
      </trkpt>
      <trkpt lat="45.63831" lon="6.05637">
        <ele>1545</ele>
        <time>2014-02-11T20:14:01.1Z</time>
      </trkpt>
      <trkpt lat="45.63829" lon="6.05634">
        <ele>1545</ele>
        <time>2014-02-11T20:14:04.1Z</time>
      </trkpt>
      <trkpt lat="45.63827" lon="6.05633">
        <ele>1546</ele>
        <time>2014-02-11T20:14:06.1Z</time>
      </trkpt>
      <trkpt lat="45.63826" lon="6.05632">
        <ele>1546</ele>
        <time>2014-02-11T20:14:08.1Z</time>
      </trkpt>
      <trkpt lat="45.63824" lon="6.05631">
        <ele>1547</ele>
        <time>2014-02-11T20:14:11.1Z</time>
      </trkpt>
      <trkpt lat="45.63823" lon="6.0563">
        <ele>1547</ele>
        <time>2014-02-11T20:14:13.1Z</time>
      </trkpt>
      <trkpt lat="45.63821" lon="6.05627">
        <ele>1547</ele>
        <time>2014-02-11T20:14:16.1Z</time>
      </trkpt>
      <trkpt lat="45.6382" lon="6.05623">
        <ele>1548</ele>
        <time>2014-02-11T20:14:19.1Z</time>
      </trkpt>
      <trkpt lat="45.63819" lon="6.05621">
        <ele>1548</ele>
        <time>2014-02-11T20:14:21.1Z</time>
      </trkpt>
      <trkpt lat="45.63817" lon="6.05619">
        <ele>1549</ele>
        <time>2014-02-11T20:14:24.1Z</time>
      </trkpt>
      <trkpt lat="45.63815" lon="6.05616">
        <ele>1549</ele>
        <time>2014-02-11T20:14:27.1Z</time>
      </trkpt>
      <trkpt lat="45.63813" lon="6.05614">
        <ele>1549</ele>
        <time>2014-02-11T20:14:30.1Z</time>
      </trkpt>
      <trkpt lat="45.63812" lon="6.05613">
        <ele>1549</ele>
        <time>2014-02-11T20:14:32.1Z</time>
      </trkpt>
      <trkpt lat="45.6381" lon="6.05612">
        <ele>1550</ele>
        <time>2014-02-11T20:14:34.1Z</time>
      </trkpt>
      <trkpt lat="45.63808" lon="6.0561">
        <ele>1550</ele>
        <time>2014-02-11T20:14:37.1Z</time>
      </trkpt>
      <trkpt lat="45.63807" lon="6.05608">
        <ele>1551</ele>
        <time>2014-02-11T20:14:39.1Z</time>
      </trkpt>
      <trkpt lat="45.63806" lon="6.05605">
        <ele>1551</ele>
        <time>2014-02-11T20:14:41.1Z</time>
      </trkpt>
      <trkpt lat="45.63804" lon="6.05602">
        <ele>1551</ele>
        <time>2014-02-11T20:14:44.1Z</time>
      </trkpt>
      <trkpt lat="45.63802" lon="6.05599">
        <ele>1552</ele>
        <time>2014-02-11T20:14:47.1Z</time>
      </trkpt>
      <trkpt lat="45.638" lon="6.05598">
        <ele>1552</ele>
        <time>2014-02-11T20:14:49.1Z</time>
      </trkpt>
      <trkpt lat="45.63798" lon="6.05595">
        <ele>1552</ele>
        <time>2014-02-11T20:14:52.1Z</time>
      </trkpt>
      <trkpt lat="45.63796" lon="6.05592">
        <ele>1552</ele>
        <time>2014-02-11T20:14:55.1Z</time>
      </trkpt>
      <trkpt lat="45.63794" lon="6.05588">
        <ele>1552</ele>
        <time>2014-02-11T20:14:58.1Z</time>
      </trkpt>
      <trkpt lat="45.63793" lon="6.05586">
        <ele>1552</ele>
        <time>2014-02-11T20:15:00.1Z</time>
      </trkpt>
      <trkpt lat="45.63792" lon="6.05584">
        <ele>1552</ele>
        <time>2014-02-11T20:15:03.1Z</time>
      </trkpt>
      <trkpt lat="45.63791" lon="6.05583">
        <ele>1553</ele>
        <time>2014-02-11T20:15:06.1Z</time>
      </trkpt>
      <trkpt lat="45.63789" lon="6.05581">
        <ele>1553</ele>
        <time>2014-02-11T20:15:08.1Z</time>
      </trkpt>
      <trkpt lat="45.63788" lon="6.05579">
        <ele>1553</ele>
        <time>2014-02-11T20:15:10.1Z</time>
      </trkpt>
      <trkpt lat="45.63785" lon="6.05576">
        <ele>1553</ele>
        <time>2014-02-11T20:15:13.1Z</time>
      </trkpt>
      <trkpt lat="45.63783" lon="6.05573">
        <ele>1553</ele>
        <time>2014-02-11T20:15:16.1Z</time>
      </trkpt>
      <trkpt lat="45.63781" lon="6.0557">
        <ele>1553</ele>
        <time>2014-02-11T20:15:19.1Z</time>
      </trkpt>
      <trkpt lat="45.63778" lon="6.05567">
        <ele>1553</ele>
        <time>2014-02-11T20:15:22.1Z</time>
      </trkpt>
      <trkpt lat="45.63776" lon="6.05566">
        <ele>1553</ele>
        <time>2014-02-11T20:15:24.1Z</time>
      </trkpt>
      <trkpt lat="45.63773" lon="6.05565">
        <ele>1554</ele>
        <time>2014-02-11T20:15:27.1Z</time>
      </trkpt>
      <trkpt lat="45.6377" lon="6.05564">
        <ele>1554</ele>
        <time>2014-02-11T20:15:30.1Z</time>
      </trkpt>
      <trkpt lat="45.63767" lon="6.05563">
        <ele>1554</ele>
        <time>2014-02-11T20:15:33.1Z</time>
      </trkpt>
      <trkpt lat="45.63765" lon="6.05562">
        <ele>1555</ele>
        <time>2014-02-11T20:15:35.1Z</time>
      </trkpt>
      <trkpt lat="45.63763" lon="6.0556">
        <ele>1555</ele>
        <time>2014-02-11T20:15:37.1Z</time>
      </trkpt>
      <trkpt lat="45.6376" lon="6.05558">
        <ele>1555</ele>
        <time>2014-02-11T20:15:40.1Z</time>
      </trkpt>
      <trkpt lat="45.63758" lon="6.05555">
        <ele>1556</ele>
        <time>2014-02-11T20:15:42.1Z</time>
      </trkpt>
      <trkpt lat="45.63756" lon="6.05552">
        <ele>1556</ele>
        <time>2014-02-11T20:15:45.1Z</time>
      </trkpt>
      <trkpt lat="45.63755" lon="6.05549">
        <ele>1556</ele>
        <time>2014-02-11T20:15:48.1Z</time>
      </trkpt>
      <trkpt lat="45.63753" lon="6.05547">
        <ele>1557</ele>
        <time>2014-02-11T20:15:50.1Z</time>
      </trkpt>
      <trkpt lat="45.63752" lon="6.05546">
        <ele>1557</ele>
        <time>2014-02-11T20:15:52.1Z</time>
      </trkpt>
      <trkpt lat="45.63751" lon="6.05542">
        <ele>1558</ele>
        <time>2014-02-11T20:15:55.1Z</time>
      </trkpt>
      <trkpt lat="45.63749" lon="6.05541">
        <ele>1558</ele>
        <time>2014-02-11T20:15:57.1Z</time>
      </trkpt>
      <trkpt lat="45.63747" lon="6.05539">
        <ele>1558</ele>
        <time>2014-02-11T20:16:00.1Z</time>
      </trkpt>
      <trkpt lat="45.63745" lon="6.05537">
        <ele>1558</ele>
        <time>2014-02-11T20:16:02.1Z</time>
      </trkpt>
      <trkpt lat="45.63743" lon="6.05534">
        <ele>1559</ele>
        <time>2014-02-11T20:16:05.1Z</time>
      </trkpt>
      <trkpt lat="45.63742" lon="6.05531">
        <ele>1559</ele>
        <time>2014-02-11T20:16:08.1Z</time>
      </trkpt>
      <trkpt lat="45.6374" lon="6.05527">
        <ele>1560</ele>
        <time>2014-02-11T20:16:11.1Z</time>
      </trkpt>
      <trkpt lat="45.63739" lon="6.05525">
        <ele>1560</ele>
        <time>2014-02-11T20:16:13.1Z</time>
      </trkpt>
      <trkpt lat="45.63736" lon="6.05524">
        <ele>1560</ele>
        <time>2014-02-11T20:16:16.1Z</time>
      </trkpt>
      <trkpt lat="45.63735" lon="6.05522">
        <ele>1561</ele>
        <time>2014-02-11T20:16:18.1Z</time>
      </trkpt>
      <trkpt lat="45.63734" lon="6.0552">
        <ele>1561</ele>
        <time>2014-02-11T20:16:20.1Z</time>
      </trkpt>
      <trkpt lat="45.63732" lon="6.05517">
        <ele>1561</ele>
        <time>2014-02-11T20:16:23.1Z</time>
      </trkpt>
      <trkpt lat="45.63731" lon="6.05516">
        <ele>1562</ele>
        <time>2014-02-11T20:16:25.1Z</time>
      </trkpt>
      <trkpt lat="45.63728" lon="6.05513">
        <ele>1562</ele>
        <time>2014-02-11T20:16:28.1Z</time>
      </trkpt>
      <trkpt lat="45.63726" lon="6.05511">
        <ele>1562</ele>
        <time>2014-02-11T20:16:31.1Z</time>
      </trkpt>
      <trkpt lat="45.63724" lon="6.05508">
        <ele>1563</ele>
        <time>2014-02-11T20:16:34.1Z</time>
      </trkpt>
      <trkpt lat="45.63721" lon="6.05505">
        <ele>1563</ele>
        <time>2014-02-11T20:16:37.1Z</time>
      </trkpt>
      <trkpt lat="45.6372" lon="6.05504">
        <ele>1564</ele>
        <time>2014-02-11T20:16:39.1Z</time>
      </trkpt>
      <trkpt lat="45.63718" lon="6.05502">
        <ele>1564</ele>
        <time>2014-02-11T20:16:41.1Z</time>
      </trkpt>
      <trkpt lat="45.63715" lon="6.055">
        <ele>1564</ele>
        <time>2014-02-11T20:16:44.1Z</time>
      </trkpt>
      <trkpt lat="45.63713" lon="6.05498">
        <ele>1565</ele>
        <time>2014-02-11T20:16:47.1Z</time>
      </trkpt>
      <trkpt lat="45.63711" lon="6.05498">
        <ele>1565</ele>
        <time>2014-02-11T20:16:49.1Z</time>
      </trkpt>
      <trkpt lat="45.63709" lon="6.05497">
        <ele>1566</ele>
        <time>2014-02-11T20:16:52.1Z</time>
      </trkpt>
      <trkpt lat="45.63708" lon="6.05496">
        <ele>1566</ele>
        <time>2014-02-11T20:16:54.1Z</time>
      </trkpt>
      <trkpt lat="45.63705" lon="6.05494">
        <ele>1566</ele>
        <time>2014-02-11T20:16:57.1Z</time>
      </trkpt>
      <trkpt lat="45.63703" lon="6.05493">
        <ele>1567</ele>
        <time>2014-02-11T20:16:59.1Z</time>
      </trkpt>
      <trkpt lat="45.63701" lon="6.05491">
        <ele>1567</ele>
        <time>2014-02-11T20:17:01.1Z</time>
      </trkpt>
      <trkpt lat="45.637" lon="6.0549">
        <ele>1567</ele>
        <time>2014-02-11T20:17:03.1Z</time>
      </trkpt>
      <trkpt lat="45.63698" lon="6.05486">
        <ele>1568</ele>
        <time>2014-02-11T20:17:06.1Z</time>
      </trkpt>
      <trkpt lat="45.63696" lon="6.05484">
        <ele>1568</ele>
        <time>2014-02-11T20:17:08.1Z</time>
      </trkpt>
      <trkpt lat="45.63694" lon="6.0548">
        <ele>1568</ele>
        <time>2014-02-11T20:17:11.1Z</time>
      </trkpt>
      <trkpt lat="45.63694" lon="6.05478">
        <ele>1568</ele>
        <time>2014-02-11T20:17:13.1Z</time>
      </trkpt>
      <trkpt lat="45.63691" lon="6.05476">
        <ele>1569</ele>
        <time>2014-02-11T20:17:16.1Z</time>
      </trkpt>
      <trkpt lat="45.63689" lon="6.05473">
        <ele>1569</ele>
        <time>2014-02-11T20:17:19.1Z</time>
      </trkpt>
      <trkpt lat="45.63686" lon="6.05471">
        <ele>1570</ele>
        <time>2014-02-11T20:17:22.1Z</time>
      </trkpt>
      <trkpt lat="45.63685" lon="6.05469">
        <ele>1570</ele>
        <time>2014-02-11T20:17:24.1Z</time>
      </trkpt>
      <trkpt lat="45.63683" lon="6.05466">
        <ele>1571</ele>
        <time>2014-02-11T20:17:27.1Z</time>
      </trkpt>
      <trkpt lat="45.63681" lon="6.05463">
        <ele>1571</ele>
        <time>2014-02-11T20:17:30.1Z</time>
      </trkpt>
      <trkpt lat="45.63679" lon="6.0546">
        <ele>1571</ele>
        <time>2014-02-11T20:17:33.1Z</time>
      </trkpt>
      <trkpt lat="45.63678" lon="6.05458">
        <ele>1572</ele>
        <time>2014-02-11T20:17:35.1Z</time>
      </trkpt>
      <trkpt lat="45.63676" lon="6.05457">
        <ele>1573</ele>
        <time>2014-02-11T20:17:38.1Z</time>
      </trkpt>
      <trkpt lat="45.63674" lon="6.05455">
        <ele>1573</ele>
        <time>2014-02-11T20:17:41.1Z</time>
      </trkpt>
      <trkpt lat="45.63672" lon="6.05453">
        <ele>1573</ele>
        <time>2014-02-11T20:17:43.1Z</time>
      </trkpt>
      <trkpt lat="45.63671" lon="6.05451">
        <ele>1574</ele>
        <time>2014-02-11T20:17:45.1Z</time>
      </trkpt>
      <trkpt lat="45.63669" lon="6.05448">
        <ele>1574</ele>
        <time>2014-02-11T20:17:48.1Z</time>
      </trkpt>
      <trkpt lat="45.63668" lon="6.05446">
        <ele>1575</ele>
        <time>2014-02-11T20:17:50.1Z</time>
      </trkpt>
      <trkpt lat="45.63667" lon="6.05444">
        <ele>1575</ele>
        <time>2014-02-11T20:17:52.1Z</time>
      </trkpt>
      <trkpt lat="45.63666" lon="6.05441">
        <ele>1576</ele>
        <time>2014-02-11T20:17:55.1Z</time>
      </trkpt>
      <trkpt lat="45.63664" lon="6.05438">
        <ele>1576</ele>
        <time>2014-02-11T20:17:58.1Z</time>
      </trkpt>
      <trkpt lat="45.63663" lon="6.05435">
        <ele>1577</ele>
        <time>2014-02-11T20:18:01.1Z</time>
      </trkpt>
      <trkpt lat="45.63662" lon="6.05433">
        <ele>1577</ele>
        <time>2014-02-11T20:18:03.1Z</time>
      </trkpt>
      <trkpt lat="45.63661" lon="6.05431">
        <ele>1578</ele>
        <time>2014-02-11T20:18:06.1Z</time>
      </trkpt>
      <trkpt lat="45.63659" lon="6.05428">
        <ele>1578</ele>
        <time>2014-02-11T20:18:09.1Z</time>
      </trkpt>
      <trkpt lat="45.63657" lon="6.05426">
        <ele>1579</ele>
        <time>2014-02-11T20:18:12.1Z</time>
      </trkpt>
      <trkpt lat="45.63655" lon="6.05425">
        <ele>1579</ele>
        <time>2014-02-11T20:18:15.1Z</time>
      </trkpt>
      <trkpt lat="45.63653" lon="6.05421">
        <ele>1579</ele>
        <time>2014-02-11T20:18:18.1Z</time>
      </trkpt>
      <trkpt lat="45.63651" lon="6.0542">
        <ele>1580</ele>
        <time>2014-02-11T20:18:21.1Z</time>
      </trkpt>
      <trkpt lat="45.6365" lon="6.05417">
        <ele>1581</ele>
        <time>2014-02-11T20:18:23.1Z</time>
      </trkpt>
      <trkpt lat="45.63647" lon="6.05415">
        <ele>1582</ele>
        <time>2014-02-11T20:18:26.1Z</time>
      </trkpt>
      <trkpt lat="45.63646" lon="6.05412">
        <ele>1582</ele>
        <time>2014-02-11T20:18:29.1Z</time>
      </trkpt>
      <trkpt lat="45.63644" lon="6.0541">
        <ele>1582</ele>
        <time>2014-02-11T20:18:31.1Z</time>
      </trkpt>
      <trkpt lat="45.63642" lon="6.05409">
        <ele>1582</ele>
        <time>2014-02-11T20:18:33.1Z</time>
      </trkpt>
      <trkpt lat="45.6364" lon="6.05407">
        <ele>1581</ele>
        <time>2014-02-11T20:18:36.1Z</time>
      </trkpt>
      <trkpt lat="45.63639" lon="6.05405">
        <ele>1582</ele>
        <time>2014-02-11T20:18:38.1Z</time>
      </trkpt>
      <trkpt lat="45.63638" lon="6.05404">
        <ele>1582</ele>
        <time>2014-02-11T20:18:40.1Z</time>
      </trkpt>
      <trkpt lat="45.63636" lon="6.05402">
        <ele>1582</ele>
        <time>2014-02-11T20:18:43.1Z</time>
      </trkpt>
      <trkpt lat="45.63634" lon="6.05401">
        <ele>1583</ele>
        <time>2014-02-11T20:18:45.1Z</time>
      </trkpt>
      <trkpt lat="45.63631" lon="6.05399">
        <ele>1584</ele>
        <time>2014-02-11T20:18:48.1Z</time>
      </trkpt>
      <trkpt lat="45.6363" lon="6.05398">
        <ele>1584</ele>
        <time>2014-02-11T20:18:50.1Z</time>
      </trkpt>
      <trkpt lat="45.63628" lon="6.05396">
        <ele>1584</ele>
        <time>2014-02-11T20:18:53.1Z</time>
      </trkpt>
      <trkpt lat="45.63626" lon="6.05392">
        <ele>1584</ele>
        <time>2014-02-11T20:18:56.1Z</time>
      </trkpt>
      <trkpt lat="45.63623" lon="6.05389">
        <ele>1585</ele>
        <time>2014-02-11T20:18:59.1Z</time>
      </trkpt>
      <trkpt lat="45.63622" lon="6.05388">
        <ele>1585</ele>
        <time>2014-02-11T20:19:01.1Z</time>
      </trkpt>
      <trkpt lat="45.6362" lon="6.05387">
        <ele>1586</ele>
        <time>2014-02-11T20:19:03.1Z</time>
      </trkpt>
      <trkpt lat="45.63618" lon="6.05384">
        <ele>1586</ele>
        <time>2014-02-11T20:19:06.1Z</time>
      </trkpt>
      <trkpt lat="45.63617" lon="6.05382">
        <ele>1586</ele>
        <time>2014-02-11T20:19:08.1Z</time>
      </trkpt>
      <trkpt lat="45.63616" lon="6.0538">
        <ele>1587</ele>
        <time>2014-02-11T20:19:11.1Z</time>
      </trkpt>
      <trkpt lat="45.63615" lon="6.05378">
        <ele>1587</ele>
        <time>2014-02-11T20:19:13.1Z</time>
      </trkpt>
      <trkpt lat="45.63613" lon="6.05376">
        <ele>1588</ele>
        <time>2014-02-11T20:19:16.1Z</time>
      </trkpt>
      <trkpt lat="45.63611" lon="6.05374">
        <ele>1588</ele>
        <time>2014-02-11T20:19:18.1Z</time>
      </trkpt>
      <trkpt lat="45.63608" lon="6.05372">
        <ele>1589</ele>
        <time>2014-02-11T20:19:21.1Z</time>
      </trkpt>
      <trkpt lat="45.63607" lon="6.0537">
        <ele>1590</ele>
        <time>2014-02-11T20:19:24.1Z</time>
      </trkpt>
      <trkpt lat="45.63605" lon="6.05367">
        <ele>1590</ele>
        <time>2014-02-11T20:19:27.1Z</time>
      </trkpt>
      <trkpt lat="45.63605" lon="6.05367">
        <ele>1590</ele>
        <time>2014-02-11T20:19:29.1Z</time>
      </trkpt>
      <trkpt lat="45.63604" lon="6.05365">
        <ele>1590</ele>
        <time>2014-02-11T20:19:31.1Z</time>
      </trkpt>
      <trkpt lat="45.63602" lon="6.05362">
        <ele>1591</ele>
        <time>2014-02-11T20:19:34.1Z</time>
      </trkpt>
      <trkpt lat="45.63601" lon="6.0536">
        <ele>1591</ele>
        <time>2014-02-11T20:19:37.1Z</time>
      </trkpt>
      <trkpt lat="45.63599" lon="6.05358">
        <ele>1591</ele>
        <time>2014-02-11T20:19:40.1Z</time>
      </trkpt>
      <trkpt lat="45.63598" lon="6.05355">
        <ele>1592</ele>
        <time>2014-02-11T20:19:43.1Z</time>
      </trkpt>
      <trkpt lat="45.63596" lon="6.05353">
        <ele>1593</ele>
        <time>2014-02-11T20:19:46.1Z</time>
      </trkpt>
      <trkpt lat="45.63595" lon="6.05351">
        <ele>1593</ele>
        <time>2014-02-11T20:19:48.1Z</time>
      </trkpt>
      <trkpt lat="45.63594" lon="6.05348">
        <ele>1593</ele>
        <time>2014-02-11T20:19:51.1Z</time>
      </trkpt>
      <trkpt lat="45.63593" lon="6.05347">
        <ele>1594</ele>
        <time>2014-02-11T20:19:53.1Z</time>
      </trkpt>
      <trkpt lat="45.63591" lon="6.05345">
        <ele>1594</ele>
        <time>2014-02-11T20:19:55.1Z</time>
      </trkpt>
      <trkpt lat="45.63589" lon="6.05343">
        <ele>1595</ele>
        <time>2014-02-11T20:19:58.1Z</time>
      </trkpt>
      <trkpt lat="45.63588" lon="6.05341">
        <ele>1596</ele>
        <time>2014-02-11T20:20:01.1Z</time>
      </trkpt>
      <trkpt lat="45.63586" lon="6.05339">
        <ele>1597</ele>
        <time>2014-02-11T20:20:03.1Z</time>
      </trkpt>
      <trkpt lat="45.63585" lon="6.05336">
        <ele>1597</ele>
        <time>2014-02-11T20:20:06.1Z</time>
      </trkpt>
      <trkpt lat="45.63583" lon="6.05334">
        <ele>1597</ele>
        <time>2014-02-11T20:20:09.1Z</time>
      </trkpt>
      <trkpt lat="45.63581" lon="6.05332">
        <ele>1598</ele>
        <time>2014-02-11T20:20:12.1Z</time>
      </trkpt>
      <trkpt lat="45.63579" lon="6.0533">
        <ele>1599</ele>
        <time>2014-02-11T20:20:15.1Z</time>
      </trkpt>
      <trkpt lat="45.63578" lon="6.05329">
        <ele>1599</ele>
        <time>2014-02-11T20:20:17.1Z</time>
      </trkpt>
      <trkpt lat="45.63577" lon="6.05326">
        <ele>1600</ele>
        <time>2014-02-11T20:20:20.1Z</time>
      </trkpt>
      <trkpt lat="45.63575" lon="6.05323">
        <ele>1600</ele>
        <time>2014-02-11T20:20:23.1Z</time>
      </trkpt>
      <trkpt lat="45.63573" lon="6.05321">
        <ele>1601</ele>
        <time>2014-02-11T20:20:26.1Z</time>
      </trkpt>
      <trkpt lat="45.63572" lon="6.05319">
        <ele>1601</ele>
        <time>2014-02-11T20:20:28.1Z</time>
      </trkpt>
      <trkpt lat="45.63571" lon="6.05317">
        <ele>1601</ele>
        <time>2014-02-11T20:20:30.1Z</time>
      </trkpt>
      <trkpt lat="45.6357" lon="6.05314">
        <ele>1601</ele>
        <time>2014-02-11T20:20:33.1Z</time>
      </trkpt>
      <trkpt lat="45.63568" lon="6.05311">
        <ele>1602</ele>
        <time>2014-02-11T20:20:36.1Z</time>
      </trkpt>
      <trkpt lat="45.63566" lon="6.05308">
        <ele>1602</ele>
        <time>2014-02-11T20:20:39.1Z</time>
      </trkpt>
      <trkpt lat="45.63565" lon="6.05307">
        <ele>1603</ele>
        <time>2014-02-11T20:20:41.1Z</time>
      </trkpt>
      <trkpt lat="45.63564" lon="6.05305">
        <ele>1603</ele>
        <time>2014-02-11T20:20:43.1Z</time>
      </trkpt>
      <trkpt lat="45.63562" lon="6.05303">
        <ele>1603</ele>
        <time>2014-02-11T20:20:45.1Z</time>
      </trkpt>
      <trkpt lat="45.6356" lon="6.05301">
        <ele>1603</ele>
        <time>2014-02-11T20:20:48.1Z</time>
      </trkpt>
      <trkpt lat="45.63559" lon="6.05299">
        <ele>1603</ele>
        <time>2014-02-11T20:20:50.1Z</time>
      </trkpt>
      <trkpt lat="45.63557" lon="6.05297">
        <ele>1604</ele>
        <time>2014-02-11T20:20:53.1Z</time>
      </trkpt>
      <trkpt lat="45.63556" lon="6.05295">
        <ele>1605</ele>
        <time>2014-02-11T20:20:56.1Z</time>
      </trkpt>
      <trkpt lat="45.63553" lon="6.05293">
        <ele>1605</ele>
        <time>2014-02-11T20:20:59.1Z</time>
      </trkpt>
      <trkpt lat="45.63551" lon="6.0529">
        <ele>1606</ele>
        <time>2014-02-11T20:21:02.1Z</time>
      </trkpt>
      <trkpt lat="45.63549" lon="6.05288">
        <ele>1606</ele>
        <time>2014-02-11T20:21:05.1Z</time>
      </trkpt>
      <trkpt lat="45.63547" lon="6.05286">
        <ele>1606</ele>
        <time>2014-02-11T20:21:08.1Z</time>
      </trkpt>
      <trkpt lat="45.63546" lon="6.05285">
        <ele>1607</ele>
        <time>2014-02-11T20:21:10.1Z</time>
      </trkpt>
      <trkpt lat="45.63544" lon="6.05283">
        <ele>1607</ele>
        <time>2014-02-11T20:21:12.1Z</time>
      </trkpt>
      <trkpt lat="45.63543" lon="6.05282">
        <ele>1608</ele>
        <time>2014-02-11T20:21:14.1Z</time>
      </trkpt>
      <trkpt lat="45.63541" lon="6.05279">
        <ele>1609</ele>
        <time>2014-02-11T20:21:17.1Z</time>
      </trkpt>
      <trkpt lat="45.6354" lon="6.05277">
        <ele>1608</ele>
        <time>2014-02-11T20:21:19.1Z</time>
      </trkpt>
      <trkpt lat="45.63538" lon="6.05274">
        <ele>1610</ele>
        <time>2014-02-11T20:21:22.1Z</time>
      </trkpt>
      <trkpt lat="45.63536" lon="6.05272">
        <ele>1609</ele>
        <time>2014-02-11T20:21:25.1Z</time>
      </trkpt>
      <trkpt lat="45.63535" lon="6.05271">
        <ele>1610</ele>
        <time>2014-02-11T20:21:27.1Z</time>
      </trkpt>
      <trkpt lat="45.63533" lon="6.05268">
        <ele>1610</ele>
        <time>2014-02-11T20:21:30.1Z</time>
      </trkpt>
      <trkpt lat="45.63532" lon="6.05266">
        <ele>1610</ele>
        <time>2014-02-11T20:21:32.1Z</time>
      </trkpt>
      <trkpt lat="45.63531" lon="6.05264">
        <ele>1610</ele>
        <time>2014-02-11T20:21:34.1Z</time>
      </trkpt>
      <trkpt lat="45.6353" lon="6.0526">
        <ele>1612</ele>
        <time>2014-02-11T20:21:37.1Z</time>
      </trkpt>
      <trkpt lat="45.63528" lon="6.05258">
        <ele>1612</ele>
        <time>2014-02-11T20:21:40.1Z</time>
      </trkpt>
      <trkpt lat="45.63527" lon="6.05256">
        <ele>1612</ele>
        <time>2014-02-11T20:21:42.1Z</time>
      </trkpt>
      <trkpt lat="45.63526" lon="6.05252">
        <ele>1612</ele>
        <time>2014-02-11T20:21:45.1Z</time>
      </trkpt>
      <trkpt lat="45.63524" lon="6.05251">
        <ele>1613</ele>
        <time>2014-02-11T20:21:47.1Z</time>
      </trkpt>
      <trkpt lat="45.63523" lon="6.05248">
        <ele>1613</ele>
        <time>2014-02-11T20:21:50.1Z</time>
      </trkpt>
      <trkpt lat="45.63522" lon="6.05246">
        <ele>1613</ele>
        <time>2014-02-11T20:21:52.1Z</time>
      </trkpt>
      <trkpt lat="45.6352" lon="6.05244">
        <ele>1614</ele>
        <time>2014-02-11T20:21:54.1Z</time>
      </trkpt>
      <trkpt lat="45.63519" lon="6.05243">
        <ele>1614</ele>
        <time>2014-02-11T20:21:56.1Z</time>
      </trkpt>
      <trkpt lat="45.63517" lon="6.0524">
        <ele>1614</ele>
        <time>2014-02-11T20:21:59.1Z</time>
      </trkpt>
      <trkpt lat="45.63515" lon="6.05238">
        <ele>1614</ele>
        <time>2014-02-11T20:22:01.1Z</time>
      </trkpt>
      <trkpt lat="45.63513" lon="6.05236">
        <ele>1614</ele>
        <time>2014-02-11T20:22:04.1Z</time>
      </trkpt>
      <trkpt lat="45.63511" lon="6.05233">
        <ele>1614</ele>
        <time>2014-02-11T20:22:07.1Z</time>
      </trkpt>
      <trkpt lat="45.63508" lon="6.05231">
        <ele>1615</ele>
        <time>2014-02-11T20:22:10.1Z</time>
      </trkpt>
      <trkpt lat="45.63506" lon="6.05228">
        <ele>1615</ele>
        <time>2014-02-11T20:22:13.1Z</time>
      </trkpt>
      <trkpt lat="45.63504" lon="6.05227">
        <ele>1615</ele>
        <time>2014-02-11T20:22:15.1Z</time>
      </trkpt>
      <trkpt lat="45.63501" lon="6.05225">
        <ele>1615</ele>
        <time>2014-02-11T20:22:18.1Z</time>
      </trkpt>
      <trkpt lat="45.63499" lon="6.05223">
        <ele>1615</ele>
        <time>2014-02-11T20:22:20.1Z</time>
      </trkpt>
      <trkpt lat="45.63498" lon="6.05221">
        <ele>1615</ele>
        <time>2014-02-11T20:22:22.1Z</time>
      </trkpt>
      <trkpt lat="45.63496" lon="6.0522">
        <ele>1616</ele>
        <time>2014-02-11T20:22:24.1Z</time>
      </trkpt>
      <trkpt lat="45.63493" lon="6.05218">
        <ele>1616</ele>
        <time>2014-02-11T20:22:27.1Z</time>
      </trkpt>
      <trkpt lat="45.63492" lon="6.05216">
        <ele>1616</ele>
        <time>2014-02-11T20:22:29.1Z</time>
      </trkpt>
      <trkpt lat="45.6349" lon="6.05214">
        <ele>1616</ele>
        <time>2014-02-11T20:22:32.1Z</time>
      </trkpt>
      <trkpt lat="45.63488" lon="6.05212">
        <ele>1616</ele>
        <time>2014-02-11T20:22:34.1Z</time>
      </trkpt>
      <trkpt lat="45.63486" lon="6.05209">
        <ele>1617</ele>
        <time>2014-02-11T20:22:37.1Z</time>
      </trkpt>
      <trkpt lat="45.63484" lon="6.05207">
        <ele>1617</ele>
        <time>2014-02-11T20:22:40.1Z</time>
      </trkpt>
      <trkpt lat="45.63483" lon="6.05206">
        <ele>1617</ele>
        <time>2014-02-11T20:22:42.1Z</time>
      </trkpt>
      <trkpt lat="45.63482" lon="6.05205">
        <ele>1617</ele>
        <time>2014-02-11T20:22:44.1Z</time>
      </trkpt>
      <trkpt lat="45.6348" lon="6.05203">
        <ele>1618</ele>
        <time>2014-02-11T20:22:47.1Z</time>
      </trkpt>
      <trkpt lat="45.63479" lon="6.052">
        <ele>1619</ele>
        <time>2014-02-11T20:22:50.1Z</time>
      </trkpt>
      <trkpt lat="45.63478" lon="6.05199">
        <ele>1619</ele>
        <time>2014-02-11T20:22:52.1Z</time>
      </trkpt>
      <trkpt lat="45.63476" lon="6.05197">
        <ele>1620</ele>
        <time>2014-02-11T20:22:55.1Z</time>
      </trkpt>
      <trkpt lat="45.63475" lon="6.05196">
        <ele>1620</ele>
        <time>2014-02-11T20:22:57.1Z</time>
      </trkpt>
      <trkpt lat="45.63473" lon="6.05194">
        <ele>1621</ele>
        <time>2014-02-11T20:23:00.1Z</time>
      </trkpt>
      <trkpt lat="45.63472" lon="6.05192">
        <ele>1621</ele>
        <time>2014-02-11T20:23:03.1Z</time>
      </trkpt>
      <trkpt lat="45.6347" lon="6.0519">
        <ele>1623</ele>
        <time>2014-02-11T20:23:06.1Z</time>
      </trkpt>
      <trkpt lat="45.63469" lon="6.05187">
        <ele>1623</ele>
        <time>2014-02-11T20:23:09.1Z</time>
      </trkpt>
      <trkpt lat="45.63468" lon="6.05185">
        <ele>1624</ele>
        <time>2014-02-11T20:23:11.1Z</time>
      </trkpt>
      <trkpt lat="45.63467" lon="6.05183">
        <ele>1624</ele>
        <time>2014-02-11T20:23:13.1Z</time>
      </trkpt>
      <trkpt lat="45.63467" lon="6.05179">
        <ele>1624</ele>
        <time>2014-02-11T20:23:16.1Z</time>
      </trkpt>
      <trkpt lat="45.63467" lon="6.05177">
        <ele>1625</ele>
        <time>2014-02-11T20:23:18.1Z</time>
      </trkpt>
      <trkpt lat="45.63467" lon="6.05174">
        <ele>1625</ele>
        <time>2014-02-11T20:23:20.1Z</time>
      </trkpt>
      <trkpt lat="45.63466" lon="6.0517">
        <ele>1625</ele>
        <time>2014-02-11T20:23:23.1Z</time>
      </trkpt>
      <trkpt lat="45.63465" lon="6.05168">
        <ele>1625</ele>
        <time>2014-02-11T20:23:25.1Z</time>
      </trkpt>
      <trkpt lat="45.63464" lon="6.05165">
        <ele>1625</ele>
        <time>2014-02-11T20:23:28.1Z</time>
      </trkpt>
      <trkpt lat="45.63463" lon="6.05162">
        <ele>1625</ele>
        <time>2014-02-11T20:23:31.1Z</time>
      </trkpt>
      <trkpt lat="45.63463" lon="6.0516">
        <ele>1625</ele>
        <time>2014-02-11T20:23:33.1Z</time>
      </trkpt>
      <trkpt lat="45.63462" lon="6.05158">
        <ele>1625</ele>
        <time>2014-02-11T20:23:35.1Z</time>
      </trkpt>
      <trkpt lat="45.63461" lon="6.05154">
        <ele>1625</ele>
        <time>2014-02-11T20:23:38.1Z</time>
      </trkpt>
      <trkpt lat="45.63461" lon="6.05151">
        <ele>1625</ele>
        <time>2014-02-11T20:23:40.1Z</time>
      </trkpt>
      <trkpt lat="45.6346" lon="6.05147">
        <ele>1625</ele>
        <time>2014-02-11T20:23:43.1Z</time>
      </trkpt>
      <trkpt lat="45.63459" lon="6.05144">
        <ele>1625</ele>
        <time>2014-02-11T20:23:46.1Z</time>
      </trkpt>
      <trkpt lat="45.63458" lon="6.05141">
        <ele>1625</ele>
        <time>2014-02-11T20:23:48.1Z</time>
      </trkpt>
      <trkpt lat="45.63457" lon="6.05137">
        <ele>1626</ele>
        <time>2014-02-11T20:23:51.1Z</time>
      </trkpt>
      <trkpt lat="45.63457" lon="6.05136">
        <ele>1626</ele>
        <time>2014-02-11T20:23:53.1Z</time>
      </trkpt>
      <trkpt lat="45.63455" lon="6.05132">
        <ele>1627</ele>
        <time>2014-02-11T20:23:56.1Z</time>
      </trkpt>
      <trkpt lat="45.63454" lon="6.05127">
        <ele>1627</ele>
        <time>2014-02-11T20:23:59.1Z</time>
      </trkpt>
      <trkpt lat="45.63453" lon="6.05125">
        <ele>1627</ele>
        <time>2014-02-11T20:24:01.1Z</time>
      </trkpt>
      <trkpt lat="45.63452" lon="6.05121">
        <ele>1628</ele>
        <time>2014-02-11T20:24:04.1Z</time>
      </trkpt>
      <trkpt lat="45.6345" lon="6.05118">
        <ele>1628</ele>
        <time>2014-02-11T20:24:07.1Z</time>
      </trkpt>
      <trkpt lat="45.6345" lon="6.05115">
        <ele>1629</ele>
        <time>2014-02-11T20:24:09.1Z</time>
      </trkpt>
      <trkpt lat="45.63449" lon="6.05112">
        <ele>1629</ele>
        <time>2014-02-11T20:24:12.1Z</time>
      </trkpt>
      <trkpt lat="45.63448" lon="6.0511">
        <ele>1629</ele>
        <time>2014-02-11T20:24:14.1Z</time>
      </trkpt>
      <trkpt lat="45.63447" lon="6.05109">
        <ele>1629</ele>
        <time>2014-02-11T20:24:16.1Z</time>
      </trkpt>
      <trkpt lat="45.63446" lon="6.05106">
        <ele>1629</ele>
        <time>2014-02-11T20:24:19.1Z</time>
      </trkpt>
      <trkpt lat="45.63445" lon="6.05104">
        <ele>1630</ele>
        <time>2014-02-11T20:24:21.1Z</time>
      </trkpt>
      <trkpt lat="45.63444" lon="6.05101">
        <ele>1630</ele>
        <time>2014-02-11T20:24:24.1Z</time>
      </trkpt>
      <trkpt lat="45.63444" lon="6.05098">
        <ele>1630</ele>
        <time>2014-02-11T20:24:26.1Z</time>
      </trkpt>
      <trkpt lat="45.63442" lon="6.05095">
        <ele>1631</ele>
        <time>2014-02-11T20:24:29.1Z</time>
      </trkpt>
      <trkpt lat="45.63441" lon="6.05092">
        <ele>1631</ele>
        <time>2014-02-11T20:24:32.1Z</time>
      </trkpt>
      <trkpt lat="45.6344" lon="6.0509">
        <ele>1631</ele>
        <time>2014-02-11T20:24:34.1Z</time>
      </trkpt>
      <trkpt lat="45.63439" lon="6.05087">
        <ele>1632</ele>
        <time>2014-02-11T20:24:36.1Z</time>
      </trkpt>
      <trkpt lat="45.63438" lon="6.05084">
        <ele>1632</ele>
        <time>2014-02-11T20:24:39.1Z</time>
      </trkpt>
      <trkpt lat="45.63438" lon="6.05081">
        <ele>1633</ele>
        <time>2014-02-11T20:24:41.1Z</time>
      </trkpt>
      <trkpt lat="45.63438" lon="6.05079">
        <ele>1633</ele>
        <time>2014-02-11T20:24:43.1Z</time>
      </trkpt>
      <trkpt lat="45.63437" lon="6.05075">
        <ele>1634</ele>
        <time>2014-02-11T20:24:46.1Z</time>
      </trkpt>
      <trkpt lat="45.63436" lon="6.05071">
        <ele>1634</ele>
        <time>2014-02-11T20:24:49.1Z</time>
      </trkpt>
      <trkpt lat="45.63436" lon="6.05067">
        <ele>1634</ele>
        <time>2014-02-11T20:24:52.1Z</time>
      </trkpt>
      <trkpt lat="45.63435" lon="6.05065">
        <ele>1634</ele>
        <time>2014-02-11T20:24:54.1Z</time>
      </trkpt>
      <trkpt lat="45.63435" lon="6.05062">
        <ele>1635</ele>
        <time>2014-02-11T20:24:57.1Z</time>
      </trkpt>
      <trkpt lat="45.63435" lon="6.05058">
        <ele>1635</ele>
        <time>2014-02-11T20:25:00.1Z</time>
      </trkpt>
      <trkpt lat="45.63435" lon="6.05055">
        <ele>1636</ele>
        <time>2014-02-11T20:25:02.1Z</time>
      </trkpt>
      <trkpt lat="45.63435" lon="6.05052">
        <ele>1636</ele>
        <time>2014-02-11T20:25:05.1Z</time>
      </trkpt>
      <trkpt lat="45.63435" lon="6.0505">
        <ele>1637</ele>
        <time>2014-02-11T20:25:07.1Z</time>
      </trkpt>
      <trkpt lat="45.63435" lon="6.05047">
        <ele>1637</ele>
        <time>2014-02-11T20:25:09.1Z</time>
      </trkpt>
      <trkpt lat="45.63435" lon="6.05043">
        <ele>1637</ele>
        <time>2014-02-11T20:25:12.1Z</time>
      </trkpt>
      <trkpt lat="45.63435" lon="6.0504">
        <ele>1638</ele>
        <time>2014-02-11T20:25:15.1Z</time>
      </trkpt>
      <trkpt lat="45.63435" lon="6.05038">
        <ele>1638</ele>
        <time>2014-02-11T20:25:17.1Z</time>
      </trkpt>
      <trkpt lat="45.63434" lon="6.05034">
        <ele>1639</ele>
        <time>2014-02-11T20:25:20.1Z</time>
      </trkpt>
      <trkpt lat="45.63434" lon="6.05031">
        <ele>1639</ele>
        <time>2014-02-11T20:25:22.1Z</time>
      </trkpt>
      <trkpt lat="45.63434" lon="6.05028">
        <ele>1640</ele>
        <time>2014-02-11T20:25:25.1Z</time>
      </trkpt>
      <trkpt lat="45.63434" lon="6.05025">
        <ele>1640</ele>
        <time>2014-02-11T20:25:27.1Z</time>
      </trkpt>
      <trkpt lat="45.63434" lon="6.05022">
        <ele>1640</ele>
        <time>2014-02-11T20:25:30.1Z</time>
      </trkpt>
      <trkpt lat="45.63433" lon="6.05019">
        <ele>1641</ele>
        <time>2014-02-11T20:25:32.1Z</time>
      </trkpt>
      <trkpt lat="45.63434" lon="6.05016">
        <ele>1641</ele>
        <time>2014-02-11T20:25:35.1Z</time>
      </trkpt>
      <trkpt lat="45.63434" lon="6.05014">
        <ele>1641</ele>
        <time>2014-02-11T20:25:37.1Z</time>
      </trkpt>
      <trkpt lat="45.63435" lon="6.05011">
        <ele>1642</ele>
        <time>2014-02-11T20:25:39.1Z</time>
      </trkpt>
      <trkpt lat="45.63435" lon="6.05007">
        <ele>1642</ele>
        <time>2014-02-11T20:25:42.1Z</time>
      </trkpt>
      <trkpt lat="45.63435" lon="6.05004">
        <ele>1643</ele>
        <time>2014-02-11T20:25:44.1Z</time>
      </trkpt>
      <trkpt lat="45.63435" lon="6.05001">
        <ele>1643</ele>
        <time>2014-02-11T20:25:47.1Z</time>
      </trkpt>
      <trkpt lat="45.63435" lon="6.04998">
        <ele>1644</ele>
        <time>2014-02-11T20:25:49.1Z</time>
      </trkpt>
      <trkpt lat="45.63435" lon="6.04995">
        <ele>1645</ele>
        <time>2014-02-11T20:25:52.1Z</time>
      </trkpt>
      <trkpt lat="45.63435" lon="6.04993">
        <ele>1645</ele>
        <time>2014-02-11T20:25:54.1Z</time>
      </trkpt>
      <trkpt lat="45.63435" lon="6.04989">
        <ele>1645</ele>
        <time>2014-02-11T20:25:57.1Z</time>
      </trkpt>
      <trkpt lat="45.63436" lon="6.04987">
        <ele>1645</ele>
        <time>2014-02-11T20:25:59.1Z</time>
      </trkpt>
      <trkpt lat="45.63436" lon="6.04985">
        <ele>1645</ele>
        <time>2014-02-11T20:26:01.1Z</time>
      </trkpt>
      <trkpt lat="45.63436" lon="6.04981">
        <ele>1645</ele>
        <time>2014-02-11T20:26:04.1Z</time>
      </trkpt>
      <trkpt lat="45.63436" lon="6.04979">
        <ele>1646</ele>
        <time>2014-02-11T20:26:06.1Z</time>
      </trkpt>
      <trkpt lat="45.63436" lon="6.04976">
        <ele>1646</ele>
        <time>2014-02-11T20:26:09.1Z</time>
      </trkpt>
      <trkpt lat="45.63436" lon="6.04973">
        <ele>1647</ele>
        <time>2014-02-11T20:26:11.1Z</time>
      </trkpt>
      <trkpt lat="45.63436" lon="6.0497">
        <ele>1647</ele>
        <time>2014-02-11T20:26:14.1Z</time>
      </trkpt>
      <trkpt lat="45.63437" lon="6.04967">
        <ele>1647</ele>
        <time>2014-02-11T20:26:17.1Z</time>
      </trkpt>
      <trkpt lat="45.63437" lon="6.04965">
        <ele>1648</ele>
        <time>2014-02-11T20:26:19.1Z</time>
      </trkpt>
      <trkpt lat="45.63437" lon="6.04962">
        <ele>1648</ele>
        <time>2014-02-11T20:26:21.1Z</time>
      </trkpt>
      <trkpt lat="45.63438" lon="6.0496">
        <ele>1649</ele>
        <time>2014-02-11T20:26:24.1Z</time>
      </trkpt>
      <trkpt lat="45.63439" lon="6.04958">
        <ele>1649</ele>
        <time>2014-02-11T20:26:26.1Z</time>
      </trkpt>
      <trkpt lat="45.6344" lon="6.04955">
        <ele>1649</ele>
        <time>2014-02-11T20:26:29.1Z</time>
      </trkpt>
      <trkpt lat="45.6344" lon="6.04953">
        <ele>1650</ele>
        <time>2014-02-11T20:26:32.1Z</time>
      </trkpt>
      <trkpt lat="45.6344" lon="6.04951">
        <ele>1651</ele>
        <time>2014-02-11T20:26:34.1Z</time>
      </trkpt>
      <trkpt lat="45.6344" lon="6.04949">
        <ele>1652</ele>
        <time>2014-02-11T20:26:37.1Z</time>
      </trkpt>
      <trkpt lat="45.63441" lon="6.04946">
        <ele>1652</ele>
        <time>2014-02-11T20:26:40.1Z</time>
      </trkpt>
      <trkpt lat="45.63441" lon="6.04944">
        <ele>1653</ele>
        <time>2014-02-11T20:26:42.1Z</time>
      </trkpt>
      <trkpt lat="45.63442" lon="6.04941">
        <ele>1653</ele>
        <time>2014-02-11T20:26:45.1Z</time>
      </trkpt>
      <trkpt lat="45.63442" lon="6.04939">
        <ele>1654</ele>
        <time>2014-02-11T20:26:47.1Z</time>
      </trkpt>
      <trkpt lat="45.63442" lon="6.04937">
        <ele>1654</ele>
        <time>2014-02-11T20:26:50.1Z</time>
      </trkpt>
      <trkpt lat="45.63443" lon="6.04934">
        <ele>1655</ele>
        <time>2014-02-11T20:26:53.1Z</time>
      </trkpt>
      <trkpt lat="45.63443" lon="6.04931">
        <ele>1656</ele>
        <time>2014-02-11T20:26:56.1Z</time>
      </trkpt>
      <trkpt lat="45.63443" lon="6.04929">
        <ele>1656</ele>
        <time>2014-02-11T20:26:58.1Z</time>
      </trkpt>
      <trkpt lat="45.63444" lon="6.04927">
        <ele>1657</ele>
        <time>2014-02-11T20:27:01.1Z</time>
      </trkpt>
      <trkpt lat="45.63445" lon="6.04924">
        <ele>1658</ele>
        <time>2014-02-11T20:27:04.1Z</time>
      </trkpt>
      <trkpt lat="45.63445" lon="6.04921">
        <ele>1658</ele>
        <time>2014-02-11T20:27:07.1Z</time>
      </trkpt>
      <trkpt lat="45.63445" lon="6.04918">
        <ele>1659</ele>
        <time>2014-02-11T20:27:10.1Z</time>
      </trkpt>
      <trkpt lat="45.63446" lon="6.04916">
        <ele>1659</ele>
        <time>2014-02-11T20:27:12.1Z</time>
      </trkpt>
      <trkpt lat="45.63446" lon="6.04914">
        <ele>1660</ele>
        <time>2014-02-11T20:27:15.1Z</time>
      </trkpt>
      <trkpt lat="45.63446" lon="6.04911">
        <ele>1661</ele>
        <time>2014-02-11T20:27:18.1Z</time>
      </trkpt>
      <trkpt lat="45.63446" lon="6.04909">
        <ele>1661</ele>
        <time>2014-02-11T20:27:20.1Z</time>
      </trkpt>
      <trkpt lat="45.63448" lon="6.04906">
        <ele>1662</ele>
        <time>2014-02-11T20:27:23.1Z</time>
      </trkpt>
      <trkpt lat="45.63449" lon="6.04905">
        <ele>1663</ele>
        <time>2014-02-11T20:27:25.1Z</time>
      </trkpt>
      <trkpt lat="45.6345" lon="6.04903">
        <ele>1663</ele>
        <time>2014-02-11T20:27:28.1Z</time>
      </trkpt>
      <trkpt lat="45.6345" lon="6.04899">
        <ele>1664</ele>
        <time>2014-02-11T20:27:31.1Z</time>
      </trkpt>
      <trkpt lat="45.63451" lon="6.04896">
        <ele>1665</ele>
        <time>2014-02-11T20:27:34.1Z</time>
      </trkpt>
      <trkpt lat="45.63453" lon="6.04894">
        <ele>1665</ele>
        <time>2014-02-11T20:27:36.1Z</time>
      </trkpt>
      <trkpt lat="45.63454" lon="6.04892">
        <ele>1666</ele>
        <time>2014-02-11T20:27:39.1Z</time>
      </trkpt>
      <trkpt lat="45.63454" lon="6.0489">
        <ele>1666</ele>
        <time>2014-02-11T20:27:41.1Z</time>
      </trkpt>
      <trkpt lat="45.63456" lon="6.04886">
        <ele>1667</ele>
        <time>2014-02-11T20:27:44.1Z</time>
      </trkpt>
      <trkpt lat="45.63457" lon="6.04884">
        <ele>1667</ele>
        <time>2014-02-11T20:27:46.1Z</time>
      </trkpt>
      <trkpt lat="45.63459" lon="6.04881">
        <ele>1668</ele>
        <time>2014-02-11T20:27:49.1Z</time>
      </trkpt>
      <trkpt lat="45.6346" lon="6.04878">
        <ele>1668</ele>
        <time>2014-02-11T20:27:51.1Z</time>
      </trkpt>
      <trkpt lat="45.63461" lon="6.04877">
        <ele>1668</ele>
        <time>2014-02-11T20:27:53.1Z</time>
      </trkpt>
      <trkpt lat="45.63462" lon="6.04873">
        <ele>1669</ele>
        <time>2014-02-11T20:27:56.1Z</time>
      </trkpt>
      <trkpt lat="45.63463" lon="6.04869">
        <ele>1669</ele>
        <time>2014-02-11T20:27:58.1Z</time>
      </trkpt>
      <trkpt lat="45.63464" lon="6.04867">
        <ele>1669</ele>
        <time>2014-02-11T20:28:00.1Z</time>
      </trkpt>
      <trkpt lat="45.63465" lon="6.04864">
        <ele>1670</ele>
        <time>2014-02-11T20:28:03.1Z</time>
      </trkpt>
      <trkpt lat="45.63466" lon="6.0486">
        <ele>1670</ele>
        <time>2014-02-11T20:28:06.1Z</time>
      </trkpt>
      <trkpt lat="45.63467" lon="6.04857">
        <ele>1671</ele>
        <time>2014-02-11T20:28:09.1Z</time>
      </trkpt>
      <trkpt lat="45.63467" lon="6.04856">
        <ele>1671</ele>
        <time>2014-02-11T20:28:11.1Z</time>
      </trkpt>
      <trkpt lat="45.63468" lon="6.04854">
        <ele>1672</ele>
        <time>2014-02-11T20:28:13.1Z</time>
      </trkpt>
      <trkpt lat="45.63469" lon="6.0485">
        <ele>1672</ele>
        <time>2014-02-11T20:28:16.1Z</time>
      </trkpt>
      <trkpt lat="45.6347" lon="6.04848">
        <ele>1673</ele>
        <time>2014-02-11T20:28:18.1Z</time>
      </trkpt>
      <trkpt lat="45.6347" lon="6.04846">
        <ele>1674</ele>
        <time>2014-02-11T20:28:21.1Z</time>
      </trkpt>
      <trkpt lat="45.63471" lon="6.04843">
        <ele>1675</ele>
        <time>2014-02-11T20:28:24.1Z</time>
      </trkpt>
      <trkpt lat="45.63472" lon="6.0484">
        <ele>1676</ele>
        <time>2014-02-11T20:28:27.1Z</time>
      </trkpt>
      <trkpt lat="45.63472" lon="6.04836">
        <ele>1676</ele>
        <time>2014-02-11T20:28:30.1Z</time>
      </trkpt>
      <trkpt lat="45.63473" lon="6.04834">
        <ele>1677</ele>
        <time>2014-02-11T20:28:32.1Z</time>
      </trkpt>
      <trkpt lat="45.63474" lon="6.04831">
        <ele>1677</ele>
        <time>2014-02-11T20:28:35.1Z</time>
      </trkpt>
      <trkpt lat="45.63475" lon="6.04829">
        <ele>1678</ele>
        <time>2014-02-11T20:28:37.1Z</time>
      </trkpt>
      <trkpt lat="45.63475" lon="6.04825">
        <ele>1678</ele>
        <time>2014-02-11T20:28:40.1Z</time>
      </trkpt>
      <trkpt lat="45.63475" lon="6.04823">
        <ele>1678</ele>
        <time>2014-02-11T20:28:42.1Z</time>
      </trkpt>
      <trkpt lat="45.63476" lon="6.04819">
        <ele>1679</ele>
        <time>2014-02-11T20:28:45.1Z</time>
      </trkpt>
      <trkpt lat="45.63476" lon="6.04817">
        <ele>1679</ele>
        <time>2014-02-11T20:28:47.1Z</time>
      </trkpt>
      <trkpt lat="45.63475" lon="6.04813">
        <ele>1680</ele>
        <time>2014-02-11T20:28:50.1Z</time>
      </trkpt>
      <trkpt lat="45.63475" lon="6.0481">
        <ele>1681</ele>
        <time>2014-02-11T20:28:52.1Z</time>
      </trkpt>
      <trkpt lat="45.63475" lon="6.04808">
        <ele>1681</ele>
        <time>2014-02-11T20:28:54.1Z</time>
      </trkpt>
      <trkpt lat="45.63474" lon="6.04805">
        <ele>1681</ele>
        <time>2014-02-11T20:28:57.1Z</time>
      </trkpt>
      <trkpt lat="45.63473" lon="6.04802">
        <ele>1682</ele>
        <time>2014-02-11T20:29:00.1Z</time>
      </trkpt>
      <trkpt lat="45.63472" lon="6.048">
        <ele>1682</ele>
        <time>2014-02-11T20:29:03.1Z</time>
      </trkpt>
      <trkpt lat="45.63472" lon="6.04799">
        <ele>1682</ele>
        <time>2014-02-11T20:29:05.1Z</time>
      </trkpt>
      <trkpt lat="45.63472" lon="6.04799">
        <ele>1682</ele>
        <time>2014-02-11T20:29:07.1Z</time>
      </trkpt>
      <trkpt lat="45.63471" lon="6.04799">
        <ele>1682</ele>
        <time>2014-02-11T20:29:10.1Z</time>
      </trkpt>
      <trkpt lat="45.6347" lon="6.04799">
        <ele>1682</ele>
        <time>2014-02-11T20:29:12.1Z</time>
      </trkpt>
      <trkpt lat="45.6347" lon="6.04799">
        <ele>1682</ele>
        <time>2014-02-11T20:29:15.1Z</time>
      </trkpt>
      <trkpt lat="45.6347" lon="6.04798">
        <ele>1682</ele>
        <time>2014-02-11T20:29:17.1Z</time>
      </trkpt>
      <trkpt lat="45.63469" lon="6.04796">
        <ele>1682</ele>
        <time>2014-02-11T20:29:20.1Z</time>
      </trkpt>
      <trkpt lat="45.63469" lon="6.04797">
        <ele>1682</ele>
        <time>2014-02-11T20:29:23.1Z</time>
      </trkpt>
      <trkpt lat="45.63469" lon="6.04797">
        <ele>1682</ele>
        <time>2014-02-11T20:29:26.1Z</time>
      </trkpt>
      <trkpt lat="45.63468" lon="6.04796">
        <ele>1682</ele>
        <time>2014-02-11T20:29:29.1Z</time>
      </trkpt>
      <trkpt lat="45.63468" lon="6.04794">
        <ele>1682</ele>
        <time>2014-02-11T20:29:32.1Z</time>
      </trkpt>
      <trkpt lat="45.63468" lon="6.04794">
        <ele>1682</ele>
        <time>2014-02-11T20:29:34.1Z</time>
      </trkpt>
      <trkpt lat="45.63468" lon="6.04794">
        <ele>1683</ele>
        <time>2014-02-11T20:29:37.1Z</time>
      </trkpt>
      <trkpt lat="45.63468" lon="6.04792">
        <ele>1683</ele>
        <time>2014-02-11T20:29:40.1Z</time>
      </trkpt>
      <trkpt lat="45.63468" lon="6.04793">
        <ele>1683</ele>
        <time>2014-02-11T20:29:42.1Z</time>
      </trkpt>
      <trkpt lat="45.63468" lon="6.04793">
        <ele>1683</ele>
        <time>2014-02-11T20:29:45.1Z</time>
      </trkpt>
      <trkpt lat="45.63468" lon="6.04794">
        <ele>1683</ele>
        <time>2014-02-11T20:29:49.1Z</time>
      </trkpt>
      <trkpt lat="45.63469" lon="6.04794">
        <ele>1683</ele>
        <time>2014-02-11T20:29:52.1Z</time>
      </trkpt>
      <trkpt lat="45.63469" lon="6.04795">
        <ele>1683</ele>
        <time>2014-02-11T20:29:54.1Z</time>
      </trkpt>
      <trkpt lat="45.63469" lon="6.04796">
        <ele>1683</ele>
        <time>2014-02-11T20:29:57.1Z</time>
      </trkpt>
      <trkpt lat="45.63469" lon="6.04796">
        <ele>1683</ele>
        <time>2014-02-11T20:30:00.1Z</time>
      </trkpt>
      <trkpt lat="45.6347" lon="6.04797">
        <ele>1683</ele>
        <time>2014-02-11T20:30:02.1Z</time>
      </trkpt>
      <trkpt lat="45.6347" lon="6.04797">
        <ele>1684</ele>
        <time>2014-02-11T20:30:05.1Z</time>
      </trkpt>
      <trkpt lat="45.6347" lon="6.04798">
        <ele>1683</ele>
        <time>2014-02-11T20:30:08.1Z</time>
      </trkpt>
      <trkpt lat="45.6347" lon="6.04798">
        <ele>1683</ele>
        <time>2014-02-11T20:30:10.1Z</time>
      </trkpt>
      <trkpt lat="45.63469" lon="6.04795">
        <ele>1683</ele>
        <time>2014-02-11T20:30:13.1Z</time>
      </trkpt>
      <trkpt lat="45.63467" lon="6.04794">
        <ele>1683</ele>
        <time>2014-02-11T20:30:15.1Z</time>
      </trkpt>
      <trkpt lat="45.63466" lon="6.0479">
        <ele>1683</ele>
        <time>2014-02-11T20:30:18.1Z</time>
      </trkpt>
      <trkpt lat="45.63464" lon="6.04787">
        <ele>1683</ele>
        <time>2014-02-11T20:30:21.1Z</time>
      </trkpt>
      <trkpt lat="45.63463" lon="6.04785">
        <ele>1684</ele>
        <time>2014-02-11T20:30:23.1Z</time>
      </trkpt>
      <trkpt lat="45.63462" lon="6.04782">
        <ele>1684</ele>
        <time>2014-02-11T20:30:26.1Z</time>
      </trkpt>
      <trkpt lat="45.63461" lon="6.0478">
        <ele>1683</ele>
        <time>2014-02-11T20:30:28.1Z</time>
      </trkpt>
      <trkpt lat="45.63459" lon="6.04778">
        <ele>1684</ele>
        <time>2014-02-11T20:30:30.1Z</time>
      </trkpt>
      <trkpt lat="45.63457" lon="6.04775">
        <ele>1684</ele>
        <time>2014-02-11T20:30:33.1Z</time>
      </trkpt>
      <trkpt lat="45.63456" lon="6.04773">
        <ele>1684</ele>
        <time>2014-02-11T20:30:35.1Z</time>
      </trkpt>
      <trkpt lat="45.63456" lon="6.04771">
        <ele>1684</ele>
        <time>2014-02-11T20:30:38.1Z</time>
      </trkpt>
      <trkpt lat="45.63455" lon="6.04769">
        <ele>1684</ele>
        <time>2014-02-11T20:30:40.1Z</time>
      </trkpt>
      <trkpt lat="45.63454" lon="6.04767">
        <ele>1684</ele>
        <time>2014-02-11T20:30:43.1Z</time>
      </trkpt>
      <trkpt lat="45.63453" lon="6.04765">
        <ele>1685</ele>
        <time>2014-02-11T20:30:45.1Z</time>
      </trkpt>
      <trkpt lat="45.63451" lon="6.04762">
        <ele>1685</ele>
        <time>2014-02-11T20:30:48.1Z</time>
      </trkpt>
      <trkpt lat="45.63449" lon="6.04759">
        <ele>1686</ele>
        <time>2014-02-11T20:30:51.1Z</time>
      </trkpt>
      <trkpt lat="45.63448" lon="6.04757">
        <ele>1686</ele>
        <time>2014-02-11T20:30:53.1Z</time>
      </trkpt>
      <trkpt lat="45.63447" lon="6.04755">
        <ele>1686</ele>
        <time>2014-02-11T20:30:56.1Z</time>
      </trkpt>
      <trkpt lat="45.63446" lon="6.04753">
        <ele>1687</ele>
        <time>2014-02-11T20:30:58.1Z</time>
      </trkpt>
      <trkpt lat="45.63444" lon="6.0475">
        <ele>1687</ele>
        <time>2014-02-11T20:31:01.1Z</time>
      </trkpt>
      <trkpt lat="45.63443" lon="6.04746">
        <ele>1688</ele>
        <time>2014-02-11T20:31:04.1Z</time>
      </trkpt>
      <trkpt lat="45.63442" lon="6.04745">
        <ele>1688</ele>
        <time>2014-02-11T20:31:06.1Z</time>
      </trkpt>
      <trkpt lat="45.6344" lon="6.04742">
        <ele>1689</ele>
        <time>2014-02-11T20:31:09.1Z</time>
      </trkpt>
      <trkpt lat="45.6344" lon="6.0474">
        <ele>1689</ele>
        <time>2014-02-11T20:31:11.1Z</time>
      </trkpt>
      <trkpt lat="45.63438" lon="6.04739">
        <ele>1689</ele>
        <time>2014-02-11T20:31:13.1Z</time>
      </trkpt>
      <trkpt lat="45.63437" lon="6.04736">
        <ele>1690</ele>
        <time>2014-02-11T20:31:16.1Z</time>
      </trkpt>
      <trkpt lat="45.63435" lon="6.04734">
        <ele>1690</ele>
        <time>2014-02-11T20:31:19.1Z</time>
      </trkpt>
      <trkpt lat="45.63434" lon="6.04733">
        <ele>1690</ele>
        <time>2014-02-11T20:31:21.1Z</time>
      </trkpt>
      <trkpt lat="45.63432" lon="6.04731">
        <ele>1691</ele>
        <time>2014-02-11T20:31:24.1Z</time>
      </trkpt>
      <trkpt lat="45.63431" lon="6.04728">
        <ele>1692</ele>
        <time>2014-02-11T20:31:27.1Z</time>
      </trkpt>
      <trkpt lat="45.6343" lon="6.04726">
        <ele>1692</ele>
        <time>2014-02-11T20:31:29.1Z</time>
      </trkpt>
      <trkpt lat="45.63428" lon="6.04724">
        <ele>1692</ele>
        <time>2014-02-11T20:31:32.1Z</time>
      </trkpt>
      <trkpt lat="45.63427" lon="6.04722">
        <ele>1693</ele>
        <time>2014-02-11T20:31:35.1Z</time>
      </trkpt>
      <trkpt lat="45.63426" lon="6.0472">
        <ele>1693</ele>
        <time>2014-02-11T20:31:37.1Z</time>
      </trkpt>
      <trkpt lat="45.63425" lon="6.04718">
        <ele>1694</ele>
        <time>2014-02-11T20:31:40.1Z</time>
      </trkpt>
      <trkpt lat="45.63424" lon="6.04717">
        <ele>1694</ele>
        <time>2014-02-11T20:31:42.1Z</time>
      </trkpt>
      <trkpt lat="45.63423" lon="6.04715">
        <ele>1694</ele>
        <time>2014-02-11T20:31:45.1Z</time>
      </trkpt>
      <trkpt lat="45.63422" lon="6.04712">
        <ele>1695</ele>
        <time>2014-02-11T20:31:48.1Z</time>
      </trkpt>
      <trkpt lat="45.63421" lon="6.04709">
        <ele>1695</ele>
        <time>2014-02-11T20:31:51.1Z</time>
      </trkpt>
      <trkpt lat="45.6342" lon="6.04708">
        <ele>1696</ele>
        <time>2014-02-11T20:31:53.1Z</time>
      </trkpt>
      <trkpt lat="45.63419" lon="6.04707">
        <ele>1696</ele>
        <time>2014-02-11T20:31:55.1Z</time>
      </trkpt>
      <trkpt lat="45.63418" lon="6.04705">
        <ele>1697</ele>
        <time>2014-02-11T20:31:57.1Z</time>
      </trkpt>
      <trkpt lat="45.63417" lon="6.04703">
        <ele>1697</ele>
        <time>2014-02-11T20:32:00.1Z</time>
      </trkpt>
      <trkpt lat="45.63416" lon="6.04701">
        <ele>1698</ele>
        <time>2014-02-11T20:32:02.1Z</time>
      </trkpt>
      <trkpt lat="45.63415" lon="6.04699">
        <ele>1698</ele>
        <time>2014-02-11T20:32:05.1Z</time>
      </trkpt>
      <trkpt lat="45.63414" lon="6.04697">
        <ele>1699</ele>
        <time>2014-02-11T20:32:07.1Z</time>
      </trkpt>
      <trkpt lat="45.63412" lon="6.04695">
        <ele>1699</ele>
        <time>2014-02-11T20:32:10.1Z</time>
      </trkpt>
      <trkpt lat="45.63411" lon="6.04693">
        <ele>1699</ele>
        <time>2014-02-11T20:32:13.1Z</time>
      </trkpt>
      <trkpt lat="45.6341" lon="6.04691">
        <ele>1700</ele>
        <time>2014-02-11T20:32:15.1Z</time>
      </trkpt>
      <trkpt lat="45.63409" lon="6.04688">
        <ele>1700</ele>
        <time>2014-02-11T20:32:18.1Z</time>
      </trkpt>
      <trkpt lat="45.63408" lon="6.04686">
        <ele>1701</ele>
        <time>2014-02-11T20:32:21.1Z</time>
      </trkpt>
      <trkpt lat="45.63407" lon="6.04684">
        <ele>1701</ele>
        <time>2014-02-11T20:32:23.1Z</time>
      </trkpt>
      <trkpt lat="45.63407" lon="6.04682">
        <ele>1702</ele>
        <time>2014-02-11T20:32:25.1Z</time>
      </trkpt>
      <trkpt lat="45.63405" lon="6.04679">
        <ele>1702</ele>
        <time>2014-02-11T20:32:28.1Z</time>
      </trkpt>
      <trkpt lat="45.63404" lon="6.04676">
        <ele>1703</ele>
        <time>2014-02-11T20:32:31.1Z</time>
      </trkpt>
      <trkpt lat="45.63402" lon="6.04673">
        <ele>1703</ele>
        <time>2014-02-11T20:32:34.1Z</time>
      </trkpt>
      <trkpt lat="45.63401" lon="6.04672">
        <ele>1704</ele>
        <time>2014-02-11T20:32:36.1Z</time>
      </trkpt>
      <trkpt lat="45.63399" lon="6.04669">
        <ele>1704</ele>
        <time>2014-02-11T20:32:39.1Z</time>
      </trkpt>
      <trkpt lat="45.63398" lon="6.04666">
        <ele>1704</ele>
        <time>2014-02-11T20:32:42.1Z</time>
      </trkpt>
      <trkpt lat="45.63397" lon="6.04664">
        <ele>1705</ele>
        <time>2014-02-11T20:32:44.1Z</time>
      </trkpt>
      <trkpt lat="45.63395" lon="6.04661">
        <ele>1706</ele>
        <time>2014-02-11T20:32:47.1Z</time>
      </trkpt>
      <trkpt lat="45.63395" lon="6.04659">
        <ele>1707</ele>
        <time>2014-02-11T20:32:49.1Z</time>
      </trkpt>
      <trkpt lat="45.63393" lon="6.04656">
        <ele>1703</ele>
        <time>2014-02-11T20:32:52.1Z</time>
      </trkpt>
      <trkpt lat="45.63392" lon="6.04654">
        <ele>1704</ele>
        <time>2014-02-11T20:32:55.1Z</time>
      </trkpt>
      <trkpt lat="45.63391" lon="6.04652">
        <ele>1705</ele>
        <time>2014-02-11T20:32:57.1Z</time>
      </trkpt>
      <trkpt lat="45.6339" lon="6.04649">
        <ele>1708</ele>
        <time>2014-02-11T20:33:00.1Z</time>
      </trkpt>
      <trkpt lat="45.63389" lon="6.04646">
        <ele>1709</ele>
        <time>2014-02-11T20:33:03.1Z</time>
      </trkpt>
      <trkpt lat="45.63389" lon="6.04645">
        <ele>1709</ele>
        <time>2014-02-11T20:33:05.1Z</time>
      </trkpt>
      <trkpt lat="45.63388" lon="6.04643">
        <ele>1709</ele>
        <time>2014-02-11T20:33:08.1Z</time>
      </trkpt>
      <trkpt lat="45.63387" lon="6.04641">
        <ele>1710</ele>
        <time>2014-02-11T20:33:10.1Z</time>
      </trkpt>
      <trkpt lat="45.63386" lon="6.0464">
        <ele>1710</ele>
        <time>2014-02-11T20:33:12.1Z</time>
      </trkpt>
      <trkpt lat="45.63386" lon="6.04637">
        <ele>1710</ele>
        <time>2014-02-11T20:33:15.1Z</time>
      </trkpt>
      <trkpt lat="45.63385" lon="6.04635">
        <ele>1710</ele>
        <time>2014-02-11T20:33:17.1Z</time>
      </trkpt>
      <trkpt lat="45.63385" lon="6.04633">
        <ele>1711</ele>
        <time>2014-02-11T20:33:19.1Z</time>
      </trkpt>
      <trkpt lat="45.63384" lon="6.0463">
        <ele>1711</ele>
        <time>2014-02-11T20:33:22.1Z</time>
      </trkpt>
      <trkpt lat="45.63382" lon="6.04626">
        <ele>1712</ele>
        <time>2014-02-11T20:33:25.1Z</time>
      </trkpt>
      <trkpt lat="45.63381" lon="6.04624">
        <ele>1712</ele>
        <time>2014-02-11T20:33:27.1Z</time>
      </trkpt>
      <trkpt lat="45.6338" lon="6.04621">
        <ele>1713</ele>
        <time>2014-02-11T20:33:30.1Z</time>
      </trkpt>
      <trkpt lat="45.63379" lon="6.04617">
        <ele>1713</ele>
        <time>2014-02-11T20:33:33.1Z</time>
      </trkpt>
      <trkpt lat="45.63378" lon="6.04614">
        <ele>1713</ele>
        <time>2014-02-11T20:33:35.1Z</time>
      </trkpt>
      <trkpt lat="45.63377" lon="6.04611">
        <ele>1713</ele>
        <time>2014-02-11T20:33:38.1Z</time>
      </trkpt>
      <trkpt lat="45.63376" lon="6.04607">
        <ele>1714</ele>
        <time>2014-02-11T20:33:41.1Z</time>
      </trkpt>
      <trkpt lat="45.63375" lon="6.04605">
        <ele>1715</ele>
        <time>2014-02-11T20:33:43.1Z</time>
      </trkpt>
      <trkpt lat="45.63374" lon="6.04602">
        <ele>1715</ele>
        <time>2014-02-11T20:33:45.1Z</time>
      </trkpt>
      <trkpt lat="45.63373" lon="6.04598">
        <ele>1716</ele>
        <time>2014-02-11T20:33:48.1Z</time>
      </trkpt>
      <trkpt lat="45.63372" lon="6.04595">
        <ele>1716</ele>
        <time>2014-02-11T20:33:51.1Z</time>
      </trkpt>
      <trkpt lat="45.63371" lon="6.04591">
        <ele>1717</ele>
        <time>2014-02-11T20:33:54.1Z</time>
      </trkpt>
      <trkpt lat="45.6337" lon="6.04589">
        <ele>1717</ele>
        <time>2014-02-11T20:33:56.1Z</time>
      </trkpt>
      <trkpt lat="45.63369" lon="6.04585">
        <ele>1718</ele>
        <time>2014-02-11T20:33:59.1Z</time>
      </trkpt>
      <trkpt lat="45.63369" lon="6.04583">
        <ele>1717</ele>
        <time>2014-02-11T20:34:01.1Z</time>
      </trkpt>
      <trkpt lat="45.63367" lon="6.04579">
        <ele>1718</ele>
        <time>2014-02-11T20:34:04.1Z</time>
      </trkpt>
      <trkpt lat="45.63366" lon="6.04575">
        <ele>1718</ele>
        <time>2014-02-11T20:34:07.1Z</time>
      </trkpt>
      <trkpt lat="45.63366" lon="6.04573">
        <ele>1718</ele>
        <time>2014-02-11T20:34:09.1Z</time>
      </trkpt>
      <trkpt lat="45.63366" lon="6.04571">
        <ele>1719</ele>
        <time>2014-02-11T20:34:11.1Z</time>
      </trkpt>
      <trkpt lat="45.63366" lon="6.04567">
        <ele>1719</ele>
        <time>2014-02-11T20:34:14.1Z</time>
      </trkpt>
      <trkpt lat="45.63366" lon="6.04563">
        <ele>1719</ele>
        <time>2014-02-11T20:34:17.1Z</time>
      </trkpt>
      <trkpt lat="45.63366" lon="6.0456">
        <ele>1720</ele>
        <time>2014-02-11T20:34:19.1Z</time>
      </trkpt>
      <trkpt lat="45.63365" lon="6.04557">
        <ele>1720</ele>
        <time>2014-02-11T20:34:22.1Z</time>
      </trkpt>
      <trkpt lat="45.63363" lon="6.04553">
        <ele>1720</ele>
        <time>2014-02-11T20:34:25.1Z</time>
      </trkpt>
      <trkpt lat="45.63363" lon="6.0455">
        <ele>1721</ele>
        <time>2014-02-11T20:34:27.1Z</time>
      </trkpt>
      <trkpt lat="45.63362" lon="6.04545">
        <ele>1722</ele>
        <time>2014-02-11T20:34:30.1Z</time>
      </trkpt>
      <trkpt lat="45.63362" lon="6.04542">
        <ele>1722</ele>
        <time>2014-02-11T20:34:33.1Z</time>
      </trkpt>
      <trkpt lat="45.63362" lon="6.04538">
        <ele>1723</ele>
        <time>2014-02-11T20:34:35.1Z</time>
      </trkpt>
      <trkpt lat="45.63361" lon="6.04534">
        <ele>1723</ele>
        <time>2014-02-11T20:34:38.1Z</time>
      </trkpt>
      <trkpt lat="45.63361" lon="6.04531">
        <ele>1723</ele>
        <time>2014-02-11T20:34:40.1Z</time>
      </trkpt>
      <trkpt lat="45.63361" lon="6.04527">
        <ele>1723</ele>
        <time>2014-02-11T20:34:43.1Z</time>
      </trkpt>
      <trkpt lat="45.63361" lon="6.04524">
        <ele>1723</ele>
        <time>2014-02-11T20:34:45.1Z</time>
      </trkpt>
      <trkpt lat="45.63361" lon="6.04521">
        <ele>1724</ele>
        <time>2014-02-11T20:34:48.1Z</time>
      </trkpt>
      <trkpt lat="45.63361" lon="6.04518">
        <ele>1724</ele>
        <time>2014-02-11T20:34:50.1Z</time>
      </trkpt>
      <trkpt lat="45.63361" lon="6.04514">
        <ele>1725</ele>
        <time>2014-02-11T20:34:53.1Z</time>
      </trkpt>
      <trkpt lat="45.63361" lon="6.04512">
        <ele>1725</ele>
        <time>2014-02-11T20:34:55.1Z</time>
      </trkpt>
      <trkpt lat="45.63362" lon="6.04509">
        <ele>1725</ele>
        <time>2014-02-11T20:34:58.1Z</time>
      </trkpt>
      <trkpt lat="45.63362" lon="6.04506">
        <ele>1726</ele>
        <time>2014-02-11T20:35:00.1Z</time>
      </trkpt>
      <trkpt lat="45.63362" lon="6.04503">
        <ele>1726</ele>
        <time>2014-02-11T20:35:03.1Z</time>
      </trkpt>
      <trkpt lat="45.63363" lon="6.045">
        <ele>1727</ele>
        <time>2014-02-11T20:35:06.1Z</time>
      </trkpt>
      <trkpt lat="45.63364" lon="6.04498">
        <ele>1727</ele>
        <time>2014-02-11T20:35:08.1Z</time>
      </trkpt>
      <trkpt lat="45.63364" lon="6.04493">
        <ele>1727</ele>
        <time>2014-02-11T20:35:11.1Z</time>
      </trkpt>
      <trkpt lat="45.63364" lon="6.0449">
        <ele>1728</ele>
        <time>2014-02-11T20:35:14.1Z</time>
      </trkpt>
      <trkpt lat="45.63364" lon="6.04487">
        <ele>1728</ele>
        <time>2014-02-11T20:35:16.1Z</time>
      </trkpt>
      <trkpt lat="45.63365" lon="6.04484">
        <ele>1729</ele>
        <time>2014-02-11T20:35:19.1Z</time>
      </trkpt>
      <trkpt lat="45.63366" lon="6.04482">
        <ele>1729</ele>
        <time>2014-02-11T20:35:21.1Z</time>
      </trkpt>
      <trkpt lat="45.63367" lon="6.04479">
        <ele>1730</ele>
        <time>2014-02-11T20:35:24.1Z</time>
      </trkpt>
      <trkpt lat="45.63367" lon="6.04477">
        <ele>1730</ele>
        <time>2014-02-11T20:35:26.1Z</time>
      </trkpt>
      <trkpt lat="45.63369" lon="6.04473">
        <ele>1731</ele>
        <time>2014-02-11T20:35:29.1Z</time>
      </trkpt>
      <trkpt lat="45.6337" lon="6.04471">
        <ele>1731</ele>
        <time>2014-02-11T20:35:31.1Z</time>
      </trkpt>
      <trkpt lat="45.63372" lon="6.04468">
        <ele>1732</ele>
        <time>2014-02-11T20:35:34.1Z</time>
      </trkpt>
      <trkpt lat="45.63373" lon="6.04465">
        <ele>1732</ele>
        <time>2014-02-11T20:35:36.1Z</time>
      </trkpt>
      <trkpt lat="45.63374" lon="6.04462">
        <ele>1733</ele>
        <time>2014-02-11T20:35:39.1Z</time>
      </trkpt>
      <trkpt lat="45.63375" lon="6.04459">
        <ele>1733</ele>
        <time>2014-02-11T20:35:42.1Z</time>
      </trkpt>
      <trkpt lat="45.63376" lon="6.04456">
        <ele>1733</ele>
        <time>2014-02-11T20:35:44.1Z</time>
      </trkpt>
      <trkpt lat="45.63377" lon="6.04452">
        <ele>1733</ele>
        <time>2014-02-11T20:35:47.1Z</time>
      </trkpt>
      <trkpt lat="45.63379" lon="6.04449">
        <ele>1733</ele>
        <time>2014-02-11T20:35:50.1Z</time>
      </trkpt>
      <trkpt lat="45.63381" lon="6.04446">
        <ele>1734</ele>
        <time>2014-02-11T20:35:53.1Z</time>
      </trkpt>
      <trkpt lat="45.63382" lon="6.04444">
        <ele>1734</ele>
        <time>2014-02-11T20:35:55.1Z</time>
      </trkpt>
      <trkpt lat="45.63384" lon="6.0444">
        <ele>1734</ele>
        <time>2014-02-11T20:35:58.1Z</time>
      </trkpt>
      <trkpt lat="45.63387" lon="6.04436">
        <ele>1735</ele>
        <time>2014-02-11T20:36:01.1Z</time>
      </trkpt>
      <trkpt lat="45.63388" lon="6.04434">
        <ele>1736</ele>
        <time>2014-02-11T20:36:03.1Z</time>
      </trkpt>
      <trkpt lat="45.63389" lon="6.0443">
        <ele>1735</ele>
        <time>2014-02-11T20:36:06.1Z</time>
      </trkpt>
      <trkpt lat="45.63391" lon="6.04426">
        <ele>1735</ele>
        <time>2014-02-11T20:36:09.1Z</time>
      </trkpt>
      <trkpt lat="45.63391" lon="6.04424">
        <ele>1736</ele>
        <time>2014-02-11T20:36:11.1Z</time>
      </trkpt>
      <trkpt lat="45.63392" lon="6.04419">
        <ele>1736</ele>
        <time>2014-02-11T20:36:14.1Z</time>
      </trkpt>
      <trkpt lat="45.63393" lon="6.04417">
        <ele>1737</ele>
        <time>2014-02-11T20:36:16.1Z</time>
      </trkpt>
      <trkpt lat="45.63394" lon="6.04413">
        <ele>1738</ele>
        <time>2014-02-11T20:36:19.1Z</time>
      </trkpt>
      <trkpt lat="45.63396" lon="6.04409">
        <ele>1738</ele>
        <time>2014-02-11T20:36:22.1Z</time>
      </trkpt>
      <trkpt lat="45.63396" lon="6.04407">
        <ele>1738</ele>
        <time>2014-02-11T20:36:24.1Z</time>
      </trkpt>
      <trkpt lat="45.63396" lon="6.04404">
        <ele>1739</ele>
        <time>2014-02-11T20:36:27.1Z</time>
      </trkpt>
      <trkpt lat="45.63397" lon="6.04401">
        <ele>1739</ele>
        <time>2014-02-11T20:36:29.1Z</time>
      </trkpt>
      <trkpt lat="45.63398" lon="6.04397">
        <ele>1740</ele>
        <time>2014-02-11T20:36:32.1Z</time>
      </trkpt>
      <trkpt lat="45.63398" lon="6.04395">
        <ele>1740</ele>
        <time>2014-02-11T20:36:34.1Z</time>
      </trkpt>
      <trkpt lat="45.63398" lon="6.0439">
        <ele>1740</ele>
        <time>2014-02-11T20:36:37.1Z</time>
      </trkpt>
      <trkpt lat="45.63398" lon="6.04388">
        <ele>1741</ele>
        <time>2014-02-11T20:36:39.1Z</time>
      </trkpt>
      <trkpt lat="45.63398" lon="6.04383">
        <ele>1741</ele>
        <time>2014-02-11T20:36:42.1Z</time>
      </trkpt>
      <trkpt lat="45.63398" lon="6.0438">
        <ele>1742</ele>
        <time>2014-02-11T20:36:44.1Z</time>
      </trkpt>
      <trkpt lat="45.63398" lon="6.04378">
        <ele>1741</ele>
        <time>2014-02-11T20:36:46.1Z</time>
      </trkpt>
      <trkpt lat="45.63398" lon="6.04373">
        <ele>1742</ele>
        <time>2014-02-11T20:36:49.1Z</time>
      </trkpt>
      <trkpt lat="45.63398" lon="6.04368">
        <ele>1742</ele>
        <time>2014-02-11T20:36:52.1Z</time>
      </trkpt>
      <trkpt lat="45.63398" lon="6.04365">
        <ele>1742</ele>
        <time>2014-02-11T20:36:54.1Z</time>
      </trkpt>
      <trkpt lat="45.63398" lon="6.0436">
        <ele>1742</ele>
        <time>2014-02-11T20:36:57.1Z</time>
      </trkpt>
      <trkpt lat="45.63398" lon="6.04356">
        <ele>1743</ele>
        <time>2014-02-11T20:37:00.1Z</time>
      </trkpt>
      <trkpt lat="45.63398" lon="6.04354">
        <ele>1743</ele>
        <time>2014-02-11T20:37:02.1Z</time>
      </trkpt>
      <trkpt lat="45.63398" lon="6.0435">
        <ele>1743</ele>
        <time>2014-02-11T20:37:05.1Z</time>
      </trkpt>
      <trkpt lat="45.63398" lon="6.04347">
        <ele>1744</ele>
        <time>2014-02-11T20:37:07.1Z</time>
      </trkpt>
      <trkpt lat="45.63398" lon="6.04343">
        <ele>1744</ele>
        <time>2014-02-11T20:37:10.1Z</time>
      </trkpt>
      <trkpt lat="45.63399" lon="6.04341">
        <ele>1745</ele>
        <time>2014-02-11T20:37:12.1Z</time>
      </trkpt>
      <trkpt lat="45.63398" lon="6.04337">
        <ele>1745</ele>
        <time>2014-02-11T20:37:15.1Z</time>
      </trkpt>
      <trkpt lat="45.63398" lon="6.04333">
        <ele>1745</ele>
        <time>2014-02-11T20:37:18.1Z</time>
      </trkpt>
      <trkpt lat="45.63398" lon="6.04329">
        <ele>1746</ele>
        <time>2014-02-11T20:37:21.1Z</time>
      </trkpt>
      <trkpt lat="45.63396" lon="6.04325">
        <ele>1746</ele>
        <time>2014-02-11T20:37:24.1Z</time>
      </trkpt>
      <trkpt lat="45.63396" lon="6.04322">
        <ele>1747</ele>
        <time>2014-02-11T20:37:26.1Z</time>
      </trkpt>
      <trkpt lat="45.63395" lon="6.04318">
        <ele>1747</ele>
        <time>2014-02-11T20:37:29.1Z</time>
      </trkpt>
      <trkpt lat="45.63395" lon="6.04316">
        <ele>1747</ele>
        <time>2014-02-11T20:37:31.1Z</time>
      </trkpt>
      <trkpt lat="45.63394" lon="6.04312">
        <ele>1747</ele>
        <time>2014-02-11T20:37:34.1Z</time>
      </trkpt>
      <trkpt lat="45.63393" lon="6.04307">
        <ele>1748</ele>
        <time>2014-02-11T20:37:37.1Z</time>
      </trkpt>
      <trkpt lat="45.63392" lon="6.04304">
        <ele>1747</ele>
        <time>2014-02-11T20:37:39.1Z</time>
      </trkpt>
      <trkpt lat="45.63391" lon="6.043">
        <ele>1748</ele>
        <time>2014-02-11T20:37:42.1Z</time>
      </trkpt>
      <trkpt lat="45.6339" lon="6.04297">
        <ele>1748</ele>
        <time>2014-02-11T20:37:44.1Z</time>
      </trkpt>
      <trkpt lat="45.6339" lon="6.04293">
        <ele>1749</ele>
        <time>2014-02-11T20:37:47.1Z</time>
      </trkpt>
      <trkpt lat="45.63389" lon="6.04291">
        <ele>1750</ele>
        <time>2014-02-11T20:37:49.1Z</time>
      </trkpt>
      <trkpt lat="45.63388" lon="6.04287">
        <ele>1750</ele>
        <time>2014-02-11T20:37:52.1Z</time>
      </trkpt>
      <trkpt lat="45.63387" lon="6.04284">
        <ele>1750</ele>
        <time>2014-02-11T20:37:55.1Z</time>
      </trkpt>
      <trkpt lat="45.63386" lon="6.0428">
        <ele>1750</ele>
        <time>2014-02-11T20:37:58.1Z</time>
      </trkpt>
      <trkpt lat="45.63385" lon="6.04277">
        <ele>1750</ele>
        <time>2014-02-11T20:38:01.1Z</time>
      </trkpt>
      <trkpt lat="45.63385" lon="6.04275">
        <ele>1751</ele>
        <time>2014-02-11T20:38:03.1Z</time>
      </trkpt>
      <trkpt lat="45.63383" lon="6.04271">
        <ele>1752</ele>
        <time>2014-02-11T20:38:06.1Z</time>
      </trkpt>
      <trkpt lat="45.63382" lon="6.04267">
        <ele>1752</ele>
        <time>2014-02-11T20:38:09.1Z</time>
      </trkpt>
      <trkpt lat="45.63381" lon="6.04263">
        <ele>1753</ele>
        <time>2014-02-11T20:38:12.1Z</time>
      </trkpt>
      <trkpt lat="45.6338" lon="6.04259">
        <ele>1753</ele>
        <time>2014-02-11T20:38:15.1Z</time>
      </trkpt>
      <trkpt lat="45.6338" lon="6.04256">
        <ele>1753</ele>
        <time>2014-02-11T20:38:17.1Z</time>
      </trkpt>
      <trkpt lat="45.63379" lon="6.04252">
        <ele>1754</ele>
        <time>2014-02-11T20:38:20.1Z</time>
      </trkpt>
      <trkpt lat="45.63378" lon="6.0425">
        <ele>1754</ele>
        <time>2014-02-11T20:38:22.1Z</time>
      </trkpt>
      <trkpt lat="45.63376" lon="6.04247">
        <ele>1755</ele>
        <time>2014-02-11T20:38:25.1Z</time>
      </trkpt>
      <trkpt lat="45.63376" lon="6.04244">
        <ele>1755</ele>
        <time>2014-02-11T20:38:27.1Z</time>
      </trkpt>
      <trkpt lat="45.63374" lon="6.04242">
        <ele>1756</ele>
        <time>2014-02-11T20:38:30.1Z</time>
      </trkpt>
      <trkpt lat="45.63374" lon="6.04239">
        <ele>1756</ele>
        <time>2014-02-11T20:38:32.1Z</time>
      </trkpt>
      <trkpt lat="45.63373" lon="6.04236">
        <ele>1756</ele>
        <time>2014-02-11T20:38:35.1Z</time>
      </trkpt>
      <trkpt lat="45.63372" lon="6.04232">
        <ele>1756</ele>
        <time>2014-02-11T20:38:38.1Z</time>
      </trkpt>
      <trkpt lat="45.63372" lon="6.04229">
        <ele>1757</ele>
        <time>2014-02-11T20:38:41.1Z</time>
      </trkpt>
      <trkpt lat="45.63372" lon="6.04227">
        <ele>1757</ele>
        <time>2014-02-11T20:38:43.1Z</time>
      </trkpt>
      <trkpt lat="45.63371" lon="6.04224">
        <ele>1758</ele>
        <time>2014-02-11T20:38:46.1Z</time>
      </trkpt>
      <trkpt lat="45.63369" lon="6.04221">
        <ele>1758</ele>
        <time>2014-02-11T20:38:49.1Z</time>
      </trkpt>
      <trkpt lat="45.63369" lon="6.04219">
        <ele>1759</ele>
        <time>2014-02-11T20:38:52.1Z</time>
      </trkpt>
      <trkpt lat="45.63367" lon="6.04216">
        <ele>1759</ele>
        <time>2014-02-11T20:38:55.1Z</time>
      </trkpt>
      <trkpt lat="45.63366" lon="6.04214">
        <ele>1760</ele>
        <time>2014-02-11T20:38:58.1Z</time>
      </trkpt>
      <trkpt lat="45.63366" lon="6.04213">
        <ele>1760</ele>
        <time>2014-02-11T20:39:00.1Z</time>
      </trkpt>
      <trkpt lat="45.63366" lon="6.04211">
        <ele>1761</ele>
        <time>2014-02-11T20:39:03.1Z</time>
      </trkpt>
      <trkpt lat="45.63365" lon="6.04208">
        <ele>1761</ele>
        <time>2014-02-11T20:39:06.1Z</time>
      </trkpt>
      <trkpt lat="45.63365" lon="6.04204">
        <ele>1761</ele>
        <time>2014-02-11T20:39:09.1Z</time>
      </trkpt>
      <trkpt lat="45.63365" lon="6.04202">
        <ele>1762</ele>
        <time>2014-02-11T20:39:11.1Z</time>
      </trkpt>
      <trkpt lat="45.63365" lon="6.04201">
        <ele>1763</ele>
        <time>2014-02-11T20:39:13.1Z</time>
      </trkpt>
      <trkpt lat="45.63364" lon="6.04199">
        <ele>1764</ele>
        <time>2014-02-11T20:39:16.1Z</time>
      </trkpt>
      <trkpt lat="45.63363" lon="6.04196">
        <ele>1765</ele>
        <time>2014-02-11T20:39:19.1Z</time>
      </trkpt>
      <trkpt lat="45.63361" lon="6.04193">
        <ele>1766</ele>
        <time>2014-02-11T20:39:22.1Z</time>
      </trkpt>
      <trkpt lat="45.63361" lon="6.04191">
        <ele>1766</ele>
        <time>2014-02-11T20:39:25.1Z</time>
      </trkpt>
      <trkpt lat="45.6336" lon="6.04189">
        <ele>1766</ele>
        <time>2014-02-11T20:39:27.1Z</time>
      </trkpt>
      <trkpt lat="45.6336" lon="6.04186">
        <ele>1767</ele>
        <time>2014-02-11T20:39:30.1Z</time>
      </trkpt>
      <trkpt lat="45.63359" lon="6.04185">
        <ele>1767</ele>
        <time>2014-02-11T20:39:32.1Z</time>
      </trkpt>
      <trkpt lat="45.63359" lon="6.04181">
        <ele>1767</ele>
        <time>2014-02-11T20:39:35.1Z</time>
      </trkpt>
      <trkpt lat="45.63359" lon="6.04179">
        <ele>1768</ele>
        <time>2014-02-11T20:39:37.1Z</time>
      </trkpt>
      <trkpt lat="45.63359" lon="6.04176">
        <ele>1768</ele>
        <time>2014-02-11T20:39:40.1Z</time>
      </trkpt>
      <trkpt lat="45.63359" lon="6.04173">
        <ele>1769</ele>
        <time>2014-02-11T20:39:43.1Z</time>
      </trkpt>
      <trkpt lat="45.63359" lon="6.04171">
        <ele>1769</ele>
        <time>2014-02-11T20:39:45.1Z</time>
      </trkpt>
      <trkpt lat="45.63359" lon="6.04169">
        <ele>1769</ele>
        <time>2014-02-11T20:39:47.1Z</time>
      </trkpt>
      <trkpt lat="45.63359" lon="6.04166">
        <ele>1770</ele>
        <time>2014-02-11T20:39:50.1Z</time>
      </trkpt>
      <trkpt lat="45.6336" lon="6.04163">
        <ele>1770</ele>
        <time>2014-02-11T20:39:53.1Z</time>
      </trkpt>
      <trkpt lat="45.63361" lon="6.04161">
        <ele>1771</ele>
        <time>2014-02-11T20:39:55.1Z</time>
      </trkpt>
      <trkpt lat="45.63361" lon="6.04158">
        <ele>1770</ele>
        <time>2014-02-11T20:39:58.1Z</time>
      </trkpt>
      <trkpt lat="45.63361" lon="6.04156">
        <ele>1771</ele>
        <time>2014-02-11T20:40:00.1Z</time>
      </trkpt>
      <trkpt lat="45.6336" lon="6.04154">
        <ele>1771</ele>
        <time>2014-02-11T20:40:03.1Z</time>
      </trkpt>
      <trkpt lat="45.6336" lon="6.04152">
        <ele>1771</ele>
        <time>2014-02-11T20:40:05.1Z</time>
      </trkpt>
      <trkpt lat="45.6336" lon="6.0415">
        <ele>1770</ele>
        <time>2014-02-11T20:40:08.1Z</time>
      </trkpt>
      <trkpt lat="45.6336" lon="6.04148">
        <ele>1771</ele>
        <time>2014-02-11T20:40:11.1Z</time>
      </trkpt>
      <trkpt lat="45.6336" lon="6.04145">
        <ele>1771</ele>
        <time>2014-02-11T20:40:14.1Z</time>
      </trkpt>
      <trkpt lat="45.6336" lon="6.04144">
        <ele>1771</ele>
        <time>2014-02-11T20:40:17.1Z</time>
      </trkpt>
      <trkpt lat="45.63359" lon="6.04144">
        <ele>1771</ele>
        <time>2014-02-11T20:40:20.1Z</time>
      </trkpt>
      <trkpt lat="45.63359" lon="6.04143">
        <ele>1771</ele>
        <time>2014-02-11T20:40:22.1Z</time>
      </trkpt>
      <trkpt lat="45.63358" lon="6.04142">
        <ele>1770</ele>
        <time>2014-02-11T20:40:24.1Z</time>
      </trkpt>
      <trkpt lat="45.63358" lon="6.04141">
        <ele>1770</ele>
        <time>2014-02-11T20:40:27.1Z</time>
      </trkpt>
      <trkpt lat="45.63358" lon="6.04141">
        <ele>1770</ele>
        <time>2014-02-11T20:40:29.1Z</time>
      </trkpt>
      <trkpt lat="45.63356" lon="6.04142">
        <ele>1769</ele>
        <time>2014-02-11T20:40:32.1Z</time>
      </trkpt>
      <trkpt lat="45.63355" lon="6.04141">
        <ele>1769</ele>
        <time>2014-02-11T20:40:34.1Z</time>
      </trkpt>
      <trkpt lat="45.63355" lon="6.04141">
        <ele>1771</ele>
        <time>2014-02-11T20:40:37.1Z</time>
      </trkpt>
      <trkpt lat="45.63355" lon="6.04141">
        <ele>1772</ele>
        <time>2014-02-11T20:40:40.1Z</time>
      </trkpt>
      <trkpt lat="45.63355" lon="6.04141">
        <ele>1772</ele>
        <time>2014-02-11T20:40:42.1Z</time>
      </trkpt>
      <trkpt lat="45.63355" lon="6.04141">
        <ele>1772</ele>
        <time>2014-02-11T20:40:45.1Z</time>
      </trkpt>
      <trkpt lat="45.63356" lon="6.04141">
        <ele>1772</ele>
        <time>2014-02-11T20:40:47.1Z</time>
      </trkpt>
      <trkpt lat="45.63356" lon="6.04142">
        <ele>1772</ele>
        <time>2014-02-11T20:40:50.1Z</time>
      </trkpt>
      <trkpt lat="45.63356" lon="6.04141">
        <ele>1772</ele>
        <time>2014-02-11T20:40:52.1Z</time>
      </trkpt>
      <trkpt lat="45.63356" lon="6.04141">
        <ele>1771</ele>
        <time>2014-02-11T20:40:55.1Z</time>
      </trkpt>
      <trkpt lat="45.63356" lon="6.04141">
        <ele>1772</ele>
        <time>2014-02-11T20:40:57.1Z</time>
      </trkpt>
      <trkpt lat="45.63356" lon="6.04141">
        <ele>1772</ele>
        <time>2014-02-11T20:41:00.1Z</time>
      </trkpt>
      <trkpt lat="45.63356" lon="6.04141">
        <ele>1772</ele>
        <time>2014-02-11T20:41:03.1Z</time>
      </trkpt>
      <trkpt lat="45.63357" lon="6.04141">
        <ele>1771</ele>
        <time>2014-02-11T20:41:05.1Z</time>
      </trkpt>
      <trkpt lat="45.63356" lon="6.04141">
        <ele>1771</ele>
        <time>2014-02-11T20:41:08.1Z</time>
      </trkpt>
      <trkpt lat="45.63356" lon="6.04141">
        <ele>1771</ele>
        <time>2014-02-11T20:41:11.1Z</time>
      </trkpt>
      <trkpt lat="45.63356" lon="6.04141">
        <ele>1771</ele>
        <time>2014-02-11T20:41:14.1Z</time>
      </trkpt>
      <trkpt lat="45.63356" lon="6.04141">
        <ele>1771</ele>
        <time>2014-02-11T20:41:18.1Z</time>
      </trkpt>
      <trkpt lat="45.63356" lon="6.04141">
        <ele>1771</ele>
        <time>2014-02-11T20:41:21.1Z</time>
      </trkpt>
      <trkpt lat="45.63356" lon="6.04141">
        <ele>1772</ele>
        <time>2014-02-11T20:41:24.1Z</time>
      </trkpt>
      <trkpt lat="45.63356" lon="6.04141">
        <ele>1772</ele>
        <time>2014-02-11T20:41:29.1Z</time>
      </trkpt>
      <trkpt lat="45.63355" lon="6.04141">
        <ele>1771</ele>
        <time>2014-02-11T20:41:32.1Z</time>
      </trkpt>
      <trkpt lat="45.63355" lon="6.04141">
        <ele>1771</ele>
        <time>2014-02-11T20:41:35.1Z</time>
      </trkpt>
      <trkpt lat="45.63354" lon="6.0414">
        <ele>1771</ele>
        <time>2014-02-11T20:41:37.1Z</time>
      </trkpt>
      <trkpt lat="45.63354" lon="6.0414">
        <ele>1771</ele>
        <time>2014-02-11T20:41:41.1Z</time>
      </trkpt>
      <trkpt lat="45.63354" lon="6.04139">
        <ele>1771</ele>
        <time>2014-02-11T20:41:44.1Z</time>
      </trkpt>
      <trkpt lat="45.63354" lon="6.0414">
        <ele>1771</ele>
        <time>2014-02-11T20:41:46.1Z</time>
      </trkpt>
      <trkpt lat="45.63354" lon="6.04139">
        <ele>1771</ele>
        <time>2014-02-11T20:41:49.1Z</time>
      </trkpt>
      <trkpt lat="45.63354" lon="6.0414">
        <ele>1772</ele>
        <time>2014-02-11T20:41:53.1Z</time>
      </trkpt>
      <trkpt lat="45.63354" lon="6.0414">
        <ele>1771</ele>
        <time>2014-02-11T20:41:55.1Z</time>
      </trkpt>
      <trkpt lat="45.63355" lon="6.0414">
        <ele>1771</ele>
        <time>2014-02-11T20:41:57.1Z</time>
      </trkpt>
      <trkpt lat="45.63355" lon="6.0414">
        <ele>1771</ele>
        <time>2014-02-11T20:42:00.1Z</time>
      </trkpt>
      <trkpt lat="45.63354" lon="6.04138">
        <ele>1771</ele>
        <time>2014-02-11T20:42:03.1Z</time>
      </trkpt>
      <trkpt lat="45.63354" lon="6.04137">
        <ele>1771</ele>
        <time>2014-02-11T20:42:05.1Z</time>
      </trkpt>
      <trkpt lat="45.63354" lon="6.04134">
        <ele>1771</ele>
        <time>2014-02-11T20:42:08.1Z</time>
      </trkpt>
      <trkpt lat="45.63353" lon="6.04132">
        <ele>1771</ele>
        <time>2014-02-11T20:42:10.1Z</time>
      </trkpt>
      <trkpt lat="45.63353" lon="6.04129">
        <ele>1771</ele>
        <time>2014-02-11T20:42:13.1Z</time>
      </trkpt>
      <trkpt lat="45.63352" lon="6.04126">
        <ele>1771</ele>
        <time>2014-02-11T20:42:16.1Z</time>
      </trkpt>
      <trkpt lat="45.63351" lon="6.04122">
        <ele>1772</ele>
        <time>2014-02-11T20:42:19.1Z</time>
      </trkpt>
      <trkpt lat="45.63351" lon="6.0412">
        <ele>1772</ele>
        <time>2014-02-11T20:42:21.1Z</time>
      </trkpt>
      <trkpt lat="45.63351" lon="6.04118">
        <ele>1772</ele>
        <time>2014-02-11T20:42:23.1Z</time>
      </trkpt>
      <trkpt lat="45.63351" lon="6.04117">
        <ele>1773</ele>
        <time>2014-02-11T20:42:26.1Z</time>
      </trkpt>
      <trkpt lat="45.63351" lon="6.04117">
        <ele>1773</ele>
        <time>2014-02-11T20:42:28.1Z</time>
      </trkpt>
      <trkpt lat="45.63352" lon="6.04116">
        <ele>1773</ele>
        <time>2014-02-11T20:42:31.1Z</time>
      </trkpt>
      <trkpt lat="45.63352" lon="6.04113">
        <ele>1773</ele>
        <time>2014-02-11T20:42:34.1Z</time>
      </trkpt>
      <trkpt lat="45.63353" lon="6.0411">
        <ele>1772</ele>
        <time>2014-02-11T20:42:36.1Z</time>
      </trkpt>
      <trkpt lat="45.63353" lon="6.04108">
        <ele>1772</ele>
        <time>2014-02-11T20:42:38.1Z</time>
      </trkpt>
      <trkpt lat="45.63353" lon="6.04106">
        <ele>1772</ele>
        <time>2014-02-11T20:42:41.1Z</time>
      </trkpt>
      <trkpt lat="45.63353" lon="6.04104">
        <ele>1772</ele>
        <time>2014-02-11T20:42:43.1Z</time>
      </trkpt>
      <trkpt lat="45.63353" lon="6.04103">
        <ele>1773</ele>
        <time>2014-02-11T20:42:45.1Z</time>
      </trkpt>
      <trkpt lat="45.63353" lon="6.041">
        <ele>1773</ele>
        <time>2014-02-11T20:42:48.1Z</time>
      </trkpt>
      <trkpt lat="45.63353" lon="6.04097">
        <ele>1774</ele>
        <time>2014-02-11T20:42:50.1Z</time>
      </trkpt>
      <trkpt lat="45.63354" lon="6.04095">
        <ele>1773</ele>
        <time>2014-02-11T20:42:52.1Z</time>
      </trkpt>
      <trkpt lat="45.63355" lon="6.04092">
        <ele>1773</ele>
        <time>2014-02-11T20:42:55.1Z</time>
      </trkpt>
      <trkpt lat="45.63356" lon="6.04088">
        <ele>1773</ele>
        <time>2014-02-11T20:42:58.1Z</time>
      </trkpt>
      <trkpt lat="45.63357" lon="6.04086">
        <ele>1774</ele>
        <time>2014-02-11T20:43:00.1Z</time>
      </trkpt>
      <trkpt lat="45.63358" lon="6.04083">
        <ele>1774</ele>
        <time>2014-02-11T20:43:03.1Z</time>
      </trkpt>
      <trkpt lat="45.63358" lon="6.04081">
        <ele>1774</ele>
        <time>2014-02-11T20:43:05.1Z</time>
      </trkpt>
      <trkpt lat="45.63359" lon="6.04077">
        <ele>1773</ele>
        <time>2014-02-11T20:43:08.1Z</time>
      </trkpt>
      <trkpt lat="45.6336" lon="6.04074">
        <ele>1774</ele>
        <time>2014-02-11T20:43:11.1Z</time>
      </trkpt>
      <trkpt lat="45.63361" lon="6.04072">
        <ele>1774</ele>
        <time>2014-02-11T20:43:13.1Z</time>
      </trkpt>
      <trkpt lat="45.63363" lon="6.04069">
        <ele>1775</ele>
        <time>2014-02-11T20:43:16.1Z</time>
      </trkpt>
      <trkpt lat="45.63364" lon="6.04066">
        <ele>1775</ele>
        <time>2014-02-11T20:43:19.1Z</time>
      </trkpt>
      <trkpt lat="45.63366" lon="6.04063">
        <ele>1775</ele>
        <time>2014-02-11T20:43:22.1Z</time>
      </trkpt>
      <trkpt lat="45.63368" lon="6.04061">
        <ele>1776</ele>
        <time>2014-02-11T20:43:25.1Z</time>
      </trkpt>
      <trkpt lat="45.63369" lon="6.04059">
        <ele>1776</ele>
        <time>2014-02-11T20:43:28.1Z</time>
      </trkpt>
      <trkpt lat="45.6337" lon="6.04057">
        <ele>1777</ele>
        <time>2014-02-11T20:43:30.1Z</time>
      </trkpt>
      <trkpt lat="45.63371" lon="6.04055">
        <ele>1777</ele>
        <time>2014-02-11T20:43:33.1Z</time>
      </trkpt>
      <trkpt lat="45.63371" lon="6.04053">
        <ele>1777</ele>
        <time>2014-02-11T20:43:36.1Z</time>
      </trkpt>
      <trkpt lat="45.63372" lon="6.04052">
        <ele>1778</ele>
        <time>2014-02-11T20:43:38.1Z</time>
      </trkpt>
      <trkpt lat="45.63373" lon="6.04049">
        <ele>1778</ele>
        <time>2014-02-11T20:43:41.1Z</time>
      </trkpt>
      <trkpt lat="45.63374" lon="6.04049">
        <ele>1779</ele>
        <time>2014-02-11T20:43:43.1Z</time>
      </trkpt>
      <trkpt lat="45.63374" lon="6.04047">
        <ele>1779</ele>
        <time>2014-02-11T20:43:45.1Z</time>
      </trkpt>
      <trkpt lat="45.63375" lon="6.04045">
        <ele>1779</ele>
        <time>2014-02-11T20:43:48.1Z</time>
      </trkpt>
      <trkpt lat="45.63375" lon="6.04042">
        <ele>1779</ele>
        <time>2014-02-11T20:43:51.1Z</time>
      </trkpt>
      <trkpt lat="45.63376" lon="6.04039">
        <ele>1780</ele>
        <time>2014-02-11T20:43:54.1Z</time>
      </trkpt>
      <trkpt lat="45.63377" lon="6.04038">
        <ele>1781</ele>
        <time>2014-02-11T20:43:56.1Z</time>
      </trkpt>
      <trkpt lat="45.63377" lon="6.04036">
        <ele>1781</ele>
        <time>2014-02-11T20:43:58.1Z</time>
      </trkpt>
      <trkpt lat="45.63379" lon="6.04033">
        <ele>1782</ele>
        <time>2014-02-11T20:44:01.1Z</time>
      </trkpt>
      <trkpt lat="45.63379" lon="6.04031">
        <ele>1783</ele>
        <time>2014-02-11T20:44:04.1Z</time>
      </trkpt>
      <trkpt lat="45.6338" lon="6.04028">
        <ele>1783</ele>
        <time>2014-02-11T20:44:07.1Z</time>
      </trkpt>
      <trkpt lat="45.6338" lon="6.04027">
        <ele>1783</ele>
        <time>2014-02-11T20:44:09.1Z</time>
      </trkpt>
      <trkpt lat="45.63381" lon="6.04024">
        <ele>1784</ele>
        <time>2014-02-11T20:44:12.1Z</time>
      </trkpt>
      <trkpt lat="45.63382" lon="6.04022">
        <ele>1784</ele>
        <time>2014-02-11T20:44:15.1Z</time>
      </trkpt>
      <trkpt lat="45.63383" lon="6.04019">
        <ele>1784</ele>
        <time>2014-02-11T20:44:17.1Z</time>
      </trkpt>
      <trkpt lat="45.63384" lon="6.04017">
        <ele>1785</ele>
        <time>2014-02-11T20:44:20.1Z</time>
      </trkpt>
      <trkpt lat="45.63384" lon="6.04014">
        <ele>1785</ele>
        <time>2014-02-11T20:44:22.1Z</time>
      </trkpt>
      <trkpt lat="45.63385" lon="6.04011">
        <ele>1786</ele>
        <time>2014-02-11T20:44:25.1Z</time>
      </trkpt>
      <trkpt lat="45.63386" lon="6.04009">
        <ele>1786</ele>
        <time>2014-02-11T20:44:27.1Z</time>
      </trkpt>
      <trkpt lat="45.63387" lon="6.04005">
        <ele>1786</ele>
        <time>2014-02-11T20:44:30.1Z</time>
      </trkpt>
      <trkpt lat="45.63388" lon="6.04002">
        <ele>1787</ele>
        <time>2014-02-11T20:44:33.1Z</time>
      </trkpt>
      <trkpt lat="45.63388" lon="6.04">
        <ele>1787</ele>
        <time>2014-02-11T20:44:35.1Z</time>
      </trkpt>
      <trkpt lat="45.63389" lon="6.03997">
        <ele>1788</ele>
        <time>2014-02-11T20:44:38.1Z</time>
      </trkpt>
      <trkpt lat="45.63389" lon="6.03995">
        <ele>1788</ele>
        <time>2014-02-11T20:44:40.1Z</time>
      </trkpt>
      <trkpt lat="45.63389" lon="6.03992">
        <ele>1788</ele>
        <time>2014-02-11T20:44:42.1Z</time>
      </trkpt>
      <trkpt lat="45.63389" lon="6.03989">
        <ele>1789</ele>
        <time>2014-02-11T20:44:45.1Z</time>
      </trkpt>
      <trkpt lat="45.63389" lon="6.03987">
        <ele>1789</ele>
        <time>2014-02-11T20:44:47.1Z</time>
      </trkpt>
      <trkpt lat="45.6339" lon="6.03984">
        <ele>1790</ele>
        <time>2014-02-11T20:44:50.1Z</time>
      </trkpt>
      <trkpt lat="45.6339" lon="6.03981">
        <ele>1790</ele>
        <time>2014-02-11T20:44:53.1Z</time>
      </trkpt>
      <trkpt lat="45.6339" lon="6.03979">
        <ele>1791</ele>
        <time>2014-02-11T20:44:55.1Z</time>
      </trkpt>
      <trkpt lat="45.6339" lon="6.03976">
        <ele>1791</ele>
        <time>2014-02-11T20:44:58.1Z</time>
      </trkpt>
      <trkpt lat="45.6339" lon="6.03975">
        <ele>1791</ele>
        <time>2014-02-11T20:45:00.1Z</time>
      </trkpt>
      <trkpt lat="45.6339" lon="6.03972">
        <ele>1792</ele>
        <time>2014-02-11T20:45:03.1Z</time>
      </trkpt>
      <trkpt lat="45.6339" lon="6.0397">
        <ele>1792</ele>
        <time>2014-02-11T20:45:05.1Z</time>
      </trkpt>
      <trkpt lat="45.6339" lon="6.03968">
        <ele>1792</ele>
        <time>2014-02-11T20:45:08.1Z</time>
      </trkpt>
      <trkpt lat="45.6339" lon="6.03966">
        <ele>1793</ele>
        <time>2014-02-11T20:45:11.1Z</time>
      </trkpt>
      <trkpt lat="45.6339" lon="6.03963">
        <ele>1793</ele>
        <time>2014-02-11T20:45:14.1Z</time>
      </trkpt>
      <trkpt lat="45.63389" lon="6.03961">
        <ele>1794</ele>
        <time>2014-02-11T20:45:16.1Z</time>
      </trkpt>
      <trkpt lat="45.63389" lon="6.03957">
        <ele>1795</ele>
        <time>2014-02-11T20:45:19.1Z</time>
      </trkpt>
      <trkpt lat="45.63389" lon="6.03956">
        <ele>1795</ele>
        <time>2014-02-11T20:45:21.1Z</time>
      </trkpt>
      <trkpt lat="45.63388" lon="6.03952">
        <ele>1795</ele>
        <time>2014-02-11T20:45:24.1Z</time>
      </trkpt>
      <trkpt lat="45.63388" lon="6.03949">
        <ele>1796</ele>
        <time>2014-02-11T20:45:27.1Z</time>
      </trkpt>
      <trkpt lat="45.63387" lon="6.03948">
        <ele>1796</ele>
        <time>2014-02-11T20:45:29.1Z</time>
      </trkpt>
      <trkpt lat="45.63388" lon="6.03946">
        <ele>1796</ele>
        <time>2014-02-11T20:45:32.1Z</time>
      </trkpt>
      <trkpt lat="45.63387" lon="6.03944">
        <ele>1796</ele>
        <time>2014-02-11T20:45:35.1Z</time>
      </trkpt>
      <trkpt lat="45.63387" lon="6.03941">
        <ele>1796</ele>
        <time>2014-02-11T20:45:38.1Z</time>
      </trkpt>
      <trkpt lat="45.63386" lon="6.03938">
        <ele>1797</ele>
        <time>2014-02-11T20:45:41.1Z</time>
      </trkpt>
      <trkpt lat="45.63386" lon="6.03936">
        <ele>1798</ele>
        <time>2014-02-11T20:45:43.1Z</time>
      </trkpt>
      <trkpt lat="45.63386" lon="6.03934">
        <ele>1799</ele>
        <time>2014-02-11T20:45:45.1Z</time>
      </trkpt>
      <trkpt lat="45.63385" lon="6.03931">
        <ele>1799</ele>
        <time>2014-02-11T20:45:48.1Z</time>
      </trkpt>
      <trkpt lat="45.63384" lon="6.03929">
        <ele>1799</ele>
        <time>2014-02-11T20:45:51.1Z</time>
      </trkpt>
      <trkpt lat="45.63384" lon="6.03927">
        <ele>1799</ele>
        <time>2014-02-11T20:45:53.1Z</time>
      </trkpt>
      <trkpt lat="45.63383" lon="6.03925">
        <ele>1799</ele>
        <time>2014-02-11T20:45:56.1Z</time>
      </trkpt>
      <trkpt lat="45.63382" lon="6.03924">
        <ele>1800</ele>
        <time>2014-02-11T20:45:58.1Z</time>
      </trkpt>
      <trkpt lat="45.63381" lon="6.03922">
        <ele>1801</ele>
        <time>2014-02-11T20:46:01.1Z</time>
      </trkpt>
      <trkpt lat="45.6338" lon="6.03919">
        <ele>1801</ele>
        <time>2014-02-11T20:46:04.1Z</time>
      </trkpt>
      <trkpt lat="45.63379" lon="6.03916">
        <ele>1801</ele>
        <time>2014-02-11T20:46:07.1Z</time>
      </trkpt>
      <trkpt lat="45.63377" lon="6.03914">
        <ele>1802</ele>
        <time>2014-02-11T20:46:10.1Z</time>
      </trkpt>
      <trkpt lat="45.63375" lon="6.03912">
        <ele>1802</ele>
        <time>2014-02-11T20:46:13.1Z</time>
      </trkpt>
      <trkpt lat="45.63374" lon="6.03911">
        <ele>1802</ele>
        <time>2014-02-11T20:46:15.1Z</time>
      </trkpt>
      <trkpt lat="45.63372" lon="6.03909">
        <ele>1802</ele>
        <time>2014-02-11T20:46:18.1Z</time>
      </trkpt>
      <trkpt lat="45.6337" lon="6.03907">
        <ele>1802</ele>
        <time>2014-02-11T20:46:21.1Z</time>
      </trkpt>
      <trkpt lat="45.63368" lon="6.03906">
        <ele>1803</ele>
        <time>2014-02-11T20:46:24.1Z</time>
      </trkpt>
      <trkpt lat="45.63367" lon="6.03905">
        <ele>1804</ele>
        <time>2014-02-11T20:46:26.1Z</time>
      </trkpt>
      <trkpt lat="45.63365" lon="6.03904">
        <ele>1803</ele>
        <time>2014-02-11T20:46:29.1Z</time>
      </trkpt>
      <trkpt lat="45.63363" lon="6.03902">
        <ele>1804</ele>
        <time>2014-02-11T20:46:32.1Z</time>
      </trkpt>
      <trkpt lat="45.63361" lon="6.03901">
        <ele>1805</ele>
        <time>2014-02-11T20:46:34.1Z</time>
      </trkpt>
      <trkpt lat="45.63359" lon="6.03899">
        <ele>1805</ele>
        <time>2014-02-11T20:46:37.1Z</time>
      </trkpt>
      <trkpt lat="45.63356" lon="6.03898">
        <ele>1806</ele>
        <time>2014-02-11T20:46:40.1Z</time>
      </trkpt>
      <trkpt lat="45.63353" lon="6.03896">
        <ele>1806</ele>
        <time>2014-02-11T20:46:43.1Z</time>
      </trkpt>
      <trkpt lat="45.63351" lon="6.03895">
        <ele>1807</ele>
        <time>2014-02-11T20:46:46.1Z</time>
      </trkpt>
      <trkpt lat="45.63349" lon="6.03894">
        <ele>1806</ele>
        <time>2014-02-11T20:46:48.1Z</time>
      </trkpt>
      <trkpt lat="45.63346" lon="6.03893">
        <ele>1807</ele>
        <time>2014-02-11T20:46:51.1Z</time>
      </trkpt>
      <trkpt lat="45.63344" lon="6.03892">
        <ele>1807</ele>
        <time>2014-02-11T20:46:53.1Z</time>
      </trkpt>
      <trkpt lat="45.63341" lon="6.03891">
        <ele>1807</ele>
        <time>2014-02-11T20:46:56.1Z</time>
      </trkpt>
      <trkpt lat="45.63339" lon="6.03891">
        <ele>1807</ele>
        <time>2014-02-11T20:46:58.1Z</time>
      </trkpt>
      <trkpt lat="45.63336" lon="6.0389">
        <ele>1808</ele>
        <time>2014-02-11T20:47:01.1Z</time>
      </trkpt>
      <trkpt lat="45.63334" lon="6.0389">
        <ele>1808</ele>
        <time>2014-02-11T20:47:03.1Z</time>
      </trkpt>
      <trkpt lat="45.63332" lon="6.03889">
        <ele>1809</ele>
        <time>2014-02-11T20:47:06.1Z</time>
      </trkpt>
      <trkpt lat="45.63329" lon="6.03888">
        <ele>1808</ele>
        <time>2014-02-11T20:47:09.1Z</time>
      </trkpt>
      <trkpt lat="45.63327" lon="6.03888">
        <ele>1809</ele>
        <time>2014-02-11T20:47:12.1Z</time>
      </trkpt>
      <trkpt lat="45.63325" lon="6.03887">
        <ele>1809</ele>
        <time>2014-02-11T20:47:14.1Z</time>
      </trkpt>
      <trkpt lat="45.63323" lon="6.03886">
        <ele>1809</ele>
        <time>2014-02-11T20:47:17.1Z</time>
      </trkpt>
      <trkpt lat="45.63321" lon="6.03885">
        <ele>1810</ele>
        <time>2014-02-11T20:47:19.1Z</time>
      </trkpt>
      <trkpt lat="45.6332" lon="6.03884">
        <ele>1810</ele>
        <time>2014-02-11T20:47:21.1Z</time>
      </trkpt>
      <trkpt lat="45.63318" lon="6.03883">
        <ele>1810</ele>
        <time>2014-02-11T20:47:23.1Z</time>
      </trkpt>
      <trkpt lat="45.63316" lon="6.03882">
        <ele>1811</ele>
        <time>2014-02-11T20:47:26.1Z</time>
      </trkpt>
      <trkpt lat="45.63313" lon="6.03882">
        <ele>1810</ele>
        <time>2014-02-11T20:47:29.1Z</time>
      </trkpt>
      <trkpt lat="45.63311" lon="6.03881">
        <ele>1811</ele>
        <time>2014-02-11T20:47:31.1Z</time>
      </trkpt>
      <trkpt lat="45.63309" lon="6.0388">
        <ele>1811</ele>
        <time>2014-02-11T20:47:34.1Z</time>
      </trkpt>
      <trkpt lat="45.63306" lon="6.03879">
        <ele>1812</ele>
        <time>2014-02-11T20:47:37.1Z</time>
      </trkpt>
      <trkpt lat="45.63303" lon="6.03878">
        <ele>1813</ele>
        <time>2014-02-11T20:47:40.1Z</time>
      </trkpt>
      <trkpt lat="45.63301" lon="6.03877">
        <ele>1813</ele>
        <time>2014-02-11T20:47:42.1Z</time>
      </trkpt>
      <trkpt lat="45.63299" lon="6.03876">
        <ele>1813</ele>
        <time>2014-02-11T20:47:45.1Z</time>
      </trkpt>
      <trkpt lat="45.63297" lon="6.03876">
        <ele>1813</ele>
        <time>2014-02-11T20:47:47.1Z</time>
      </trkpt>
      <trkpt lat="45.63294" lon="6.03875">
        <ele>1814</ele>
        <time>2014-02-11T20:47:50.1Z</time>
      </trkpt>
      <trkpt lat="45.63292" lon="6.03875">
        <ele>1814</ele>
        <time>2014-02-11T20:47:53.1Z</time>
      </trkpt>
      <trkpt lat="45.63289" lon="6.03874">
        <ele>1814</ele>
        <time>2014-02-11T20:47:56.1Z</time>
      </trkpt>
      <trkpt lat="45.63287" lon="6.03874">
        <ele>1815</ele>
        <time>2014-02-11T20:47:59.1Z</time>
      </trkpt>
      <trkpt lat="45.63285" lon="6.03873">
        <ele>1815</ele>
        <time>2014-02-11T20:48:01.1Z</time>
      </trkpt>
      <trkpt lat="45.63282" lon="6.03872">
        <ele>1815</ele>
        <time>2014-02-11T20:48:04.1Z</time>
      </trkpt>
      <trkpt lat="45.6328" lon="6.03871">
        <ele>1816</ele>
        <time>2014-02-11T20:48:06.1Z</time>
      </trkpt>
      <trkpt lat="45.63278" lon="6.03871">
        <ele>1816</ele>
        <time>2014-02-11T20:48:09.1Z</time>
      </trkpt>
      <trkpt lat="45.63275" lon="6.0387">
        <ele>1817</ele>
        <time>2014-02-11T20:48:12.1Z</time>
      </trkpt>
      <trkpt lat="45.63273" lon="6.03869">
        <ele>1817</ele>
        <time>2014-02-11T20:48:14.1Z</time>
      </trkpt>
      <trkpt lat="45.63272" lon="6.03869">
        <ele>1818</ele>
        <time>2014-02-11T20:48:16.1Z</time>
      </trkpt>
      <trkpt lat="45.6327" lon="6.03868">
        <ele>1818</ele>
        <time>2014-02-11T20:48:19.1Z</time>
      </trkpt>
      <trkpt lat="45.63269" lon="6.03868">
        <ele>1819</ele>
        <time>2014-02-11T20:48:21.1Z</time>
      </trkpt>
      <trkpt lat="45.63267" lon="6.03867">
        <ele>1819</ele>
        <time>2014-02-11T20:48:24.1Z</time>
      </trkpt>
      <trkpt lat="45.63264" lon="6.03866">
        <ele>1819</ele>
        <time>2014-02-11T20:48:27.1Z</time>
      </trkpt>
      <trkpt lat="45.63261" lon="6.03865">
        <ele>1819</ele>
        <time>2014-02-11T20:48:30.1Z</time>
      </trkpt>
      <trkpt lat="45.6326" lon="6.03864">
        <ele>1819</ele>
        <time>2014-02-11T20:48:32.1Z</time>
      </trkpt>
      <trkpt lat="45.63257" lon="6.03863">
        <ele>1820</ele>
        <time>2014-02-11T20:48:35.1Z</time>
      </trkpt>
      <trkpt lat="45.63254" lon="6.03863">
        <ele>1821</ele>
        <time>2014-02-11T20:48:38.1Z</time>
      </trkpt>
      <trkpt lat="45.63252" lon="6.03862">
        <ele>1821</ele>
        <time>2014-02-11T20:48:41.1Z</time>
      </trkpt>
      <trkpt lat="45.6325" lon="6.03862">
        <ele>1821</ele>
        <time>2014-02-11T20:48:43.1Z</time>
      </trkpt>
      <trkpt lat="45.63248" lon="6.03861">
        <ele>1822</ele>
        <time>2014-02-11T20:48:46.1Z</time>
      </trkpt>
      <trkpt lat="45.63246" lon="6.0386">
        <ele>1821</ele>
        <time>2014-02-11T20:48:48.1Z</time>
      </trkpt>
      <trkpt lat="45.63244" lon="6.03859">
        <ele>1822</ele>
        <time>2014-02-11T20:48:51.1Z</time>
      </trkpt>
      <trkpt lat="45.63242" lon="6.03859">
        <ele>1823</ele>
        <time>2014-02-11T20:48:53.1Z</time>
      </trkpt>
      <trkpt lat="45.63241" lon="6.03858">
        <ele>1823</ele>
        <time>2014-02-11T20:48:56.1Z</time>
      </trkpt>
      <trkpt lat="45.63238" lon="6.03857">
        <ele>1823</ele>
        <time>2014-02-11T20:48:59.1Z</time>
      </trkpt>
      <trkpt lat="45.63237" lon="6.03856">
        <ele>1824</ele>
        <time>2014-02-11T20:49:01.1Z</time>
      </trkpt>
      <trkpt lat="45.63234" lon="6.03855">
        <ele>1824</ele>
        <time>2014-02-11T20:49:04.1Z</time>
      </trkpt>
      <trkpt lat="45.63232" lon="6.03854">
        <ele>1825</ele>
        <time>2014-02-11T20:49:06.1Z</time>
      </trkpt>
      <trkpt lat="45.63229" lon="6.03853">
        <ele>1825</ele>
        <time>2014-02-11T20:49:09.1Z</time>
      </trkpt>
      <trkpt lat="45.63228" lon="6.03852">
        <ele>1825</ele>
        <time>2014-02-11T20:49:11.1Z</time>
      </trkpt>
      <trkpt lat="45.63225" lon="6.0385">
        <ele>1826</ele>
        <time>2014-02-11T20:49:14.1Z</time>
      </trkpt>
      <trkpt lat="45.63224" lon="6.03849">
        <ele>1826</ele>
        <time>2014-02-11T20:49:16.1Z</time>
      </trkpt>
      <trkpt lat="45.63221" lon="6.03847">
        <ele>1827</ele>
        <time>2014-02-11T20:49:19.1Z</time>
      </trkpt>
      <trkpt lat="45.6322" lon="6.03846">
        <ele>1827</ele>
        <time>2014-02-11T20:49:21.1Z</time>
      </trkpt>
      <trkpt lat="45.63218" lon="6.03844">
        <ele>1827</ele>
        <time>2014-02-11T20:49:23.1Z</time>
      </trkpt>
      <trkpt lat="45.63216" lon="6.03842">
        <ele>1827</ele>
        <time>2014-02-11T20:49:26.1Z</time>
      </trkpt>
      <trkpt lat="45.63213" lon="6.0384">
        <ele>1828</ele>
        <time>2014-02-11T20:49:29.1Z</time>
      </trkpt>
      <trkpt lat="45.63212" lon="6.03839">
        <ele>1828</ele>
        <time>2014-02-11T20:49:31.1Z</time>
      </trkpt>
      <trkpt lat="45.6321" lon="6.03838">
        <ele>1828</ele>
        <time>2014-02-11T20:49:34.1Z</time>
      </trkpt>
      <trkpt lat="45.63208" lon="6.03836">
        <ele>1829</ele>
        <time>2014-02-11T20:49:37.1Z</time>
      </trkpt>
      <trkpt lat="45.63206" lon="6.03834">
        <ele>1829</ele>
        <time>2014-02-11T20:49:40.1Z</time>
      </trkpt>
      <trkpt lat="45.63205" lon="6.03833">
        <ele>1829</ele>
        <time>2014-02-11T20:49:42.1Z</time>
      </trkpt>
      <trkpt lat="45.63202" lon="6.03831">
        <ele>1830</ele>
        <time>2014-02-11T20:49:45.1Z</time>
      </trkpt>
      <trkpt lat="45.63201" lon="6.0383">
        <ele>1830</ele>
        <time>2014-02-11T20:49:47.1Z</time>
      </trkpt>
      <trkpt lat="45.63198" lon="6.03828">
        <ele>1830</ele>
        <time>2014-02-11T20:49:49.1Z</time>
      </trkpt>
      <trkpt lat="45.63197" lon="6.03828">
        <ele>1830</ele>
        <time>2014-02-11T20:49:51.1Z</time>
      </trkpt>
      <trkpt lat="45.63194" lon="6.03826">
        <ele>1830</ele>
        <time>2014-02-11T20:49:54.1Z</time>
      </trkpt>
      <trkpt lat="45.63192" lon="6.03825">
        <ele>1831</ele>
        <time>2014-02-11T20:49:57.1Z</time>
      </trkpt>
      <trkpt lat="45.6319" lon="6.03824">
        <ele>1831</ele>
        <time>2014-02-11T20:49:59.1Z</time>
      </trkpt>
      <trkpt lat="45.63188" lon="6.03822">
        <ele>1832</ele>
        <time>2014-02-11T20:50:02.1Z</time>
      </trkpt>
      <trkpt lat="45.63187" lon="6.0382">
        <ele>1832</ele>
        <time>2014-02-11T20:50:04.1Z</time>
      </trkpt>
      <trkpt lat="45.63184" lon="6.03818">
        <ele>1833</ele>
        <time>2014-02-11T20:50:07.1Z</time>
      </trkpt>
      <trkpt lat="45.63182" lon="6.03815">
        <ele>1833</ele>
        <time>2014-02-11T20:50:10.1Z</time>
      </trkpt>
      <trkpt lat="45.63179" lon="6.03812">
        <ele>1834</ele>
        <time>2014-02-11T20:50:13.1Z</time>
      </trkpt>
      <trkpt lat="45.63176" lon="6.0381">
        <ele>1834</ele>
        <time>2014-02-11T20:50:16.1Z</time>
      </trkpt>
      <trkpt lat="45.63173" lon="6.03809">
        <ele>1834</ele>
        <time>2014-02-11T20:50:19.1Z</time>
      </trkpt>
      <trkpt lat="45.63171" lon="6.03807">
        <ele>1834</ele>
        <time>2014-02-11T20:50:21.1Z</time>
      </trkpt>
      <trkpt lat="45.6317" lon="6.03805">
        <ele>1834</ele>
        <time>2014-02-11T20:50:24.1Z</time>
      </trkpt>
      <trkpt lat="45.63168" lon="6.03803">
        <ele>1834</ele>
        <time>2014-02-11T20:50:27.1Z</time>
      </trkpt>
      <trkpt lat="45.63166" lon="6.03801">
        <ele>1835</ele>
        <time>2014-02-11T20:50:29.1Z</time>
      </trkpt>
      <trkpt lat="45.63163" lon="6.03798">
        <ele>1836</ele>
        <time>2014-02-11T20:50:32.1Z</time>
      </trkpt>
      <trkpt lat="45.63162" lon="6.03795">
        <ele>1836</ele>
        <time>2014-02-11T20:50:35.1Z</time>
      </trkpt>
      <trkpt lat="45.6316" lon="6.03792">
        <ele>1835</ele>
        <time>2014-02-11T20:50:38.1Z</time>
      </trkpt>
      <trkpt lat="45.63159" lon="6.0379">
        <ele>1835</ele>
        <time>2014-02-11T20:50:40.1Z</time>
      </trkpt>
      <trkpt lat="45.63158" lon="6.03788">
        <ele>1835</ele>
        <time>2014-02-11T20:50:42.1Z</time>
      </trkpt>
      <trkpt lat="45.63156" lon="6.03785">
        <ele>1835</ele>
        <time>2014-02-11T20:50:45.1Z</time>
      </trkpt>
      <trkpt lat="45.63154" lon="6.03782">
        <ele>1836</ele>
        <time>2014-02-11T20:50:48.1Z</time>
      </trkpt>
      <trkpt lat="45.63153" lon="6.03779">
        <ele>1836</ele>
        <time>2014-02-11T20:50:50.1Z</time>
      </trkpt>
      <trkpt lat="45.63152" lon="6.03776">
        <ele>1837</ele>
        <time>2014-02-11T20:50:53.1Z</time>
      </trkpt>
      <trkpt lat="45.63151" lon="6.03774">
        <ele>1837</ele>
        <time>2014-02-11T20:50:55.1Z</time>
      </trkpt>
      <trkpt lat="45.63151" lon="6.0377">
        <ele>1837</ele>
        <time>2014-02-11T20:50:58.1Z</time>
      </trkpt>
      <trkpt lat="45.63151" lon="6.03766">
        <ele>1836</ele>
        <time>2014-02-11T20:51:01.1Z</time>
      </trkpt>
      <trkpt lat="45.63151" lon="6.03765">
        <ele>1836</ele>
        <time>2014-02-11T20:51:03.1Z</time>
      </trkpt>
      <trkpt lat="45.63151" lon="6.03764">
        <ele>1836</ele>
        <time>2014-02-11T20:51:06.1Z</time>
      </trkpt>
      <trkpt lat="45.63152" lon="6.03765">
        <ele>1835</ele>
        <time>2014-02-11T20:51:08.1Z</time>
      </trkpt>
      <trkpt lat="45.63152" lon="6.03763">
        <ele>1836</ele>
        <time>2014-02-11T20:51:10.1Z</time>
      </trkpt>
      <trkpt lat="45.63152" lon="6.03763">
        <ele>1836</ele>
        <time>2014-02-11T20:51:13.1Z</time>
      </trkpt>
      <trkpt lat="45.63152" lon="6.03763">
        <ele>1837</ele>
        <time>2014-02-11T20:51:15.1Z</time>
      </trkpt>
      <trkpt lat="45.63152" lon="6.03763">
        <ele>1837</ele>
        <time>2014-02-11T20:51:18.1Z</time>
      </trkpt>
      <trkpt lat="45.63152" lon="6.03763">
        <ele>1837</ele>
        <time>2014-02-11T20:51:21.1Z</time>
      </trkpt>
      <trkpt lat="45.63152" lon="6.03762">
        <ele>1837</ele>
        <time>2014-02-11T20:51:24.1Z</time>
      </trkpt>
      <trkpt lat="45.63153" lon="6.03762">
        <ele>1835</ele>
        <time>2014-02-11T20:51:27.1Z</time>
      </trkpt>
      <trkpt lat="45.63153" lon="6.03762">
        <ele>1835</ele>
        <time>2014-02-11T20:51:30.1Z</time>
      </trkpt>
      <trkpt lat="45.63153" lon="6.03762">
        <ele>1836</ele>
        <time>2014-02-11T20:51:33.1Z</time>
      </trkpt>
      <trkpt lat="45.63153" lon="6.03761">
        <ele>1836</ele>
        <time>2014-02-11T20:51:37.1Z</time>
      </trkpt>
      <trkpt lat="45.63153" lon="6.03761">
        <ele>1837</ele>
        <time>2014-02-11T20:51:41.1Z</time>
      </trkpt>
      <trkpt lat="45.63153" lon="6.03761">
        <ele>1837</ele>
        <time>2014-02-11T20:51:44.1Z</time>
      </trkpt>
      <trkpt lat="45.63153" lon="6.03761">
        <ele>1837</ele>
        <time>2014-02-11T20:51:47.1Z</time>
      </trkpt>
      <trkpt lat="45.63153" lon="6.03761">
        <ele>1837</ele>
        <time>2014-02-11T20:51:49.1Z</time>
      </trkpt>
      <trkpt lat="45.63153" lon="6.03762">
        <ele>1837</ele>
        <time>2014-02-11T20:51:54.1Z</time>
      </trkpt>
      <trkpt lat="45.63153" lon="6.03762">
        <ele>1837</ele>
        <time>2014-02-11T20:51:56.1Z</time>
      </trkpt>
      <trkpt lat="45.63153" lon="6.03762">
        <ele>1837</ele>
        <time>2014-02-11T20:51:59.1Z</time>
      </trkpt>
      <trkpt lat="45.63153" lon="6.03762">
        <ele>1836</ele>
        <time>2014-02-11T20:52:01.1Z</time>
      </trkpt>
      <trkpt lat="45.63153" lon="6.03762">
        <ele>1836</ele>
        <time>2014-02-11T20:52:03.1Z</time>
      </trkpt>
      <trkpt lat="45.63153" lon="6.03762">
        <ele>1835</ele>
        <time>2014-02-11T20:52:06.1Z</time>
      </trkpt>
      <trkpt lat="45.63153" lon="6.03762">
        <ele>1836</ele>
        <time>2014-02-11T20:52:09.1Z</time>
      </trkpt>
      <trkpt lat="45.63153" lon="6.03763">
        <ele>1836</ele>
        <time>2014-02-11T20:52:11.1Z</time>
      </trkpt>
      <trkpt lat="45.63153" lon="6.03762">
        <ele>1837</ele>
        <time>2014-02-11T20:52:16.1Z</time>
      </trkpt>
      <trkpt lat="45.63153" lon="6.03762">
        <ele>1837</ele>
        <time>2014-02-11T20:52:18.1Z</time>
      </trkpt>
      <trkpt lat="45.63153" lon="6.03762">
        <ele>1836</ele>
        <time>2014-02-11T20:52:22.1Z</time>
      </trkpt>
      <trkpt lat="45.63153" lon="6.03761">
        <ele>1835</ele>
        <time>2014-02-11T20:52:25.1Z</time>
      </trkpt>
      <trkpt lat="45.63153" lon="6.03759">
        <ele>1835</ele>
        <time>2014-02-11T20:52:27.1Z</time>
      </trkpt>
      <trkpt lat="45.63153" lon="6.03757">
        <ele>1835</ele>
        <time>2014-02-11T20:52:29.1Z</time>
      </trkpt>
      <trkpt lat="45.63153" lon="6.03753">
        <ele>1834</ele>
        <time>2014-02-11T20:52:32.1Z</time>
      </trkpt>
      <trkpt lat="45.63152" lon="6.03749">
        <ele>1834</ele>
        <time>2014-02-11T20:52:35.1Z</time>
      </trkpt>
      <trkpt lat="45.63152" lon="6.03745">
        <ele>1835</ele>
        <time>2014-02-11T20:52:38.1Z</time>
      </trkpt>
      <trkpt lat="45.63152" lon="6.0374">
        <ele>1835</ele>
        <time>2014-02-11T20:52:41.1Z</time>
      </trkpt>
      <trkpt lat="45.63151" lon="6.03736">
        <ele>1835</ele>
        <time>2014-02-11T20:52:44.1Z</time>
      </trkpt>
      <trkpt lat="45.63151" lon="6.03733">
        <ele>1835</ele>
        <time>2014-02-11T20:52:46.1Z</time>
      </trkpt>
      <trkpt lat="45.6315" lon="6.03729">
        <ele>1835</ele>
        <time>2014-02-11T20:52:49.1Z</time>
      </trkpt>
      <trkpt lat="45.63149" lon="6.03726">
        <ele>1834</ele>
        <time>2014-02-11T20:52:51.1Z</time>
      </trkpt>
      <trkpt lat="45.63148" lon="6.03722">
        <ele>1835</ele>
        <time>2014-02-11T20:52:54.1Z</time>
      </trkpt>
      <trkpt lat="45.63147" lon="6.03719">
        <ele>1835</ele>
        <time>2014-02-11T20:52:57.1Z</time>
      </trkpt>
      <trkpt lat="45.63145" lon="6.03714">
        <ele>1835</ele>
        <time>2014-02-11T20:53:00.1Z</time>
      </trkpt>
      <trkpt lat="45.63145" lon="6.03712">
        <ele>1835</ele>
        <time>2014-02-11T20:53:02.1Z</time>
      </trkpt>
      <trkpt lat="45.63143" lon="6.03708">
        <ele>1835</ele>
        <time>2014-02-11T20:53:05.1Z</time>
      </trkpt>
      <trkpt lat="45.63142" lon="6.03706">
        <ele>1836</ele>
        <time>2014-02-11T20:53:07.1Z</time>
      </trkpt>
      <trkpt lat="45.63141" lon="6.03702">
        <ele>1835</ele>
        <time>2014-02-11T20:53:10.1Z</time>
      </trkpt>
      <trkpt lat="45.6314" lon="6.037">
        <ele>1835</ele>
        <time>2014-02-11T20:53:12.1Z</time>
      </trkpt>
      <trkpt lat="45.63138" lon="6.03696">
        <ele>1835</ele>
        <time>2014-02-11T20:53:15.1Z</time>
      </trkpt>
      <trkpt lat="45.63137" lon="6.03694">
        <ele>1836</ele>
        <time>2014-02-11T20:53:17.1Z</time>
      </trkpt>
      <trkpt lat="45.63135" lon="6.0369">
        <ele>1836</ele>
        <time>2014-02-11T20:53:20.1Z</time>
      </trkpt>
      <trkpt lat="45.63133" lon="6.03687">
        <ele>1836</ele>
        <time>2014-02-11T20:53:23.1Z</time>
      </trkpt>
      <trkpt lat="45.63131" lon="6.03684">
        <ele>1836</ele>
        <time>2014-02-11T20:53:26.1Z</time>
      </trkpt>
      <trkpt lat="45.63129" lon="6.0368">
        <ele>1836</ele>
        <time>2014-02-11T20:53:29.1Z</time>
      </trkpt>
      <trkpt lat="45.63128" lon="6.03677">
        <ele>1836</ele>
        <time>2014-02-11T20:53:32.1Z</time>
      </trkpt>
      <trkpt lat="45.63125" lon="6.03673">
        <ele>1836</ele>
        <time>2014-02-11T20:53:35.1Z</time>
      </trkpt>
      <trkpt lat="45.63124" lon="6.03671">
        <ele>1836</ele>
        <time>2014-02-11T20:53:37.1Z</time>
      </trkpt>
      <trkpt lat="45.63122" lon="6.03668">
        <ele>1837</ele>
        <time>2014-02-11T20:53:40.1Z</time>
      </trkpt>
      <trkpt lat="45.63121" lon="6.03665">
        <ele>1837</ele>
        <time>2014-02-11T20:53:42.1Z</time>
      </trkpt>
      <trkpt lat="45.63119" lon="6.03662">
        <ele>1837</ele>
        <time>2014-02-11T20:53:45.1Z</time>
      </trkpt>
      <trkpt lat="45.63117" lon="6.0366">
        <ele>1837</ele>
        <time>2014-02-11T20:53:47.1Z</time>
      </trkpt>
      <trkpt lat="45.63115" lon="6.03657">
        <ele>1838</ele>
        <time>2014-02-11T20:53:50.1Z</time>
      </trkpt>
      <trkpt lat="45.63113" lon="6.03655">
        <ele>1838</ele>
        <time>2014-02-11T20:53:52.1Z</time>
      </trkpt>
      <trkpt lat="45.63111" lon="6.03651">
        <ele>1837</ele>
        <time>2014-02-11T20:53:55.1Z</time>
      </trkpt>
      <trkpt lat="45.6311" lon="6.03649">
        <ele>1837</ele>
        <time>2014-02-11T20:53:57.1Z</time>
      </trkpt>
      <trkpt lat="45.63108" lon="6.03646">
        <ele>1838</ele>
        <time>2014-02-11T20:54:00.1Z</time>
      </trkpt>
      <trkpt lat="45.63106" lon="6.03643">
        <ele>1839</ele>
        <time>2014-02-11T20:54:03.1Z</time>
      </trkpt>
      <trkpt lat="45.63105" lon="6.03641">
        <ele>1839</ele>
        <time>2014-02-11T20:54:05.1Z</time>
      </trkpt>
      <trkpt lat="45.63104" lon="6.03638">
        <ele>1840</ele>
        <time>2014-02-11T20:54:08.1Z</time>
      </trkpt>
      <trkpt lat="45.63102" lon="6.03636">
        <ele>1840</ele>
        <time>2014-02-11T20:54:10.1Z</time>
      </trkpt>
      <trkpt lat="45.63101" lon="6.03633">
        <ele>1840</ele>
        <time>2014-02-11T20:54:13.1Z</time>
      </trkpt>
      <trkpt lat="45.631" lon="6.03631">
        <ele>1841</ele>
        <time>2014-02-11T20:54:15.1Z</time>
      </trkpt>
      <trkpt lat="45.63099" lon="6.03629">
        <ele>1841</ele>
        <time>2014-02-11T20:54:17.1Z</time>
      </trkpt>
      <trkpt lat="45.63097" lon="6.03627">
        <ele>1841</ele>
        <time>2014-02-11T20:54:20.1Z</time>
      </trkpt>
      <trkpt lat="45.63096" lon="6.03625">
        <ele>1842</ele>
        <time>2014-02-11T20:54:22.1Z</time>
      </trkpt>
      <trkpt lat="45.63095" lon="6.03624">
        <ele>1842</ele>
        <time>2014-02-11T20:54:24.1Z</time>
      </trkpt>
      <trkpt lat="45.63094" lon="6.03622">
        <ele>1843</ele>
        <time>2014-02-11T20:54:27.1Z</time>
      </trkpt>
      <trkpt lat="45.63093" lon="6.03621">
        <ele>1844</ele>
        <time>2014-02-11T20:54:30.1Z</time>
      </trkpt>
      <trkpt lat="45.63092" lon="6.03619">
        <ele>1845</ele>
        <time>2014-02-11T20:54:32.1Z</time>
      </trkpt>
      <trkpt lat="45.63091" lon="6.03618">
        <ele>1844</ele>
        <time>2014-02-11T20:54:35.1Z</time>
      </trkpt>
      <trkpt lat="45.6309" lon="6.03616">
        <ele>1844</ele>
        <time>2014-02-11T20:54:38.1Z</time>
      </trkpt>
      <trkpt lat="45.63089" lon="6.03615">
        <ele>1844</ele>
        <time>2014-02-11T20:54:40.1Z</time>
      </trkpt>
      <trkpt lat="45.63089" lon="6.03614">
        <ele>1845</ele>
        <time>2014-02-11T20:54:43.1Z</time>
      </trkpt>
      <trkpt lat="45.63089" lon="6.03612">
        <ele>1846</ele>
        <time>2014-02-11T20:54:46.1Z</time>
      </trkpt>
      <trkpt lat="45.63088" lon="6.03611">
        <ele>1846</ele>
        <time>2014-02-11T20:54:48.1Z</time>
      </trkpt>
      <trkpt lat="45.63087" lon="6.0361">
        <ele>1846</ele>
        <time>2014-02-11T20:54:51.1Z</time>
      </trkpt>
      <trkpt lat="45.63087" lon="6.03609">
        <ele>1846</ele>
        <time>2014-02-11T20:54:53.1Z</time>
      </trkpt>
      <trkpt lat="45.63086" lon="6.03608">
        <ele>1847</ele>
        <time>2014-02-11T20:54:55.1Z</time>
      </trkpt>
      <trkpt lat="45.63086" lon="6.03606">
        <ele>1847</ele>
        <time>2014-02-11T20:54:58.1Z</time>
      </trkpt>
      <trkpt lat="45.63085" lon="6.03606">
        <ele>1848</ele>
        <time>2014-02-11T20:55:00.1Z</time>
      </trkpt>
      <trkpt lat="45.63085" lon="6.03604">
        <ele>1848</ele>
        <time>2014-02-11T20:55:03.1Z</time>
      </trkpt>
      <trkpt lat="45.63084" lon="6.03603">
        <ele>1848</ele>
        <time>2014-02-11T20:55:06.1Z</time>
      </trkpt>
      <trkpt lat="45.63084" lon="6.03603">
        <ele>1849</ele>
        <time>2014-02-11T20:55:08.1Z</time>
      </trkpt>
      <trkpt lat="45.63083" lon="6.03601">
        <ele>1850</ele>
        <time>2014-02-11T20:55:11.1Z</time>
      </trkpt>
      <trkpt lat="45.63083" lon="6.036">
        <ele>1850</ele>
        <time>2014-02-11T20:55:13.1Z</time>
      </trkpt>
      <trkpt lat="45.63083" lon="6.03599">
        <ele>1851</ele>
        <time>2014-02-11T20:55:16.1Z</time>
      </trkpt>
      <trkpt lat="45.63082" lon="6.03598">
        <ele>1851</ele>
        <time>2014-02-11T20:55:18.1Z</time>
      </trkpt>
      <trkpt lat="45.63082" lon="6.03598">
        <ele>1851</ele>
        <time>2014-02-11T20:55:21.1Z</time>
      </trkpt>
      <trkpt lat="45.63082" lon="6.03597">
        <ele>1851</ele>
        <time>2014-02-11T20:55:24.1Z</time>
      </trkpt>
      <trkpt lat="45.63081" lon="6.03596">
        <ele>1851</ele>
        <time>2014-02-11T20:55:27.1Z</time>
      </trkpt>
      <trkpt lat="45.63081" lon="6.03595">
        <ele>1852</ele>
        <time>2014-02-11T20:55:29.1Z</time>
      </trkpt>
      <trkpt lat="45.63081" lon="6.03595">
        <ele>1851</ele>
        <time>2014-02-11T20:55:31.1Z</time>
      </trkpt>
      <trkpt lat="45.6308" lon="6.03593">
        <ele>1852</ele>
        <time>2014-02-11T20:55:34.1Z</time>
      </trkpt>
      <trkpt lat="45.63079" lon="6.03592">
        <ele>1852</ele>
        <time>2014-02-11T20:55:37.1Z</time>
      </trkpt>
      <trkpt lat="45.63079" lon="6.0359">
        <ele>1852</ele>
        <time>2014-02-11T20:55:40.1Z</time>
      </trkpt>
      <trkpt lat="45.63078" lon="6.03589">
        <ele>1851</ele>
        <time>2014-02-11T20:55:42.1Z</time>
      </trkpt>
      <trkpt lat="45.63078" lon="6.03587">
        <ele>1851</ele>
        <time>2014-02-11T20:55:44.1Z</time>
      </trkpt>
      <trkpt lat="45.63077" lon="6.03585">
        <ele>1851</ele>
        <time>2014-02-11T20:55:47.1Z</time>
      </trkpt>
      <trkpt lat="45.63076" lon="6.03583">
        <ele>1851</ele>
        <time>2014-02-11T20:55:50.1Z</time>
      </trkpt>
      <trkpt lat="45.63075" lon="6.0358">
        <ele>1851</ele>
        <time>2014-02-11T20:55:53.1Z</time>
      </trkpt>
      <trkpt lat="45.63074" lon="6.03577">
        <ele>1851</ele>
        <time>2014-02-11T20:55:56.1Z</time>
      </trkpt>
      <trkpt lat="45.63073" lon="6.03575">
        <ele>1851</ele>
        <time>2014-02-11T20:55:58.1Z</time>
      </trkpt>
      <trkpt lat="45.63072" lon="6.03572">
        <ele>1850</ele>
        <time>2014-02-11T20:56:01.1Z</time>
      </trkpt>
      <trkpt lat="45.63071" lon="6.03569">
        <ele>1851</ele>
        <time>2014-02-11T20:56:04.1Z</time>
      </trkpt>
      <trkpt lat="45.6307" lon="6.03565">
        <ele>1851</ele>
        <time>2014-02-11T20:56:07.1Z</time>
      </trkpt>
      <trkpt lat="45.63069" lon="6.03562">
        <ele>1851</ele>
        <time>2014-02-11T20:56:10.1Z</time>
      </trkpt>
      <trkpt lat="45.63068" lon="6.0356">
        <ele>1850</ele>
        <time>2014-02-11T20:56:12.1Z</time>
      </trkpt>
      <trkpt lat="45.63067" lon="6.03557">
        <ele>1851</ele>
        <time>2014-02-11T20:56:15.1Z</time>
      </trkpt>
      <trkpt lat="45.63065" lon="6.03554">
        <ele>1853</ele>
        <time>2014-02-11T20:56:18.1Z</time>
      </trkpt>
      <trkpt lat="45.63065" lon="6.03553">
        <ele>1855</ele>
        <time>2014-02-11T20:56:20.1Z</time>
      </trkpt>
      <trkpt lat="45.63063" lon="6.0355">
        <ele>1857</ele>
        <time>2014-02-11T20:56:23.1Z</time>
      </trkpt>
      <trkpt lat="45.63061" lon="6.03548">
        <ele>1857</ele>
        <time>2014-02-11T20:56:26.1Z</time>
      </trkpt>
      <trkpt lat="45.6306" lon="6.03548">
        <ele>1857</ele>
        <time>2014-02-11T20:56:28.1Z</time>
      </trkpt>
      <trkpt lat="45.63058" lon="6.03546">
        <ele>1857</ele>
        <time>2014-02-11T20:56:31.1Z</time>
      </trkpt>
      <trkpt lat="45.63057" lon="6.03545">
        <ele>1858</ele>
        <time>2014-02-11T20:56:33.1Z</time>
      </trkpt>
      <trkpt lat="45.63056" lon="6.03544">
        <ele>1857</ele>
        <time>2014-02-11T20:56:36.1Z</time>
      </trkpt>
      <trkpt lat="45.63054" lon="6.03542">
        <ele>1855</ele>
        <time>2014-02-11T20:56:39.1Z</time>
      </trkpt>
      <trkpt lat="45.63052" lon="6.0354">
        <ele>1854</ele>
        <time>2014-02-11T20:56:42.1Z</time>
      </trkpt>
      <trkpt lat="45.63051" lon="6.03539">
        <ele>1853</ele>
        <time>2014-02-11T20:56:45.1Z</time>
      </trkpt>
      <trkpt lat="45.6305" lon="6.03538">
        <ele>1853</ele>
        <time>2014-02-11T20:56:47.1Z</time>
      </trkpt>
      <trkpt lat="45.63049" lon="6.03537">
        <ele>1854</ele>
        <time>2014-02-11T20:56:50.1Z</time>
      </trkpt>
      <trkpt lat="45.6305" lon="6.03537">
        <ele>1854</ele>
        <time>2014-02-11T20:56:52.1Z</time>
      </trkpt>
      <trkpt lat="45.6305" lon="6.03536">
        <ele>1855</ele>
        <time>2014-02-11T20:56:54.1Z</time>
      </trkpt>
      <trkpt lat="45.6305" lon="6.03537">
        <ele>1855</ele>
        <time>2014-02-11T20:56:58.1Z</time>
      </trkpt>
      <trkpt lat="45.6305" lon="6.03536">
        <ele>1855</ele>
        <time>2014-02-11T20:57:01.1Z</time>
      </trkpt>
      <trkpt lat="45.6305" lon="6.03537">
        <ele>1854</ele>
        <time>2014-02-11T20:57:05.1Z</time>
      </trkpt>
      <trkpt lat="45.6305" lon="6.03537">
        <ele>1854</ele>
        <time>2014-02-11T20:57:08.1Z</time>
      </trkpt>
      <trkpt lat="45.63049" lon="6.03537">
        <ele>1853</ele>
        <time>2014-02-11T20:57:10.1Z</time>
      </trkpt>
      <trkpt lat="45.63049" lon="6.03537">
        <ele>1853</ele>
        <time>2014-02-11T20:57:15.1Z</time>
      </trkpt>
      <trkpt lat="45.63049" lon="6.03537">
        <ele>1853</ele>
        <time>2014-02-11T20:57:18.1Z</time>
      </trkpt>
      <trkpt lat="45.63049" lon="6.03537">
        <ele>1853</ele>
        <time>2014-02-11T20:57:21.1Z</time>
      </trkpt>
      <trkpt lat="45.63049" lon="6.03537">
        <ele>1853</ele>
        <time>2014-02-11T20:57:23.1Z</time>
      </trkpt>
      <trkpt lat="45.63049" lon="6.03537">
        <ele>1854</ele>
        <time>2014-02-11T20:57:26.1Z</time>
      </trkpt>
      <trkpt lat="45.63049" lon="6.03538">
        <ele>1853</ele>
        <time>2014-02-11T20:57:29.1Z</time>
      </trkpt>
      <trkpt lat="45.63049" lon="6.03538">
        <ele>1854</ele>
        <time>2014-02-11T20:57:31.1Z</time>
      </trkpt>
      <trkpt lat="45.6305" lon="6.03538">
        <ele>1854</ele>
        <time>2014-02-11T20:57:33.1Z</time>
      </trkpt>
      <trkpt lat="45.6305" lon="6.03538">
        <ele>1855</ele>
        <time>2014-02-11T20:57:38.1Z</time>
      </trkpt>
      <trkpt lat="45.6305" lon="6.03538">
        <ele>1852</ele>
        <time>2014-02-11T20:57:47.1Z</time>
      </trkpt>
      <trkpt lat="45.6305" lon="6.03538">
        <ele>1852</ele>
        <time>2014-02-11T20:57:50.1Z</time>
      </trkpt>
      <trkpt lat="45.63049" lon="6.03538">
        <ele>1855</ele>
        <time>2014-02-11T20:57:53.1Z</time>
      </trkpt>
      <trkpt lat="45.63049" lon="6.03538">
        <ele>1856</ele>
        <time>2014-02-11T20:57:56.1Z</time>
      </trkpt>
      <trkpt lat="45.63049" lon="6.03538">
        <ele>1857</ele>
        <time>2014-02-11T20:57:59.1Z</time>
      </trkpt>
      <trkpt lat="45.63049" lon="6.03535">
        <ele>1856</ele>
        <time>2014-02-11T20:58:02.1Z</time>
      </trkpt>
      <trkpt lat="45.63048" lon="6.03533">
        <ele>1855</ele>
        <time>2014-02-11T20:58:05.1Z</time>
      </trkpt>
      <trkpt lat="45.63048" lon="6.0353">
        <ele>1854</ele>
        <time>2014-02-11T20:58:07.1Z</time>
      </trkpt>
      <trkpt lat="45.63048" lon="6.03526">
        <ele>1852</ele>
        <time>2014-02-11T20:58:10.1Z</time>
      </trkpt>
      <trkpt lat="45.63048" lon="6.03524">
        <ele>1852</ele>
        <time>2014-02-11T20:58:12.1Z</time>
      </trkpt>
      <trkpt lat="45.63048" lon="6.0352">
        <ele>1852</ele>
        <time>2014-02-11T20:58:15.1Z</time>
      </trkpt>
      <trkpt lat="45.63049" lon="6.03518">
        <ele>1852</ele>
        <time>2014-02-11T20:58:17.1Z</time>
      </trkpt>
      <trkpt lat="45.63049" lon="6.03514">
        <ele>1854</ele>
        <time>2014-02-11T20:58:20.1Z</time>
      </trkpt>
      <trkpt lat="45.63049" lon="6.03511">
        <ele>1855</ele>
        <time>2014-02-11T20:58:23.1Z</time>
      </trkpt>
      <trkpt lat="45.63049" lon="6.03509">
        <ele>1855</ele>
        <time>2014-02-11T20:58:25.1Z</time>
      </trkpt>
      <trkpt lat="45.63049" lon="6.03505">
        <ele>1855</ele>
        <time>2014-02-11T20:58:28.1Z</time>
      </trkpt>
      <trkpt lat="45.6305" lon="6.03503">
        <ele>1855</ele>
        <time>2014-02-11T20:58:30.1Z</time>
      </trkpt>
      <trkpt lat="45.63049" lon="6.035">
        <ele>1856</ele>
        <time>2014-02-11T20:58:33.1Z</time>
      </trkpt>
      <trkpt lat="45.63049" lon="6.03498">
        <ele>1856</ele>
        <time>2014-02-11T20:58:35.1Z</time>
      </trkpt>
      <trkpt lat="45.63048" lon="6.03498">
        <ele>1856</ele>
        <time>2014-02-11T20:58:37.1Z</time>
      </trkpt>
      <trkpt lat="45.63047" lon="6.03495">
        <ele>1855</ele>
        <time>2014-02-11T20:58:40.1Z</time>
      </trkpt>
      <trkpt lat="45.63047" lon="6.03492">
        <ele>1855</ele>
        <time>2014-02-11T20:58:43.1Z</time>
      </trkpt>
      <trkpt lat="45.63047" lon="6.03489">
        <ele>1856</ele>
        <time>2014-02-11T20:58:46.1Z</time>
      </trkpt>
      <trkpt lat="45.63047" lon="6.03487">
        <ele>1857</ele>
        <time>2014-02-11T20:58:49.1Z</time>
      </trkpt>
      <trkpt lat="45.63046" lon="6.03484">
        <ele>1858</ele>
        <time>2014-02-11T20:58:52.1Z</time>
      </trkpt>
      <trkpt lat="45.63046" lon="6.03483">
        <ele>1858</ele>
        <time>2014-02-11T20:58:54.1Z</time>
      </trkpt>
      <trkpt lat="45.63045" lon="6.03481">
        <ele>1858</ele>
        <time>2014-02-11T20:58:56.1Z</time>
      </trkpt>
      <trkpt lat="45.63043" lon="6.0348">
        <ele>1858</ele>
        <time>2014-02-11T20:58:59.1Z</time>
      </trkpt>
      <trkpt lat="45.63043" lon="6.03477">
        <ele>1858</ele>
        <time>2014-02-11T20:59:01.1Z</time>
      </trkpt>
      <trkpt lat="45.63043" lon="6.03475">
        <ele>1860</ele>
        <time>2014-02-11T20:59:04.1Z</time>
      </trkpt>
      <trkpt lat="45.63042" lon="6.03473">
        <ele>1861</ele>
        <time>2014-02-11T20:59:06.1Z</time>
      </trkpt>
      <trkpt lat="45.63042" lon="6.03471">
        <ele>1862</ele>
        <time>2014-02-11T20:59:09.1Z</time>
      </trkpt>
      <trkpt lat="45.63042" lon="6.03469">
        <ele>1862</ele>
        <time>2014-02-11T20:59:11.1Z</time>
      </trkpt>
      <trkpt lat="45.63042" lon="6.03466">
        <ele>1862</ele>
        <time>2014-02-11T20:59:14.1Z</time>
      </trkpt>
      <trkpt lat="45.63042" lon="6.03465">
        <ele>1862</ele>
        <time>2014-02-11T20:59:16.1Z</time>
      </trkpt>
      <trkpt lat="45.63042" lon="6.03463">
        <ele>1863</ele>
        <time>2014-02-11T20:59:19.1Z</time>
      </trkpt>
      <trkpt lat="45.63041" lon="6.03461">
        <ele>1864</ele>
        <time>2014-02-11T20:59:21.1Z</time>
      </trkpt>
      <trkpt lat="45.63041" lon="6.03458">
        <ele>1864</ele>
        <time>2014-02-11T20:59:24.1Z</time>
      </trkpt>
      <trkpt lat="45.63041" lon="6.03455">
        <ele>1864</ele>
        <time>2014-02-11T20:59:27.1Z</time>
      </trkpt>
      <trkpt lat="45.6304" lon="6.03454">
        <ele>1864</ele>
        <time>2014-02-11T20:59:29.1Z</time>
      </trkpt>
      <trkpt lat="45.6304" lon="6.03452">
        <ele>1864</ele>
        <time>2014-02-11T20:59:31.1Z</time>
      </trkpt>
      <trkpt lat="45.6304" lon="6.0345">
        <ele>1865</ele>
        <time>2014-02-11T20:59:33.1Z</time>
      </trkpt>
      <trkpt lat="45.6304" lon="6.03448">
        <ele>1866</ele>
        <time>2014-02-11T20:59:36.1Z</time>
      </trkpt>
      <trkpt lat="45.63039" lon="6.03446">
        <ele>1866</ele>
        <time>2014-02-11T20:59:38.1Z</time>
      </trkpt>
      <trkpt lat="45.63039" lon="6.03444">
        <ele>1867</ele>
        <time>2014-02-11T20:59:41.1Z</time>
      </trkpt>
      <trkpt lat="45.63039" lon="6.03442">
        <ele>1867</ele>
        <time>2014-02-11T20:59:43.1Z</time>
      </trkpt>
      <trkpt lat="45.63039" lon="6.03439">
        <ele>1867</ele>
        <time>2014-02-11T20:59:46.1Z</time>
      </trkpt>
      <trkpt lat="45.63039" lon="6.03437">
        <ele>1868</ele>
        <time>2014-02-11T20:59:48.1Z</time>
      </trkpt>
      <trkpt lat="45.63039" lon="6.03435">
        <ele>1869</ele>
        <time>2014-02-11T20:59:51.1Z</time>
      </trkpt>
      <trkpt lat="45.63038" lon="6.03433">
        <ele>1869</ele>
        <time>2014-02-11T20:59:53.1Z</time>
      </trkpt>
      <trkpt lat="45.63038" lon="6.03431">
        <ele>1870</ele>
        <time>2014-02-11T20:59:55.1Z</time>
      </trkpt>
      <trkpt lat="45.63038" lon="6.03428">
        <ele>1869</ele>
        <time>2014-02-11T20:59:58.1Z</time>
      </trkpt>
      <trkpt lat="45.63038" lon="6.03427">
        <ele>1869</ele>
        <time>2014-02-11T21:00:00.1Z</time>
      </trkpt>
      <trkpt lat="45.63038" lon="6.03425">
        <ele>1870</ele>
        <time>2014-02-11T21:00:03.1Z</time>
      </trkpt>
      <trkpt lat="45.63038" lon="6.03423">
        <ele>1870</ele>
        <time>2014-02-11T21:00:05.1Z</time>
      </trkpt>
      <trkpt lat="45.63038" lon="6.0342">
        <ele>1870</ele>
        <time>2014-02-11T21:00:08.1Z</time>
      </trkpt>
      <trkpt lat="45.63037" lon="6.03419">
        <ele>1870</ele>
        <time>2014-02-11T21:00:10.1Z</time>
      </trkpt>
      <trkpt lat="45.63036" lon="6.03416">
        <ele>1870</ele>
        <time>2014-02-11T21:00:13.1Z</time>
      </trkpt>
      <trkpt lat="45.63035" lon="6.03414">
        <ele>1871</ele>
        <time>2014-02-11T21:00:16.1Z</time>
      </trkpt>
      <trkpt lat="45.63034" lon="6.03411">
        <ele>1872</ele>
        <time>2014-02-11T21:00:19.1Z</time>
      </trkpt>
      <trkpt lat="45.63033" lon="6.03409">
        <ele>1871</ele>
        <time>2014-02-11T21:00:22.1Z</time>
      </trkpt>
      <trkpt lat="45.63033" lon="6.03409">
        <ele>1871</ele>
        <time>2014-02-11T21:00:23.1Z</time>
      </trkpt>
    </trkseg>
  </trk>
</gpx>